Darstellungsparameter: Aktuell verwendete Einstellungen:
Skalierung der Graphiken ... ?
xyx+y,   Skalierungsfaktor:      Skalierung: Modus: x, Faktor: 1
Darstellungszeitraum ... ?
Vom - - bis: - -   Zeitraum: 17.07.2008 - 16.10.2008
Min/Max/Avg-Anzeige ... ?
Zeige MMA aktuell
Zeige MMA Monat
Zeige MMA alles
Zeige --A aktuell
Zeige --A Monat
Zeige --A alles
Keine MMA-Anzeige
MMA:
Average (ber die Originaldaten)
MMA-Basis: 17.04.2019 - 19.05.2019
Quicknavigation für Darstellung... ?
Tage:      1T, 2T, 3T, 5T -1T -2T -3T -5T +1T +2T +3T +5T
Wochen: 1W, 2W, 3W -1W -2W -3W +1W +2W +3W
Monate: 1M, 3M, 6M -1M -3M -6M +1M +3M +6M
Jahre:    1J, 3J, 5J, 10J -1J -3J -5J -10J +1J +3J +5J +10J
Nutze für die Darstellung ... ?
Originaldaten oder Mittelwerte auf ...
Stundenbasis Tagesbasis Wochenbasis
Monatsbasis Jahresbasis      Datenbasis: Original-Daten
Darstellen als:
Statistik (Auto) Statistik J:M      Darstellung:
Zur Graphik,    zurück zur Übersicht aller Sensoren.
 
Tabellarische Datenbersicht: ?
 
Sensor: Nr:Datum:Temp:Abs-Feuchte:Windchill:Wind:
Aussen-T/F 1 17-07-2008 00:05:07 16.5 C 11.51 g/m*3 16.5 C 0 km/h
2 17-07-2008 00:35:07 16.5 C 11.23 g/m*3 16.5 C 0 km/h
3 17-07-2008 01:05:07 16 C 10.22 g/m*3 16 C 0 km/h
4 17-07-2008 01:35:07 15.5 C 9.91 g/m*3 15.5 C 0 km/h
5 17-07-2008 02:05:07 15.1 C 9.42 g/m*3 15.1 C 0 km/h
6 17-07-2008 02:35:07 14.7 C 9.32 g/m*3 14.7 C 0 km/h
7 17-07-2008 03:05:07 14.7 C 9.07 g/m*3 14.7 C 0 km/h
8 17-07-2008 03:35:08 14.7 C 8.69 g/m*3 14.7 C 0 km/h
9 17-07-2008 04:05:08 14.5 C 8.83 g/m*3 14.5 C 0 km/h
10 17-07-2008 04:35:08 14.2 C 8.67 g/m*3 14.2 C 0 km/h
11 17-07-2008 05:05:08 14 C 8.44 g/m*3 14 C 0 km/h
12 17-07-2008 05:35:08 13.8 C 8.7 g/m*3 13.8 C 0 km/h
13 17-07-2008 06:05:08 13.4 C 8.95 g/m*3 13.4 C 0 km/h
14 17-07-2008 06:35:08 13.5 C 9.12 g/m*3 13.5 C 0 km/h
15 17-07-2008 07:05:08 13.9 C 9.23 g/m*3 13.9 C 0 km/h
16 17-07-2008 07:35:08 14.4 C 9.02 g/m*3 14.4 C 0 km/h
17 17-07-2008 08:05:08 14.9 C 9.43 g/m*3 14.9 C 0 km/h
18 17-07-2008 08:35:08 15.4 C 9.33 g/m*3 15.4 C 0 km/h
19 17-07-2008 09:05:08 16 C 9.13 g/m*3 16 C 0 km/h
20 17-07-2008 09:35:08 17 C 8.54 g/m*3 17 C 0 km/h
21 17-07-2008 10:05:08 17.9 C 8.4 g/m*3 17.9 C 0 km/h
22 17-07-2008 10:35:08 18.3 C 7.35 g/m*3 18.3 C 0 km/h
23 17-07-2008 11:05:08 19.2 C 7.09 g/m*3 19.2 C 0 km/h
24 17-07-2008 11:35:08 19.1 C 7.05 g/m*3 19.1 C 0 km/h
25 17-07-2008 12:05:08 19.8 C 6.83 g/m*3 19.8 C 0 km/h
Sensor: Nr:Datum:Temp:Abs-Feuchte:Windchill:Wind:
Aussen-T/F 26 17-07-2008 12:35:08 20.8 C 6.88 g/m*3 20.8 C 0 km/h
27 17-07-2008 13:05:08 21.9 C 6.56 g/m*3 21.9 C 0 km/h
28 17-07-2008 13:35:08 23 C 6.17 g/m*3 23 C 0 km/h
29 17-07-2008 14:05:09 22.4 C 6.16 g/m*3 22.4 C 0 km/h
30 17-07-2008 14:35:09 22.5 C 6.39 g/m*3 22.5 C 0 km/h
31 17-07-2008 15:05:09 21.8 C 6.91 g/m*3 21.8 C 0 km/h
32 17-07-2008 15:35:09 20.2 C 7.17 g/m*3 20.2 C 0 km/h
33 17-07-2008 16:05:09 19.5 C 7.55 g/m*3 19.5 C 0 km/h
34 17-07-2008 16:35:09 19.6 C 7.6 g/m*3 19.6 C 0 km/h
35 17-07-2008 17:05:09 19.7 C 8.15 g/m*3 19.7 C 0 km/h
36 17-07-2008 17:35:09 19.9 C 8.42 g/m*3 19.9 C 0 km/h
37 17-07-2008 18:05:09 20.3 C 8.44 g/m*3 20.3 C 0 km/h
38 17-07-2008 18:35:09 20.3 C 8.27 g/m*3 20.3 C 0 km/h
39 17-07-2008 19:05:09 19.8 C 8.37 g/m*3 19.8 C 0 km/h
40 17-07-2008 19:35:09 18.9 C 8.42 g/m*3 18.9 C 0 km/h
41 17-07-2008 20:05:09 17.3 C 8.84 g/m*3 17.3 C 0 km/h
42 17-07-2008 20:35:09 16.2 C 9.65 g/m*3 16.2 C 0 km/h
43 17-07-2008 21:05:09 15.6 C 9.84 g/m*3 15.6 C 0 km/h
44 17-07-2008 21:35:09 15.6 C 9.84 g/m*3 15.6 C 0 km/h
45 17-07-2008 22:05:09 14.5 C 10.2 g/m*3 14.5 C 0 km/h
46 17-07-2008 22:35:09 14.4 C 10.51 g/m*3 14.4 C 0 km/h
47 17-07-2008 23:05:09 14.8 C 10.64 g/m*3 14.8 C 0 km/h
48 17-07-2008 23:35:09 15 C 10.51 g/m*3 15 C 0 km/h
49 18-07-2008 00:05:10 14.9 C 10.32 g/m*3 14.9 C 0 km/h
50 18-07-2008 00:35:10 14.8 C 10.26 g/m*3 14.8 C 0 km/h
Sensor: Nr:Datum:Temp:Abs-Feuchte:Windchill:Wind:
Aussen-T/F 51 18-07-2008 01:05:10 14.5 C 10.45 g/m*3 14.5 C 0 km/h
52 18-07-2008 01:35:10 14.1 C 10.32 g/m*3 14.1 C 0 km/h
53 18-07-2008 02:05:10 13.8 C 10.37 g/m*3 13.8 C 0 km/h
54 18-07-2008 02:35:10 14 C 10.37 g/m*3 14 C 0 km/h
55 18-07-2008 03:05:10 14 C 10.49 g/m*3 14 C 0 km/h
56 18-07-2008 03:35:10 13.7 C 10.54 g/m*3 13.7 C 0 km/h
57 18-07-2008 04:05:10 13.6 C 10.59 g/m*3 13.6 C 0 km/h
58 18-07-2008 04:35:10 13.5 C 10.53 g/m*3 13.5 C 0 km/h
59 18-07-2008 05:05:10 13.9 C 10.19 g/m*3 13.9 C 0 km/h
60 18-07-2008 05:35:10 13.8 C 10.13 g/m*3 13.8 C 0 km/h
61 18-07-2008 06:05:10 13.8 C 10.25 g/m*3 13.8 C 0 km/h
62 18-07-2008 06:35:10 13.9 C 9.95 g/m*3 13.9 C 0 km/h
63 18-07-2008 07:05:10 14.1 C 9.71 g/m*3 14.1 C 0 km/h
64 18-07-2008 07:35:10 14.5 C 9.33 g/m*3 14.5 C 0 km/h
65 18-07-2008 08:05:10 14.7 C 9.32 g/m*3 14.7 C 0 km/h
66 18-07-2008 08:35:10 14.8 C 9.25 g/m*3 14.8 C 0 km/h
67 18-07-2008 09:05:10 15.5 C 9.12 g/m*3 15.5 C 0 km/h
68 18-07-2008 09:35:10 16 C 9.26 g/m*3 16 C 0 km/h
69 18-07-2008 10:05:10 15.6 C 9.44 g/m*3 15.6 C 0 km/h
70 18-07-2008 10:35:11 16.7 C 9.24 g/m*3 16.7 C 0 km/h
71 18-07-2008 11:05:11 17.8 C 8.95 g/m*3 17.8 C 0 km/h
72 18-07-2008 11:35:11 16.5 C 8.99 g/m*3 16.5 C 0 km/h
73 18-07-2008 12:05:11 16.8 C 9.29 g/m*3 16.8 C 0 km/h
74 18-07-2008 12:35:11 16.7 C 9.38 g/m*3 16.7 C 0 km/h
75 18-07-2008 13:05:11 17.8 C 9.11 g/m*3 17.8 C 0 km/h
Sensor: Nr:Datum:Temp:Abs-Feuchte:Windchill:Wind:
Aussen-T/F 76 18-07-2008 13:35:11 20.2 C 8.57 g/m*3 20.2 C 0 km/h
77 18-07-2008 14:05:11 19.7 C 8.66 g/m*3 19.7 C 0 km/h
78 18-07-2008 14:35:11 20.2 C 7.87 g/m*3 20.2 C 0 km/h
79 18-07-2008 15:05:11 21.3 C 8.02 g/m*3 21.3 C 0 km/h
80 18-07-2008 15:35:11 20.4 C 8.14 g/m*3 20.4 C 0 km/h
81 18-07-2008 16:05:11 20.7 C 7.92 g/m*3 20.7 C 0 km/h
82 18-07-2008 16:35:11 20.3 C 7.56 g/m*3 20.3 C 0 km/h
83 18-07-2008 17:05:11 19.2 C 8.08 g/m*3 19.2 C 0 km/h
84 18-07-2008 17:35:11 17.5 C 10.73 g/m*3 17.5 C 0 km/h
85 18-07-2008 18:05:11 18 C 10.44 g/m*3 18 C 0 km/h
86 18-07-2008 18:35:11 17.9 C 10.54 g/m*3 17.9 C 0 km/h
87 18-07-2008 19:05:11 18.5 C 10.44 g/m*3 18.5 C 0 km/h
88 18-07-2008 19:35:11 18.9 C 10.53 g/m*3 18.9 C 0 km/h
89 18-07-2008 20:05:11 18.2 C 10.26 g/m*3 18.2 C 0 km/h
90 18-07-2008 20:35:12 17.7 C 10.11 g/m*3 17.7 C 0 km/h
91 18-07-2008 21:05:12 17.5 C 9.69 g/m*3 17.5 C 0 km/h
92 18-07-2008 21:35:12 17.4 C 9.48 g/m*3 17.4 C 0 km/h
93 18-07-2008 22:05:12 17.1 C 9.17 g/m*3 17.1 C 0 km/h
94 18-07-2008 22:35:12 17.2 C 9.23 g/m*3 17.2 C 0 km/h
95 18-07-2008 23:05:12 17.1 C 9.32 g/m*3 17.1 C 0 km/h
96 18-07-2008 23:35:12 17.1 C 9.17 g/m*3 17.1 C 0 km/h
97 19-07-2008 00:05:12 16.9 C 9.49 g/m*3 16.9 C 0 km/h
98 19-07-2008 00:35:12 16.7 C 9.52 g/m*3 16.7 C 0 km/h
99 19-07-2008 01:05:12 16.4 C 9.91 g/m*3 16.4 C 0 km/h
100 19-07-2008 01:35:12 16.8 C 9.72 g/m*3 16.8 C 0 km/h
Sensor: Nr:Datum:Temp:Abs-Feuchte:Windchill:Wind:
Aussen-T/F 101 19-07-2008 02:05:12 16.7 C 9.38 g/m*3 16.7 C 0 km/h
102 19-07-2008 02:35:12 16.6 C 9.32 g/m*3 16.6 C 0 km/h
103 19-07-2008 03:05:12 16.9 C 9.06 g/m*3 16.9 C 0 km/h
104 19-07-2008 03:35:12 17 C 8.83 g/m*3 17 C 0 km/h
105 19-07-2008 04:05:12 17.5 C 8.5 g/m*3 17.5 C 0 km/h
106 19-07-2008 04:35:12 17.1 C 9.03 g/m*3 17.1 C 0 km/h
107 19-07-2008 05:05:12 16.2 C 9.52 g/m*3 16.2 C 0 km/h
108 19-07-2008 05:35:12 17 C 9.26 g/m*3 17 C 0 km/h
109 19-07-2008 06:05:12 16.8 C 9.44 g/m*3 16.8 C 0 km/h
110 19-07-2008 06:35:12 16.6 C 9.61 g/m*3 16.6 C 0 km/h
111 19-07-2008 07:05:13 17.2 C 9.52 g/m*3 17.2 C 0 km/h
112 19-07-2008 07:35:13 17.5 C 9.69 g/m*3 17.5 C 0 km/h
113 19-07-2008 08:05:13 17.8 C 9.71 g/m*3 17.8 C 0 km/h
114 19-07-2008 08:35:13 18.5 C 9.97 g/m*3 18.5 C 0 km/h
115 19-07-2008 09:05:13 19.3 C 9.45 g/m*3 19.3 C 0 km/h
116 19-07-2008 09:35:13 19.4 C 9.34 g/m*3 19.4 C 0 km/h
117 19-07-2008 10:05:13 21 C 9.34 g/m*3 21 C 0 km/h
118 19-07-2008 10:35:13 21.5 C 9.43 g/m*3 21.5 C 0 km/h
119 19-07-2008 11:05:13 21.8 C 9.4 g/m*3 21.8 C 0 km/h
120 19-07-2008 11:35:13 22.4 C 9.33 g/m*3 22.4 C 0 km/h
121 19-07-2008 12:05:13 23.3 C 9.41 g/m*3 23.3 C 0 km/h
122 19-07-2008 12:35:13 24.3 C 8.63 g/m*3 24.3 C 0 km/h
123 19-07-2008 13:05:13 24.9 C 8.47 g/m*3 24.9 C 0 km/h
124 19-07-2008 13:35:13 24.8 C 8.88 g/m*3 24.8 C 0 km/h
125 19-07-2008 14:05:13 26.1 C 7.83 g/m*3 26.1 C 0 km/h
Sensor: Nr:Datum:Temp:Abs-Feuchte:Windchill:Wind:
Aussen-T/F 126 19-07-2008 14:35:13 26.3 C 7.67 g/m*3 26.3 C 0 km/h
127 19-07-2008 15:05:13 25.2 C 7.92 g/m*3 25.2 C 0 km/h
128 19-07-2008 15:35:13 20.4 C 11.5 g/m*3 20.4 C 0 km/h
129 19-07-2008 16:05:13 23 C 13.77 g/m*3 23 C 0 km/h
130 19-07-2008 16:35:13 24.4 C 10.46 g/m*3 24.4 C 0 km/h
131 19-07-2008 17:05:14 23.6 C 10.21 g/m*3 23.6 C 0 km/h
132 19-07-2008 17:35:14 24.5 C 9.4 g/m*3 24.5 C 0 km/h
133 19-07-2008 18:05:14 25.4 C 8.71 g/m*3 25.4 C 0 km/h
134 19-07-2008 18:35:14 25.6 C 7.14 g/m*3 25.6 C 0 km/h
135 19-07-2008 19:05:14 17.2 C 5.42 g/m*3 17.2 C 0 km/h
136 19-07-2008 19:35:14 17 C 11.43 g/m*3 17 C 0 km/h
137 19-07-2008 20:05:14 17.4 C 11.26 g/m*3 17.4 C 0 km/h
138 19-07-2008 20:35:14 17.7 C 12.07 g/m*3 17.7 C 0 km/h
139 19-07-2008 21:05:14 17.7 C 12.07 g/m*3 17.7 C 0 km/h
140 19-07-2008 21:35:14 17.5 C 11.93 g/m*3 17.5 C 0 km/h
141 19-07-2008 22:05:14 16.6 C 11.58 g/m*3 16.6 C 0 km/h
142 19-07-2008 22:35:14 16.1 C 10.97 g/m*3 16.1 C 0 km/h
143 19-07-2008 23:05:14 15.6 C 10.37 g/m*3 15.6 C 0 km/h
144 19-07-2008 23:35:14 15.4 C 10.25 g/m*3 15.4 C 0 km/h
145 20-07-2008 00:05:14 15 C 10.13 g/m*3 15 C 0 km/h
146 20-07-2008 00:35:14 14.8 C 10.01 g/m*3 14.8 C 0 km/h
147 20-07-2008 01:05:14 14.9 C 9.3 g/m*3 14.9 C 0 km/h
148 20-07-2008 01:35:14 14.4 C 9.15 g/m*3 14.4 C 0 km/h
149 20-07-2008 02:05:14 14.8 C 8.99 g/m*3 14.8 C 0 km/h
150 20-07-2008 02:35:14 14.4 C 8.9 g/m*3 14.4 C 0 km/h
Sensor: Nr:Datum:Temp:Abs-Feuchte:Windchill:Wind:
Aussen-T/F 151 20-07-2008 03:05:15 14.2 C 8.91 g/m*3 14.2 C 0 km/h
152 20-07-2008 03:35:15 14.1 C 8.86 g/m*3 14.1 C 0 km/h
153 20-07-2008 04:05:15 14 C 8.56 g/m*3 14 C 0 km/h
154 20-07-2008 04:35:15 13.7 C 8.64 g/m*3 13.7 C 0 km/h
155 20-07-2008 05:05:15 13.3 C 8.78 g/m*3 13.3 C 0 km/h
156 20-07-2008 05:35:15 12.7 C 8.91 g/m*3 12.7 C 0 km/h
157 20-07-2008 06:05:15 12.4 C 8.96 g/m*3 12.4 C 0 km/h
158 20-07-2008 06:35:15 12.6 C 9.07 g/m*3 12.6 C 0 km/h
159 20-07-2008 07:05:15 12.9 C 9.24 g/m*3 12.9 C 0 km/h
160 20-07-2008 07:35:15 13.3 C 9.13 g/m*3 13.3 C 0 km/h
161 20-07-2008 08:05:15 13.7 C 8.88 g/m*3 13.7 C 0 km/h
162 20-07-2008 08:35:15 14.1 C 8.62 g/m*3 14.1 C 0 km/h
163 20-07-2008 09:05:15 14.7 C 8.69 g/m*3 14.7 C 0 km/h
164 20-07-2008 09:35:15 15.8 C 8.62 g/m*3 15.8 C 0 km/h
165 20-07-2008 10:05:15 16.5 C 8.43 g/m*3 16.5 C 0 km/h
166 20-07-2008 10:35:15 17.1 C 8.59 g/m*3 17.1 C 0 km/h
167 20-07-2008 11:05:15 18 C 8.29 g/m*3 18 C 0 km/h
168 20-07-2008 11:35:15 18.8 C 8.7 g/m*3 18.8 C 0 km/h
169 20-07-2008 12:05:15 20 C 8.12 g/m*3 20 C 0 km/h
170 20-07-2008 12:35:15 19.5 C 8.06 g/m*3 19.5 C 0 km/h
171 20-07-2008 13:05:15 19.5 C 7.89 g/m*3 19.5 C 0 km/h
172 20-07-2008 13:35:16 18.8 C 8.05 g/m*3 18.8 C 0 km/h
173 20-07-2008 14:05:16 19.7 C 7.81 g/m*3 19.7 C 0 km/h
174 20-07-2008 14:35:16 21.2 C 7.41 g/m*3 21.2 C 0 km/h
175 20-07-2008 15:05:16 21.8 C 6.72 g/m*3 21.8 C 0 km/h
Sensor: Nr:Datum:Temp:Abs-Feuchte:Windchill:Wind:
Aussen-T/F 176 20-07-2008 15:35:16 22.6 C 6.63 g/m*3 22.6 C 0 km/h
177 20-07-2008 16:05:16 14.5 C 9.7 g/m*3 14.5 C 0 km/h
178 20-07-2008 16:35:16 14.8 C 10.51 g/m*3 14.8 C 0 km/h
179 20-07-2008 17:05:16 15.9 C 10.02 g/m*3 15.9 C 0 km/h
180 20-07-2008 17:35:16 15.4 C 9.72 g/m*3 15.4 C 0 km/h
181 20-07-2008 18:05:16 14.3 C 9.95 g/m*3 14.3 C 0 km/h
182 20-07-2008 18:35:16 16.5 C 9.83 g/m*3 16.5 C 0 km/h
183 20-07-2008 19:05:16 16.8 C 9.29 g/m*3 16.8 C 0 km/h
184 20-07-2008 19:35:16 16.4 C 9.21 g/m*3 16.4 C 0 km/h
185 20-07-2008 20:05:16 16.4 C 9.91 g/m*3 16.4 C 0 km/h
186 20-07-2008 20:35:16 13.3 C 9.01 g/m*3 13.3 C 0 km/h
187 20-07-2008 21:05:16 13.8 C 9.89 g/m*3 13.8 C 0 km/h
188 20-07-2008 21:35:16 13 C 9.3 g/m*3 13 C 0 km/h
189 20-07-2008 22:05:16 12.9 C 9.58 g/m*3 12.9 C 0 km/h
190 20-07-2008 22:35:16 12.4 C 9.29 g/m*3 12.4 C 0 km/h
191 20-07-2008 23:05:16 11.9 C 9.11 g/m*3 11.9 C 0 km/h
192 20-07-2008 23:35:16 11.7 C 8.99 g/m*3 11.7 C 0 km/h
193 21-07-2008 00:05:17 11.1 C 8.76 g/m*3 11.1 C 0 km/h
194 21-07-2008 00:35:17 11.5 C 9.09 g/m*3 11.5 C 0 km/h
195 21-07-2008 01:05:17 11 C 8.71 g/m*3 11 C 0 km/h
196 21-07-2008 01:35:17 10.7 C 8.55 g/m*3 10.7 C 0 km/h
197 21-07-2008 02:05:17 10.5 C 8.53 g/m*3 10.5 C 0 km/h
198 21-07-2008 02:35:17 10.3 C 8.33 g/m*3 10.3 C 0 km/h
199 21-07-2008 03:05:17 10.1 C 8.04 g/m*3 10.1 C 0 km/h
200 21-07-2008 03:35:17 10.1 C 7.56 g/m*3 10.1 C 0 km/h
Sensor: Nr:Datum:Temp:Abs-Feuchte:Windchill:Wind:
Aussen-T/F 201 21-07-2008 04:05:17 10 C 7.61 g/m*3 10 C 0 km/h
202 21-07-2008 04:35:17 10.4 C 7.61 g/m*3 10.4 C 0 km/h
203 21-07-2008 05:05:17 10.4 C 7.71 g/m*3 10.4 C 0 km/h
204 21-07-2008 05:35:17 10.3 C 7.85 g/m*3 10.3 C 0 km/h
205 21-07-2008 06:05:17 10.6 C 7.71 g/m*3 10.6 C 0 km/h
206 21-07-2008 06:35:17 10.9 C 7.66 g/m*3 10.9 C 0 km/h
207 21-07-2008 07:05:17 11.3 C 7.75 g/m*3 11.3 C 0 km/h
208 21-07-2008 07:35:17 11.8 C 7.89 g/m*3 11.8 C 0 km/h
209 21-07-2008 08:05:17 12.6 C 7.97 g/m*3 12.6 C 0 km/h
210 21-07-2008 08:35:17 13 C 7.71 g/m*3 13 C 0 km/h
211 21-07-2008 09:05:17 13.1 C 7.65 g/m*3 13.1 C 0 km/h
212 21-07-2008 09:35:18 15.1 C 7.48 g/m*3 15.1 C 0 km/h
213 21-07-2008 10:05:18 15.8 C 7.4 g/m*3 15.8 C 0 km/h
214 21-07-2008 10:35:18 17 C 6.66 g/m*3 17 C 0 km/h
215 21-07-2008 11:05:18 17.1 C 6.84 g/m*3 17.1 C 0 km/h
216 21-07-2008 11:35:18 17 C 6.66 g/m*3 17 C 0 km/h
217 21-07-2008 12:05:18 14.1 C 8.25 g/m*3 14.1 C 0 km/h
218 21-07-2008 12:35:18 15.8 C 8.48 g/m*3 15.8 C 0 km/h
219 21-07-2008 13:05:18 17 C 8.83 g/m*3 17 C 0 km/h
220 21-07-2008 13:35:18 15.7 C 8.96 g/m*3 15.7 C 0 km/h
221 21-07-2008 14:05:18 14.5 C 8.71 g/m*3 14.5 C 0 km/h
222 21-07-2008 14:35:18 14 C 9.17 g/m*3 14 C 0 km/h
223 21-07-2008 15:05:18 13.4 C 8.83 g/m*3 13.4 C 0 km/h
224 21-07-2008 15:35:18 14.6 C 8.88 g/m*3 14.6 C 0 km/h
225 21-07-2008 16:05:18 13.9 C 8.99 g/m*3 13.9 C 0 km/h
Sensor: Nr:Datum:Temp:Abs-Feuchte:Windchill:Wind:
Aussen-T/F 226 21-07-2008 16:35:18 12.4 C 8.63 g/m*3 12.4 C 0 km/h
227 21-07-2008 17:05:18 11.7 C 8.99 g/m*3 11.7 C 0 km/h
228 21-07-2008 17:35:18 11.9 C 9.11 g/m*3 11.9 C 0 km/h
229 21-07-2008 18:05:18 12.6 C 8.85 g/m*3 12.6 C 0 km/h
230 21-07-2008 18:35:18 12.4 C 8.74 g/m*3 12.4 C 0 km/h
231 21-07-2008 19:05:19 12.6 C 8.74 g/m*3 12.6 C 0 km/h
232 21-07-2008 19:35:19 12.7 C 8.35 g/m*3 12.7 C 0 km/h
233 21-07-2008 20:05:19 12.1 C 8.47 g/m*3 12.1 C 0 km/h
234 21-07-2008 20:35:19 12 C 8.63 g/m*3 12 C 0 km/h
235 21-07-2008 21:05:19 11.8 C 8.74 g/m*3 11.8 C 0 km/h
236 21-07-2008 21:35:19 11.9 C 8.9 g/m*3 11.9 C 0 km/h
237 21-07-2008 22:05:19 11.7 C 8.99 g/m*3 11.7 C 0 km/h
238 21-07-2008 22:35:19 11.5 C 9.09 g/m*3 11.5 C 0 km/h
239 21-07-2008 23:05:19 12 C 9.17 g/m*3 12 C 0 km/h
240 21-07-2008 23:35:19 12.2 C 9.17 g/m*3 12.2 C 0 km/h
241 22-07-2008 00:05:19 12.1 C 9.01 g/m*3 12.1 C 0 km/h
242 22-07-2008 00:35:19 12.1 C 9.33 g/m*3 12.1 C 0 km/h
243 22-07-2008 01:05:19 12.3 C 9.45 g/m*3 12.3 C 0 km/h
244 22-07-2008 01:35:19 12.4 C 9.4 g/m*3 12.4 C 0 km/h
245 22-07-2008 02:05:19 12.4 C 9.4 g/m*3 12.4 C 0 km/h
246 22-07-2008 02:35:19 12.7 C 9.24 g/m*3 12.7 C 0 km/h
247 22-07-2008 03:05:19 12.4 C 9.07 g/m*3 12.4 C 0 km/h
248 22-07-2008 03:35:19 11.9 C 9 g/m*3 11.9 C 0 km/h
249 22-07-2008 04:05:19 11.8 C 9.05 g/m*3 11.8 C 0 km/h
250 22-07-2008 04:35:19 12 C 9.27 g/m*3 12 C 0 km/h
Sensor: Nr:Datum:Temp:Abs-Feuchte:Windchill:Wind:
Aussen-T/F 251 22-07-2008 05:05:20 11.8 C 9.37 g/m*3 11.8 C 0 km/h
252 22-07-2008 05:35:20 11.8 C 9.58 g/m*3 11.8 C 0 km/h
253 22-07-2008 06:05:20 12 C 9.8 g/m*3 12 C 0 km/h
254 22-07-2008 06:35:20 12 C 9.91 g/m*3 12 C 0 km/h
255 22-07-2008 07:05:20 12 C 9.91 g/m*3 12 C 0 km/h
256 22-07-2008 07:35:20 12.1 C 9.97 g/m*3 12.1 C 0 km/h
257 22-07-2008 08:05:20 12.5 C 10.33 g/m*3 12.5 C 0 km/h
258 22-07-2008 08:35:20 12.5 C 10.33 g/m*3 12.5 C 0 km/h
259 22-07-2008 09:05:20 12.5 C 10.33 g/m*3 12.5 C 0 km/h
260 22-07-2008 09:35:20 12.9 C 10.37 g/m*3 12.9 C 0 km/h
261 22-07-2008 10:05:20 13.4 C 10.11 g/m*3 13.4 C 0 km/h
262 22-07-2008 10:35:20 14 C 9.77 g/m*3 14 C 0 km/h
263 22-07-2008 11:05:20 15 C 9.87 g/m*3 15 C 0 km/h
264 22-07-2008 11:35:20 15.2 C 9.48 g/m*3 15.2 C 0 km/h
265 22-07-2008 12:05:20 15.1 C 8.9 g/m*3 15.1 C 0 km/h
266 22-07-2008 12:35:20 15.5 C 9.12 g/m*3 15.5 C 0 km/h
267 22-07-2008 13:05:20 15.4 C 8.93 g/m*3 15.4 C 0 km/h
268 22-07-2008 13:35:20 15.5 C 8.86 g/m*3 15.5 C 0 km/h
269 22-07-2008 14:05:20 15.5 C 8.86 g/m*3 15.5 C 0 km/h
270 22-07-2008 14:35:20 16.7 C 9.38 g/m*3 16.7 C 0 km/h
271 22-07-2008 15:05:20 16.8 C 8.58 g/m*3 16.8 C 0 km/h
272 22-07-2008 15:35:21 17.8 C 8.2 g/m*3 17.8 C 0 km/h
273 22-07-2008 16:05:21 17.3 C 8.1 g/m*3 17.3 C 0 km/h
274 22-07-2008 16:35:21 18 C 8.45 g/m*3 18 C 0 km/h
275 22-07-2008 17:05:21 18.5 C 8.07 g/m*3 18.5 C 0 km/h
Sensor: Nr:Datum:Temp:Abs-Feuchte:Windchill:Wind:
Aussen-T/F 276 22-07-2008 17:35:21 17.6 C 7.95 g/m*3 17.6 C 0 km/h
277 22-07-2008 18:05:21 18.8 C 8.21 g/m*3 18.8 C 0 km/h
278 22-07-2008 18:35:21 18.2 C 9.01 g/m*3 18.2 C 0 km/h
279 22-07-2008 19:05:21 18.5 C 9.02 g/m*3 18.5 C 0 km/h
280 22-07-2008 19:35:21 18.4 C 8.97 g/m*3 18.4 C 0 km/h
281 22-07-2008 20:05:21 17.3 C 9.43 g/m*3 17.3 C 0 km/h
282 22-07-2008 20:35:21 18 C 9.52 g/m*3 18 C 0 km/h
283 22-07-2008 21:05:21 17.2 C 9.23 g/m*3 17.2 C 0 km/h
284 22-07-2008 21:35:21 15.8 C 9.29 g/m*3 15.8 C 0 km/h
285 22-07-2008 22:05:21 14.6 C 9.01 g/m*3 14.6 C 0 km/h
286 22-07-2008 22:35:21 14 C 8.81 g/m*3 14 C 0 km/h
287 22-07-2008 23:05:21 13.5 C 9.12 g/m*3 13.5 C 0 km/h
288 22-07-2008 23:35:21 13.1 C 9.13 g/m*3 13.1 C 0 km/h
289 23-07-2008 00:05:21 13.1 C 9.36 g/m*3 13.1 C 0 km/h
290 23-07-2008 00:35:21 13 C 9.41 g/m*3 13 C 0 km/h
291 23-07-2008 01:05:21 12.5 C 9.24 g/m*3 12.5 C 0 km/h
292 23-07-2008 01:35:22 12 C 9.06 g/m*3 12 C 0 km/h
293 23-07-2008 02:05:22 11.6 C 9.04 g/m*3 11.6 C 0 km/h
294 23-07-2008 02:35:22 11.3 C 8.87 g/m*3 11.3 C 0 km/h
295 23-07-2008 03:05:22 11.2 C 9.02 g/m*3 11.2 C 0 km/h
296 23-07-2008 03:35:22 10.7 C 8.74 g/m*3 10.7 C 0 km/h
297 23-07-2008 04:05:22 10.4 C 8.58 g/m*3 10.4 C 0 km/h
298 23-07-2008 04:35:22 10.4 C 8.77 g/m*3 10.4 C 0 km/h
299 23-07-2008 05:05:22 10.5 C 8.92 g/m*3 10.5 C 0 km/h
300 23-07-2008 05:35:22 10.7 C 9.04 g/m*3 10.7 C 0 km/h
Sensor: Nr:Datum:Temp:Abs-Feuchte:Windchill:Wind:
Aussen-T/F 301 23-07-2008 06:05:22 10.8 C 9.09 g/m*3 10.8 C 0 km/h
302 23-07-2008 06:35:22 10.8 C 9.09 g/m*3 10.8 C 0 km/h
303 23-07-2008 07:05:22 10.5 C 8.92 g/m*3 10.5 C 0 km/h
304 23-07-2008 07:35:22 10.8 C 8.99 g/m*3 10.8 C 0 km/h
305 23-07-2008 08:05:22 10.9 C 8.85 g/m*3 10.9 C 0 km/h
306 23-07-2008 08:35:22 11.8 C 9.16 g/m*3 11.8 C 0 km/h
307 23-07-2008 09:05:22 12.9 C 9.13 g/m*3 12.9 C 0 km/h
308 23-07-2008 09:35:22 12.8 C 9.18 g/m*3 12.8 C 0 km/h
309 23-07-2008 10:05:22 15.4 C 9.46 g/m*3 15.4 C 0 km/h
310 23-07-2008 10:35:22 17 C 9.69 g/m*3 17 C 0 km/h
311 23-07-2008 11:05:22 18.1 C 9.73 g/m*3 18.1 C 0 km/h
312 23-07-2008 11:35:22 19.4 C 9.18 g/m*3 19.4 C 0 km/h
313 23-07-2008 12:05:23 21.1 C 8.29 g/m*3 21.1 C 0 km/h
314 23-07-2008 12:35:23 22.2 C 8.25 g/m*3 22.2 C 0 km/h
315 23-07-2008 13:05:23 23.9 C 7.36 g/m*3 23.9 C 0 km/h
316 23-07-2008 13:35:23 25.9 C 7.26 g/m*3 25.9 C 0 km/h
317 23-07-2008 14:05:23 26 C 6.09 g/m*3 26 C 0 km/h
318 23-07-2008 14:35:23 25.7 C 7.18 g/m*3 25.7 C 0 km/h
319 23-07-2008 15:05:23 26.3 C 6.93 g/m*3 26.3 C 0 km/h
320 23-07-2008 15:35:23 28.9 C 7.14 g/m*3 28.9 C 0 km/h
321 23-07-2008 16:05:23 29.2 C 6.97 g/m*3 29.2 C 0 km/h
322 23-07-2008 16:35:23 29.2 C 6.39 g/m*3 29.2 C 0 km/h
323 23-07-2008 17:05:23 30.1 C 6.1 g/m*3 30.1 C 0 km/h
324 23-07-2008 17:35:23 29.3 C 6.42 g/m*3 29.3 C 0 km/h
325 23-07-2008 18:05:23 28.8 C 6.53 g/m*3 28.8 C 0 km/h
Sensor: Nr:Datum:Temp:Abs-Feuchte:Windchill:Wind:
Aussen-T/F 326 23-07-2008 18:35:23 30 C 6.67 g/m*3 30 C 0 km/h
327 23-07-2008 19:05:23 27.9 C 6.76 g/m*3 27.9 C 0 km/h
328 23-07-2008 19:35:23 28.7 C 7.06 g/m*3 28.7 C 0 km/h
329 23-07-2008 20:05:23 27.8 C 6.99 g/m*3 27.8 C 0 km/h
330 23-07-2008 20:35:23 25.2 C 7.68 g/m*3 25.2 C 0 km/h
331 23-07-2008 21:05:23 23.6 C 8.51 g/m*3 23.6 C 0 km/h
332 23-07-2008 21:35:23 22.5 C 9.39 g/m*3 22.5 C 0 km/h
333 23-07-2008 22:05:24 20.7 C 9.54 g/m*3 20.7 C 0 km/h
334 23-07-2008 22:35:24 19.9 C 9.62 g/m*3 19.9 C 0 km/h
335 23-07-2008 23:05:24 19.2 C 9.56 g/m*3 19.2 C 0 km/h
336 23-07-2008 23:35:24 18.6 C 9.55 g/m*3 18.6 C 0 km/h
337 24-07-2008 00:05:24 18.1 C 9.89 g/m*3 18.1 C 0 km/h
338 24-07-2008 00:35:24 17.5 C 9.24 g/m*3 17.5 C 0 km/h
339 24-07-2008 01:05:24 16.8 C 9.01 g/m*3 16.8 C 0 km/h
340 24-07-2008 01:35:24 16.3 C 8.88 g/m*3 16.3 C 0 km/h
341 24-07-2008 02:05:24 15.9 C 8.94 g/m*3 15.9 C 0 km/h
342 24-07-2008 02:35:24 15.4 C 8.93 g/m*3 15.4 C 0 km/h
343 24-07-2008 03:05:24 14.8 C 8.99 g/m*3 14.8 C 0 km/h
344 24-07-2008 03:35:24 14.7 C 9.19 g/m*3 14.7 C 0 km/h
345 24-07-2008 04:05:24 14.1 C 9.1 g/m*3 14.1 C 0 km/h
346 24-07-2008 04:35:24 13.7 C 9.12 g/m*3 13.7 C 0 km/h
347 24-07-2008 05:05:24 13.3 C 9.01 g/m*3 13.3 C 0 km/h
348 24-07-2008 05:35:24 13 C 8.96 g/m*3 13 C 0 km/h
349 24-07-2008 06:05:24 12.8 C 9.07 g/m*3 12.8 C 0 km/h
350 24-07-2008 06:35:24 12.8 C 9.07 g/m*3 12.8 C 0 km/h
Sensor: Nr:Datum:Temp:Abs-Feuchte:Windchill:Wind:
Aussen-T/F 351 24-07-2008 07:05:24 12.9 C 9.24 g/m*3 12.9 C 0 km/h
352 24-07-2008 07:35:24 13.1 C 9.24 g/m*3 13.1 C 0 km/h
353 24-07-2008 08:05:24 13.6 C 9.53 g/m*3 13.6 C 0 km/h
354 24-07-2008 08:35:25 14.3 C 9.71 g/m*3 14.3 C 0 km/h
355 24-07-2008 09:05:25 15.4 C 10.25 g/m*3 15.4 C 0 km/h
356 24-07-2008 09:35:25 17 C 10.13 g/m*3 17 C 0 km/h
357 24-07-2008 10:05:25 18.9 C 10.04 g/m*3 18.9 C 0 km/h
358 24-07-2008 10:35:25 20.8 C 8.87 g/m*3 20.8 C 0 km/h
359 24-07-2008 11:05:25 22.4 C 8.34 g/m*3 22.4 C 0 km/h
360 24-07-2008 11:35:25 23.1 C 7.65 g/m*3 23.1 C 0 km/h
361 24-07-2008 12:05:25 24.5 C 7.83 g/m*3 24.5 C 0 km/h
362 24-07-2008 12:35:25 26.5 C 7.01 g/m*3 26.5 C 0 km/h
363 24-07-2008 13:05:25 25.7 C 6.46 g/m*3 25.7 C 0 km/h
364 24-07-2008 13:35:25 29 C 6.32 g/m*3 29 C 0 km/h
365 24-07-2008 14:05:25 28.8 C 5.97 g/m*3 28.8 C 0 km/h
366 24-07-2008 14:35:25 28.3 C 6.36 g/m*3 28.3 C 0 km/h
367 24-07-2008 15:05:25 29.9 C 6.03 g/m*3 29.9 C 0 km/h
368 24-07-2008 15:35:25 30.7 C 6.3 g/m*3 30.7 C 0 km/h
369 24-07-2008 16:05:25 31 C 6.4 g/m*3 31 C 0 km/h
370 24-07-2008 16:35:25 31.4 C 6.54 g/m*3 31.4 C 0 km/h
371 24-07-2008 17:05:25 31.6 C 6.61 g/m*3 31.6 C 0 km/h
372 24-07-2008 17:35:25 32.1 C 6.79 g/m*3 32.1 C 0 km/h
373 24-07-2008 18:05:26 32.3 C 6.86 g/m*3 32.3 C 0 km/h
374 24-07-2008 18:35:26 32.3 C 6.86 g/m*3 32.3 C 0 km/h
375 24-07-2008 19:05:26 32.3 C 6.86 g/m*3 32.3 C 0 km/h
Sensor: Nr:Datum:Temp:Abs-Feuchte:Windchill:Wind:
Aussen-T/F 376 24-07-2008 19:35:26 31.6 C 6.61 g/m*3 31.6 C 0 km/h
377 24-07-2008 20:05:26 31.2 C 6.47 g/m*3 31.2 C 0 km/h
378 24-07-2008 20:35:26 30.3 C 7.4 g/m*3 30.3 C 0 km/h
379 24-07-2008 21:05:26 27.1 C 7.76 g/m*3 27.1 C 0 km/h
380 24-07-2008 21:35:26 25 C 7.37 g/m*3 25 C 0 km/h
381 24-07-2008 22:05:26 23.7 C 7.7 g/m*3 23.7 C 0 km/h
382 24-07-2008 22:35:26 22.7 C 7.88 g/m*3 22.7 C 0 km/h
383 24-07-2008 23:05:26 22.2 C 8.05 g/m*3 22.2 C 0 km/h
384 24-07-2008 23:35:26 21.8 C 8.25 g/m*3 21.8 C 0 km/h
385 25-07-2008 00:05:26 21.2 C 8.15 g/m*3 21.2 C 0 km/h
386 25-07-2008 00:35:26 20.9 C 8.38 g/m*3 20.9 C 0 km/h
387 25-07-2008 01:05:26 20.2 C 8.22 g/m*3 20.2 C 0 km/h
388 25-07-2008 01:35:26 19.9 C 8.42 g/m*3 19.9 C 0 km/h
389 25-07-2008 02:05:26 19.5 C 8.22 g/m*3 19.5 C 0 km/h
390 25-07-2008 02:35:26 19.1 C 8.36 g/m*3 19.1 C 0 km/h
391 25-07-2008 03:05:26 18.5 C 8.54 g/m*3 18.5 C 0 km/h
392 25-07-2008 03:35:26 18.1 C 8.65 g/m*3 18.1 C 0 km/h
393 25-07-2008 04:05:27 17.9 C 9.01 g/m*3 17.9 C 0 km/h
394 25-07-2008 04:35:27 17.5 C 9.24 g/m*3 17.5 C 0 km/h
395 25-07-2008 05:05:27 17.4 C 9.34 g/m*3 17.4 C 0 km/h
396 25-07-2008 05:35:27 17 C 9.12 g/m*3 17 C 0 km/h
397 25-07-2008 06:05:27 16.6 C 9.32 g/m*3 16.6 C 0 km/h
398 25-07-2008 06:35:27 16.2 C 9.52 g/m*3 16.2 C 0 km/h
399 25-07-2008 07:05:27 16.3 C 9.71 g/m*3 16.3 C 0 km/h
400 25-07-2008 07:35:27 16.8 C 9.87 g/m*3 16.8 C 0 km/h
Sensor: Nr:Datum:Temp:Abs-Feuchte:Windchill:Wind:
Aussen-T/F 401 25-07-2008 08:05:27 16.9 C 9.78 g/m*3 16.9 C 0 km/h
402 25-07-2008 08:35:27 17.9 C 9.92 g/m*3 17.9 C 0 km/h
403 25-07-2008 09:05:27 20 C 9.51 g/m*3 20 C 0 km/h
404 25-07-2008 09:35:27 20.4 C 9.91 g/m*3 20.4 C 0 km/h
405 25-07-2008 10:05:27 20.8 C 10.14 g/m*3 20.8 C 0 km/h
406 25-07-2008 10:35:27 22.7 C 9.9 g/m*3 22.7 C 0 km/h
407 25-07-2008 11:05:27 24.4 C 9.57 g/m*3 24.4 C 0 km/h
408 25-07-2008 11:35:27 25.6 C 9.52 g/m*3 25.6 C 0 km/h
409 25-07-2008 12:05:27 27.1 C 9.32 g/m*3 27.1 C 0 km/h
410 25-07-2008 12:35:27 28.8 C 8.81 g/m*3 28.8 C 0 km/h
411 25-07-2008 13:05:27 29.7 C 8.95 g/m*3 29.7 C 0 km/h
412 25-07-2008 13:35:27 30.7 C 8.19 g/m*3 30.7 C 0 km/h
413 25-07-2008 14:05:27 31.3 C 7.48 g/m*3 31.3 C 0 km/h
414 25-07-2008 14:35:28 31.2 C 7.44 g/m*3 31.2 C 0 km/h
415 25-07-2008 15:05:28 32.1 C 7.13 g/m*3 32.1 C 0 km/h
416 25-07-2008 15:35:28 32.6 C 6.97 g/m*3 32.6 C 0 km/h
417 25-07-2008 16:05:28 32.3 C 6.86 g/m*3 32.3 C 0 km/h
418 25-07-2008 16:35:28 33.3 C 7.23 g/m*3 33.3 C 0 km/h
419 25-07-2008 17:05:28 32.5 C 6.93 g/m*3 32.5 C 0 km/h
420 25-07-2008 17:35:28 32.5 C 6.93 g/m*3 32.5 C 0 km/h
421 25-07-2008 18:05:28 32.5 C 6.93 g/m*3 32.5 C 0 km/h
422 25-07-2008 18:35:28 33.2 C 7.2 g/m*3 33.2 C 0 km/h
423 25-07-2008 19:05:28 32.8 C 7.04 g/m*3 32.8 C 0 km/h
424 25-07-2008 19:35:28 31.3 C 8.46 g/m*3 31.3 C 0 km/h
425 25-07-2008 20:05:28 30.7 C 9.45 g/m*3 30.7 C 0 km/h
Sensor: Nr:Datum:Temp:Abs-Feuchte:Windchill:Wind:
Aussen-T/F 426 25-07-2008 20:35:28 29.3 C 9.93 g/m*3 29.3 C 0 km/h
427 25-07-2008 21:05:28 27.8 C 9.95 g/m*3 27.8 C 0 km/h
428 25-07-2008 21:35:28 26.6 C 9.82 g/m*3 26.6 C 0 km/h
429 25-07-2008 22:05:28 25.8 C 9.63 g/m*3 25.8 C 0 km/h
430 25-07-2008 22:35:28 24.9 C 10.07 g/m*3 24.9 C 0 km/h
431 25-07-2008 23:05:28 24.3 C 9.96 g/m*3 24.3 C 0 km/h
432 25-07-2008 23:35:28 23.6 C 10.42 g/m*3 23.6 C 0 km/h
433 26-07-2008 00:05:28 23 C 10.48 g/m*3 23 C 0 km/h
434 26-07-2008 00:35:29 22.2 C 10.6 g/m*3 22.2 C 0 km/h
435 26-07-2008 01:05:29 22.2 C 10.8 g/m*3 22.2 C 0 km/h
436 26-07-2008 01:35:29 21.3 C 10.81 g/m*3 21.3 C 0 km/h
437 26-07-2008 02:05:29 21 C 10.99 g/m*3 21 C 0 km/h
438 26-07-2008 02:35:29 20.5 C 11.21 g/m*3 20.5 C 0 km/h
439 26-07-2008 03:05:29 20.2 C 11.19 g/m*3 20.2 C 0 km/h
440 26-07-2008 03:35:29 20 C 11.23 g/m*3 20 C 0 km/h
441 26-07-2008 04:05:29 20.2 C 11.19 g/m*3 20.2 C 0 km/h
442 26-07-2008 04:35:29 20 C 11.23 g/m*3 20 C 0 km/h
443 26-07-2008 05:05:29 19.9 C 11.51 g/m*3 19.9 C 0 km/h
444 26-07-2008 05:35:29 19.1 C 11.31 g/m*3 19.1 C 0 km/h
445 26-07-2008 06:05:29 18.8 C 11.6 g/m*3 18.8 C 0 km/h
446 26-07-2008 06:35:29 19.1 C 11.64 g/m*3 19.1 C 0 km/h
447 26-07-2008 07:05:29 19.5 C 11.75 g/m*3 19.5 C 0 km/h
448 26-07-2008 07:35:29 19.6 C 11.65 g/m*3 19.6 C 0 km/h
449 26-07-2008 08:05:29 19.8 C 11.79 g/m*3 19.8 C 0 km/h
450 26-07-2008 08:35:29 20.2 C 11.71 g/m*3 20.2 C 0 km/h
Sensor: Nr:Datum:Temp:Abs-Feuchte:Windchill:Wind:
Aussen-T/F 451 26-07-2008 09:05:29 21 C 11.36 g/m*3 21 C 0 km/h
452 26-07-2008 09:35:29 22 C 11.65 g/m*3 22 C 0 km/h
453 26-07-2008 10:05:29 23.7 C 11.55 g/m*3 23.7 C 0 km/h
454 26-07-2008 10:35:30 25.1 C 11.81 g/m*3 25.1 C 0 km/h
455 26-07-2008 11:05:30 25.8 C 12.28 g/m*3 25.8 C 0 km/h
456 26-07-2008 11:35:30 27.3 C 12.04 g/m*3 27.3 C 0 km/h
457 26-07-2008 12:05:30 29.6 C 12.17 g/m*3 29.6 C 0 km/h
458 26-07-2008 12:35:30 30.2 C 11.34 g/m*3 30.2 C 0 km/h
459 26-07-2008 13:05:30 30.6 C 10.96 g/m*3 30.6 C 0 km/h
460 26-07-2008 13:35:30 30.7 C 11.02 g/m*3 30.7 C 0 km/h
461 26-07-2008 14:05:30 30.9 C 10.5 g/m*3 30.9 C 0 km/h
462 26-07-2008 14:35:30 31 C 10.24 g/m*3 31 C 0 km/h
463 26-07-2008 15:05:30 31.8 C 10.02 g/m*3 31.8 C 0 km/h
464 26-07-2008 15:35:30 32.1 C 10.18 g/m*3 32.1 C 0 km/h
465 26-07-2008 16:05:30 33.2 C 7.55 g/m*3 33.2 C 0 km/h
466 26-07-2008 16:35:30 32.2 C 8.53 g/m*3 32.2 C 0 km/h
467 26-07-2008 17:05:30 31.7 C 8.64 g/m*3 31.7 C 0 km/h
468 26-07-2008 17:35:30 29 C 10.05 g/m*3 29 C 0 km/h
469 26-07-2008 18:05:30 25.3 C 11.71 g/m*3 25.3 C 0 km/h
470 26-07-2008 18:35:30 20.8 C 14.12 g/m*3 20.8 C 0 km/h
471 26-07-2008 19:05:30 20.9 C 15.3 g/m*3 20.9 C 0 km/h
472 26-07-2008 19:35:30 20.6 C 15.21 g/m*3 20.6 C 0 km/h
473 26-07-2008 20:05:31 21.1 C 14.37 g/m*3 21.1 C 0 km/h
474 26-07-2008 20:35:31 20.8 C 14.49 g/m*3 20.8 C 0 km/h
475 26-07-2008 21:05:31 20.8 C 14.3 g/m*3 20.8 C 0 km/h
Sensor: Nr:Datum:Temp:Abs-Feuchte:Windchill:Wind:
Aussen-T/F 476 26-07-2008 21:35:31 19.5 C 14.1 g/m*3 19.5 C 0 km/h
477 26-07-2008 22:05:31 19.3 C 13.6 g/m*3 19.3 C 0 km/h
478 26-07-2008 22:35:31 19 C 13.36 g/m*3 19 C 0 km/h
479 26-07-2008 23:05:31 18.9 C 13.61 g/m*3 18.9 C 0 km/h
480 26-07-2008 23:35:31 18.8 C 14.17 g/m*3 18.8 C 0 km/h
481 27-07-2008 00:05:31 18.5 C 14.08 g/m*3 18.5 C 0 km/h
482 27-07-2008 00:35:31 18.4 C 14 g/m*3 18.4 C 0 km/h
483 27-07-2008 01:05:31 18.5 C 14.08 g/m*3 18.5 C 0 km/h
484 27-07-2008 01:35:31 18.3 C 13.92 g/m*3 18.3 C 0 km/h
485 27-07-2008 02:05:31 18.1 C 13.6 g/m*3 18.1 C 0 km/h
486 27-07-2008 02:35:31 17.8 C 13.51 g/m*3 17.8 C 0 km/h
487 27-07-2008 03:05:31 18 C 13.67 g/m*3 18 C 0 km/h
488 27-07-2008 03:35:31 18.4 C 14 g/m*3 18.4 C 0 km/h
489 27-07-2008 04:05:31 18.4 C 13.84 g/m*3 18.4 C 0 km/h
490 27-07-2008 04:35:31 18.5 C 13.92 g/m*3 18.5 C 0 km/h
491 27-07-2008 05:05:31 18.7 C 13.93 g/m*3 18.7 C 0 km/h
492 27-07-2008 05:35:32 18.7 C 13.93 g/m*3 18.7 C 0 km/h
493 27-07-2008 06:05:32 18.8 C 14.01 g/m*3 18.8 C 0 km/h
494 27-07-2008 06:35:32 18.8 C 14.01 g/m*3 18.8 C 0 km/h
495 27-07-2008 07:05:32 19 C 13.85 g/m*3 19 C 0 km/h
496 27-07-2008 07:35:32 19.2 C 13.85 g/m*3 19.2 C 0 km/h
497 27-07-2008 08:05:32 19.6 C 13.67 g/m*3 19.6 C 0 km/h
498 27-07-2008 08:35:32 19.7 C 13.25 g/m*3 19.7 C 0 km/h
499 27-07-2008 09:05:32 19.9 C 13.23 g/m*3 19.9 C 0 km/h
500 27-07-2008 09:35:32 20.1 C 13.04 g/m*3 20.1 C 0 km/h
Sensor: Nr:Datum:Temp:Abs-Feuchte:Windchill:Wind:
Aussen-T/F 501 27-07-2008 10:05:32 20.4 C 13.09 g/m*3 20.4 C 0 km/h
502 27-07-2008 10:35:32 21.6 C 13.66 g/m*3 21.6 C 0 km/h
503 27-07-2008 11:05:32 23.4 C 13.04 g/m*3 23.4 C 0 km/h
504 27-07-2008 11:35:32 24.3 C 12.83 g/m*3 24.3 C 0 km/h
505 27-07-2008 12:05:32 24.9 C 13.05 g/m*3 24.9 C 0 km/h
506 27-07-2008 12:35:32 26.5 C 12.77 g/m*3 26.5 C 0 km/h
507 27-07-2008 13:05:32 28.2 C 12.1 g/m*3 28.2 C 0 km/h
508 27-07-2008 13:35:32 29.9 C 11.46 g/m*3 29.9 C 0 km/h
509 27-07-2008 14:05:32 30.3 C 11.4 g/m*3 30.3 C 0 km/h
510 27-07-2008 14:35:32 31.2 C 10.67 g/m*3 31.2 C 0 km/h
511 27-07-2008 15:05:33 31.8 C 10.02 g/m*3 31.8 C 0 km/h
512 27-07-2008 15:35:33 32.4 C 10 g/m*3 32.4 C 0 km/h
513 27-07-2008 16:05:33 33 C 8.9 g/m*3 33 C 0 km/h
514 27-07-2008 16:35:33 32.7 C 8.76 g/m*3 32.7 C 0 km/h
515 27-07-2008 17:05:33 33.8 C 7.43 g/m*3 33.8 C 0 km/h
516 27-07-2008 17:35:33 33.6 C 7.35 g/m*3 33.6 C 0 km/h
517 27-07-2008 18:05:33 32 C 9.45 g/m*3 32 C 0 km/h
518 27-07-2008 18:35:33 31 C 10.88 g/m*3 31 C 0 km/h
519 27-07-2008 19:05:33 25.1 C 12.04 g/m*3 25.1 C 0 km/h
520 27-07-2008 19:35:33 22.8 C 15.65 g/m*3 22.8 C 0 km/h
521 27-07-2008 20:05:33 21.7 C 15.83 g/m*3 21.7 C 0 km/h
522 27-07-2008 20:35:33 21 C 15.39 g/m*3 21 C 0 km/h
523 27-07-2008 21:05:33 21.6 C 15.36 g/m*3 21.6 C 0 km/h
524 27-07-2008 21:35:33 21.5 C 14.71 g/m*3 21.5 C 0 km/h
525 27-07-2008 22:05:33 21.3 C 14.54 g/m*3 21.3 C 0 km/h
Sensor: Nr:Datum:Temp:Abs-Feuchte:Windchill:Wind:
Aussen-T/F 526 27-07-2008 22:35:33 21 C 13.92 g/m*3 21 C 0 km/h
527 27-07-2008 23:05:33 20.8 C 13.76 g/m*3 20.8 C 0 km/h
528 27-07-2008 23:35:33 20.7 C 13.68 g/m*3 20.7 C 0 km/h
529 28-07-2008 00:05:33 20.3 C 13.54 g/m*3 20.3 C 0 km/h
530 28-07-2008 00:35:33 20 C 13.48 g/m*3 20 C 0 km/h
531 28-07-2008 01:05:34 19.5 C 13.26 g/m*3 19.5 C 0 km/h
532 28-07-2008 01:35:34 19.2 C 13.19 g/m*3 19.2 C 0 km/h
533 28-07-2008 02:05:34 19.1 C 13.28 g/m*3 19.1 C 0 km/h
534 28-07-2008 02:35:34 19.2 C 13.36 g/m*3 19.2 C 0 km/h
535 28-07-2008 03:05:34 19.2 C 13.36 g/m*3 19.2 C 0 km/h
536 28-07-2008 03:35:34 18.9 C 13.61 g/m*3 18.9 C 0 km/h
537 28-07-2008 04:05:34 18.6 C 13.37 g/m*3 18.6 C 0 km/h
538 28-07-2008 04:35:34 18.6 C 13.37 g/m*3 18.6 C 0 km/h
539 28-07-2008 05:05:34 18.3 C 13.29 g/m*3 18.3 C 0 km/h
540 28-07-2008 05:35:34 18.1 C 13.13 g/m*3 18.1 C 0 km/h
541 28-07-2008 06:05:34 18 C 13.06 g/m*3 18 C 0 km/h
542 28-07-2008 06:35:34 18.2 C 13.21 g/m*3 18.2 C 0 km/h
543 28-07-2008 07:05:34 18.5 C 13.45 g/m*3 18.5 C 0 km/h
544 28-07-2008 07:35:34 18.9 C 13.77 g/m*3 18.9 C 0 km/h
545 28-07-2008 08:05:34 19.4 C 13.85 g/m*3 19.4 C 0 km/h
546 28-07-2008 08:35:34 19.8 C 13.84 g/m*3 19.8 C 0 km/h
547 28-07-2008 09:05:34 20.9 C 14.21 g/m*3 20.9 C 0 km/h
548 28-07-2008 09:35:34 22.4 C 13.7 g/m*3 22.4 C 0 km/h
549 28-07-2008 10:05:34 23.5 C 13.75 g/m*3 23.5 C 0 km/h
550 28-07-2008 10:35:35 26 C 12.42 g/m*3 26 C 0 km/h
Sensor: Nr:Datum:Temp:Abs-Feuchte:Windchill:Wind:
Aussen-T/F 551 28-07-2008 11:05:35 26.6 C 12.59 g/m*3 26.6 C 0 km/h
552 28-07-2008 11:35:35 27.9 C 12.17 g/m*3 27.9 C 0 km/h
553 28-07-2008 12:05:35 28.7 C 11.59 g/m*3 28.7 C 0 km/h
554 28-07-2008 12:35:35 30.6 C 10.65 g/m*3 30.6 C 0 km/h
555 28-07-2008 13:05:35 31.5 C 9.86 g/m*3 31.5 C 0 km/h
556 28-07-2008 13:35:35 32.1 C 9.16 g/m*3 32.1 C 0 km/h
557 28-07-2008 14:05:35 32.1 C 8.82 g/m*3 32.1 C 0 km/h
558 28-07-2008 14:35:35 31.9 C 8.39 g/m*3 31.9 C 0 km/h
559 28-07-2008 15:05:35 32.6 C 7.67 g/m*3 32.6 C 0 km/h
560 28-07-2008 15:35:35 32.3 C 6.86 g/m*3 32.3 C 0 km/h
561 28-07-2008 16:05:35 33.1 C 7.16 g/m*3 33.1 C 0 km/h
562 28-07-2008 16:35:35 32.6 C 6.97 g/m*3 32.6 C 0 km/h
563 28-07-2008 17:05:35 33.2 C 7.2 g/m*3 33.2 C 0 km/h
564 28-07-2008 17:35:35 32.7 C 8.41 g/m*3 32.7 C 0 km/h
565 28-07-2008 18:05:35 32.8 C 7.75 g/m*3 32.8 C 0 km/h
566 28-07-2008 18:35:35 31.5 C 9.2 g/m*3 31.5 C 0 km/h
567 28-07-2008 19:05:35 30.2 C 9.2 g/m*3 30.2 C 0 km/h
568 28-07-2008 19:35:35 30.3 C 9.55 g/m*3 30.3 C 0 km/h
569 28-07-2008 20:05:36 29 C 9.77 g/m*3 29 C 0 km/h
570 28-07-2008 20:35:36 27.8 C 9.68 g/m*3 27.8 C 0 km/h
571 28-07-2008 21:05:36 27 C 9.52 g/m*3 27 C 0 km/h
572 28-07-2008 21:35:36 26.3 C 9.65 g/m*3 26.3 C 0 km/h
573 28-07-2008 22:05:36 25.5 C 9.47 g/m*3 25.5 C 0 km/h
574 28-07-2008 22:35:36 24.8 C 9.79 g/m*3 24.8 C 0 km/h
575 28-07-2008 23:05:36 24.1 C 9.63 g/m*3 24.1 C 0 km/h
Sensor: Nr:Datum:Temp:Abs-Feuchte:Windchill:Wind:
Aussen-T/F 576 28-07-2008 23:35:36 23.4 C 9.88 g/m*3 23.4 C 0 km/h
577 29-07-2008 00:05:36 23 C 9.87 g/m*3 23 C 0 km/h
578 29-07-2008 00:35:36 22.5 C 10.39 g/m*3 22.5 C 0 km/h
579 29-07-2008 01:05:36 22.1 C 10.35 g/m*3 22.1 C 0 km/h
580 29-07-2008 01:35:36 21.6 C 10.43 g/m*3 21.6 C 0 km/h
581 29-07-2008 02:05:36 21.1 C 11.06 g/m*3 21.1 C 0 km/h
582 29-07-2008 02:35:36 20.9 C 10.93 g/m*3 20.9 C 0 km/h
583 29-07-2008 03:05:36 20.4 C 10.97 g/m*3 20.4 C 0 km/h
584 29-07-2008 03:35:36 20.1 C 11.3 g/m*3 20.1 C 0 km/h
585 29-07-2008 04:05:36 19.8 C 11.44 g/m*3 19.8 C 0 km/h
586 29-07-2008 04:35:36 19.4 C 11.68 g/m*3 19.4 C 0 km/h
587 29-07-2008 05:05:36 19.2 C 11.87 g/m*3 19.2 C 0 km/h
588 29-07-2008 05:35:37 19 C 11.57 g/m*3 19 C 0 km/h
589 29-07-2008 06:05:37 19 C 11.73 g/m*3 19 C 0 km/h
590 29-07-2008 06:35:37 19 C 11.9 g/m*3 19 C 0 km/h
591 29-07-2008 07:05:37 19.2 C 12.04 g/m*3 19.2 C 0 km/h
592 29-07-2008 07:35:37 19.1 C 12.13 g/m*3 19.1 C 0 km/h
593 29-07-2008 08:05:37 19.4 C 12.35 g/m*3 19.4 C 0 km/h
594 29-07-2008 08:35:37 20.2 C 12.24 g/m*3 20.2 C 0 km/h
595 29-07-2008 09:05:37 22 C 12.23 g/m*3 22 C 0 km/h
596 29-07-2008 09:35:37 23.5 C 11.84 g/m*3 23.5 C 0 km/h
597 29-07-2008 10:05:37 24.6 C 11.7 g/m*3 24.6 C 0 km/h
598 29-07-2008 10:35:37 27 C 11.58 g/m*3 27 C 0 km/h
599 29-07-2008 11:05:37 27.8 C 12.1 g/m*3 27.8 C 0 km/h
600 29-07-2008 11:35:37 24.8 C 11.84 g/m*3 24.8 C 0 km/h
Sensor: Nr:Datum:Temp:Abs-Feuchte:Windchill:Wind:
Aussen-T/F 601 29-07-2008 12:05:37 20.4 C 13.98 g/m*3 20.4 C 0 km/h
602 29-07-2008 12:35:37 20.3 C 14.95 g/m*3 20.3 C 0 km/h
603 29-07-2008 13:05:37 21.4 C 15.37 g/m*3 21.4 C 0 km/h
604 29-07-2008 13:35:37 24.6 C 16.21 g/m*3 24.6 C 0 km/h
605 29-07-2008 14:05:37 26.8 C 14 g/m*3 26.8 C 0 km/h
606 29-07-2008 14:35:37 27.7 C 13.11 g/m*3 27.7 C 0 km/h
607 29-07-2008 15:05:38 29.8 C 12 g/m*3 29.8 C 0 km/h
608 29-07-2008 15:35:38 30.7 C 11.02 g/m*3 30.7 C 0 km/h
609 29-07-2008 16:05:38 31.4 C 10.46 g/m*3 31.4 C 0 km/h
610 29-07-2008 16:35:38 32 C 10.13 g/m*3 32 C 0 km/h
611 29-07-2008 17:05:38 32.1 C 9.5 g/m*3 32.1 C 0 km/h
612 29-07-2008 17:35:38 31.8 C 10.02 g/m*3 31.8 C 0 km/h
613 29-07-2008 18:05:38 31.5 C 10.19 g/m*3 31.5 C 0 km/h
614 29-07-2008 18:35:38 31.9 C 9.07 g/m*3 31.9 C 0 km/h
615 29-07-2008 19:05:38 31.7 C 9.3 g/m*3 31.7 C 0 km/h
616 29-07-2008 19:35:38 30.3 C 10.79 g/m*3 30.3 C 0 km/h
617 29-07-2008 20:05:38 31.3 C 10.73 g/m*3 31.3 C 0 km/h
618 29-07-2008 20:35:38 30.2 C 9.81 g/m*3 30.2 C 0 km/h
619 29-07-2008 21:05:38 26.9 C 10.49 g/m*3 26.9 C 0 km/h
620 29-07-2008 21:35:38 25.1 C 10.65 g/m*3 25.1 C 0 km/h
621 29-07-2008 22:05:38 24.4 C 11.57 g/m*3 24.4 C 0 km/h
622 29-07-2008 22:35:38 23.5 C 11.42 g/m*3 23.5 C 0 km/h
623 29-07-2008 23:05:38 23.1 C 11.78 g/m*3 23.1 C 0 km/h
624 29-07-2008 23:35:38 22.3 C 11.65 g/m*3 22.3 C 0 km/h
625 30-07-2008 00:05:38 21.7 C 12.21 g/m*3 21.7 C 0 km/h
Sensor: Nr:Datum:Temp:Abs-Feuchte:Windchill:Wind:
Aussen-T/F 626 30-07-2008 00:35:38 21.1 C 12.53 g/m*3 21.1 C 0 km/h
627 30-07-2008 01:05:39 20.7 C 12.78 g/m*3 20.7 C 0 km/h
628 30-07-2008 01:35:39 20.6 C 12.71 g/m*3 20.6 C 0 km/h
629 30-07-2008 02:05:39 20.3 C 12.49 g/m*3 20.3 C 0 km/h
630 30-07-2008 02:35:39 19.9 C 12.54 g/m*3 19.9 C 0 km/h
631 30-07-2008 03:05:39 19.5 C 12.42 g/m*3 19.5 C 0 km/h
632 30-07-2008 03:35:39 19 C 12.55 g/m*3 19 C 0 km/h
633 30-07-2008 04:05:39 18.9 C 12.47 g/m*3 18.9 C 0 km/h
634 30-07-2008 04:35:39 18.7 C 12.49 g/m*3 18.7 C 0 km/h
635 30-07-2008 05:05:39 18.3 C 12.51 g/m*3 18.3 C 0 km/h
636 30-07-2008 05:35:39 18.1 C 12.36 g/m*3 18.1 C 0 km/h
637 30-07-2008 06:05:39 17.9 C 12.37 g/m*3 17.9 C 0 km/h
638 30-07-2008 06:35:39 17.8 C 12.45 g/m*3 17.8 C 0 km/h
639 30-07-2008 07:05:39 17.8 C 12.45 g/m*3 17.8 C 0 km/h
640 30-07-2008 07:35:39 17.8 C 12.45 g/m*3 17.8 C 0 km/h
641 30-07-2008 08:05:39 19 C 12.71 g/m*3 19 C 0 km/h
642 30-07-2008 08:35:39 19.9 C 12.54 g/m*3 19.9 C 0 km/h
643 30-07-2008 09:05:39 20.7 C 12.6 g/m*3 20.7 C 0 km/h
644 30-07-2008 09:35:39 22 C 12.81 g/m*3 22 C 0 km/h
645 30-07-2008 10:05:39 22.7 C 12.93 g/m*3 22.7 C 0 km/h
646 30-07-2008 10:35:40 24.8 C 12.97 g/m*3 24.8 C 0 km/h
647 30-07-2008 11:05:40 26.1 C 12.49 g/m*3 26.1 C 0 km/h
648 30-07-2008 11:35:40 26.8 C 12.22 g/m*3 26.8 C 0 km/h
649 30-07-2008 12:05:40 27.5 C 12.43 g/m*3 27.5 C 0 km/h
650 30-07-2008 12:35:40 29.3 C 11.97 g/m*3 29.3 C 0 km/h
Sensor: Nr:Datum:Temp:Abs-Feuchte:Windchill:Wind:
Aussen-T/F 651 30-07-2008 13:05:40 29.6 C 11.87 g/m*3 29.6 C 0 km/h
652 30-07-2008 13:35:40 30 C 10.92 g/m*3 30 C 0 km/h
653 30-07-2008 14:05:40 29.8 C 11.4 g/m*3 29.8 C 0 km/h
654 30-07-2008 14:35:40 31.7 C 10.3 g/m*3 31.7 C 0 km/h
655 30-07-2008 15:05:40 32.7 C 9.11 g/m*3 32.7 C 0 km/h
656 30-07-2008 15:35:40 32 C 9.45 g/m*3 32 C 0 km/h
657 30-07-2008 16:05:40 31.8 C 10.02 g/m*3 31.8 C 0 km/h
658 30-07-2008 16:35:40 33.2 C 8.63 g/m*3 33.2 C 0 km/h
659 30-07-2008 17:05:40 33.3 C 7.96 g/m*3 33.3 C 0 km/h
660 30-07-2008 17:35:40 33.6 C 8.08 g/m*3 33.6 C 0 km/h
661 30-07-2008 18:05:40 34 C 7.5 g/m*3 34 C 0 km/h
662 30-07-2008 18:35:40 24.5 C 5.82 g/m*3 24.5 C 0 km/h
663 30-07-2008 19:05:40 21.2 C 4.82 g/m*3 21.2 C 0 km/h
664 30-07-2008 19:35:40 22.4 C 6.16 g/m*3 22.4 C 0 km/h
665 30-07-2008 20:05:41 24.6 C 18.01 g/m*3 24.6 C 0 km/h
666 30-07-2008 20:35:41 23 C 15.42 g/m*3 23 C 0 km/h
667 30-07-2008 21:05:41 22.1 C 13.66 g/m*3 22.1 C 0 km/h
668 30-07-2008 21:35:41 20.1 C 14.78 g/m*3 20.1 C 0 km/h
669 30-07-2008 22:05:41 20.1 C 15.12 g/m*3 20.1 C 0 km/h
670 30-07-2008 22:35:41 20.1 C 15.12 g/m*3 20.1 C 0 km/h
671 30-07-2008 23:05:41 20 C 14.86 g/m*3 20 C 0 km/h
672 30-07-2008 23:35:41 19.6 C 14.69 g/m*3 19.6 C 0 km/h
673 31-07-2008 00:05:41 19.1 C 13.93 g/m*3 19.1 C 0 km/h
674 31-07-2008 00:35:41 18.7 C 13.77 g/m*3 18.7 C 0 km/h
675 31-07-2008 01:05:41 18.5 C 13.61 g/m*3 18.5 C 0 km/h
Sensor: Nr:Datum:Temp:Abs-Feuchte:Windchill:Wind:
Aussen-T/F 676 31-07-2008 01:35:41 18.4 C 13.53 g/m*3 18.4 C 0 km/h
677 31-07-2008 02:05:41 18.1 C 13.44 g/m*3 18.1 C 0 km/h
678 31-07-2008 02:35:41 17.9 C 13.44 g/m*3 17.9 C 0 km/h
679 31-07-2008 03:05:41 17.6 C 13.2 g/m*3 17.6 C 0 km/h
680 31-07-2008 03:35:41 17.4 C 13.04 g/m*3 17.4 C 0 km/h
681 31-07-2008 04:05:41 17.1 C 12.96 g/m*3 17.1 C 0 km/h
682 31-07-2008 04:35:41 17.2 C 13.18 g/m*3 17.2 C 0 km/h
683 31-07-2008 05:05:41 17.2 C 13.03 g/m*3 17.2 C 0 km/h
684 31-07-2008 05:35:42 17.4 C 13.19 g/m*3 17.4 C 0 km/h
685 31-07-2008 06:05:42 17 C 12.73 g/m*3 17 C 0 km/h
686 31-07-2008 06:35:42 17.5 C 13.12 g/m*3 17.5 C 0 km/h
687 31-07-2008 07:05:42 17.2 C 12.59 g/m*3 17.2 C 0 km/h
688 31-07-2008 07:35:42 17.1 C 12.66 g/m*3 17.1 C 0 km/h
689 31-07-2008 08:05:42 17.9 C 13.28 g/m*3 17.9 C 0 km/h
690 31-07-2008 08:35:42 18.5 C 13.13 g/m*3 18.5 C 0 km/h
691 31-07-2008 09:05:42 18.9 C 12.96 g/m*3 18.9 C 0 km/h
692 31-07-2008 09:35:42 19.7 C 13.75 g/m*3 19.7 C 0 km/h
693 31-07-2008 10:05:42 21 C 14.29 g/m*3 21 C 0 km/h
694 31-07-2008 10:35:42 22.9 C 15.12 g/m*3 22.9 C 0 km/h
695 31-07-2008 11:05:42 24.8 C 13.88 g/m*3 24.8 C 0 km/h
696 31-07-2008 11:35:42 26.6 C 13.84 g/m*3 26.6 C 0 km/h
697 31-07-2008 12:05:42 27.8 C 13.18 g/m*3 27.8 C 0 km/h
698 31-07-2008 12:35:42 29.5 C 12.4 g/m*3 29.5 C 0 km/h
699 31-07-2008 13:05:42 30.7 C 11.34 g/m*3 30.7 C 0 km/h
700 31-07-2008 13:35:42 31.6 C 9.91 g/m*3 31.6 C 0 km/h
Sensor: Nr:Datum:Temp:Abs-Feuchte:Windchill:Wind:
Aussen-T/F 701 31-07-2008 14:05:42 31.4 C 9.81 g/m*3 31.4 C 0 km/h
702 31-07-2008 14:35:42 30.8 C 10.76 g/m*3 30.8 C 0 km/h
703 31-07-2008 15:05:43 31.5 C 10.19 g/m*3 31.5 C 0 km/h
704 31-07-2008 15:35:43 31.5 C 10.52 g/m*3 31.5 C 0 km/h
705 31-07-2008 16:05:43 33.3 C 9.04 g/m*3 33.3 C 0 km/h
706 31-07-2008 16:35:43 33.8 C 8.54 g/m*3 33.8 C 0 km/h
707 31-07-2008 17:05:43 33.7 C 8.49 g/m*3 33.7 C 0 km/h
708 31-07-2008 17:35:43 33.9 C 7.84 g/m*3 33.9 C 0 km/h
709 31-07-2008 18:05:43 34.1 C 8.3 g/m*3 34.1 C 0 km/h
710 31-07-2008 18:35:43 33.8 C 8.91 g/m*3 33.8 C 0 km/h
711 31-07-2008 19:05:43 33.3 C 9.04 g/m*3 33.3 C 0 km/h
712 31-07-2008 19:35:43 32.9 C 9.56 g/m*3 32.9 C 0 km/h
713 31-07-2008 20:05:43 32 C 10.47 g/m*3 32 C 0 km/h
714 31-07-2008 20:35:43 29.7 C 12.23 g/m*3 29.7 C 0 km/h
715 31-07-2008 21:05:43 27.9 C 12.17 g/m*3 27.9 C 0 km/h
716 31-07-2008 21:35:43 26.8 C 12.22 g/m*3 26.8 C 0 km/h
717 31-07-2008 22:05:43 26.1 C 11.75 g/m*3 26.1 C 0 km/h
718 31-07-2008 22:35:43 25.6 C 11.67 g/m*3 25.6 C 0 km/h
719 31-07-2008 23:05:43 25.2 C 11.87 g/m*3 25.2 C 0 km/h
720 31-07-2008 23:35:43 24.9 C 11.9 g/m*3 24.9 C 0 km/h
721 01-08-2008 00:05:43 24.6 C 11.93 g/m*3 24.6 C 0 km/h
722 01-08-2008 00:35:44 24.5 C 12.53 g/m*3 24.5 C 0 km/h
723 01-08-2008 01:05:44 24.8 C 12.29 g/m*3 24.8 C 0 km/h
724 01-08-2008 01:35:44 24.6 C 12.38 g/m*3 24.6 C 0 km/h
725 01-08-2008 02:05:44 24.1 C 12.69 g/m*3 24.1 C 0 km/h
Sensor: Nr:Datum:Temp:Abs-Feuchte:Windchill:Wind:
Aussen-T/F 726 01-08-2008 02:35:44 23.8 C 13.34 g/m*3 23.8 C 0 km/h
727 01-08-2008 03:05:44 23.7 C 13.48 g/m*3 23.7 C 0 km/h
728 01-08-2008 03:35:44 23 C 13.57 g/m*3 23 C 0 km/h
729 01-08-2008 04:05:44 22.8 C 13.61 g/m*3 22.8 C 0 km/h
730 01-08-2008 04:35:44 22.6 C 13.66 g/m*3 22.6 C 0 km/h
731 01-08-2008 05:05:44 22.5 C 13.98 g/m*3 22.5 C 0 km/h
732 01-08-2008 05:35:44 22.1 C 14.05 g/m*3 22.1 C 0 km/h
733 01-08-2008 06:05:44 22.2 C 13.94 g/m*3 22.2 C 0 km/h
734 01-08-2008 06:35:44 22.4 C 13.9 g/m*3 22.4 C 0 km/h
735 01-08-2008 07:05:44 22.7 C 13.54 g/m*3 22.7 C 0 km/h
736 01-08-2008 07:35:44 23.4 C 13.67 g/m*3 23.4 C 0 km/h
737 01-08-2008 08:05:44 23.4 C 13.46 g/m*3 23.4 C 0 km/h
738 01-08-2008 08:35:44 23.7 C 13.69 g/m*3 23.7 C 0 km/h
739 01-08-2008 09:05:44 23.8 C 12.48 g/m*3 23.8 C 0 km/h
740 01-08-2008 09:35:44 24.5 C 12.76 g/m*3 24.5 C 0 km/h
741 01-08-2008 10:05:45 24.9 C 12.36 g/m*3 24.9 C 0 km/h
742 01-08-2008 10:35:45 26.3 C 11.64 g/m*3 26.3 C 0 km/h
743 01-08-2008 11:05:45 27.3 C 11.51 g/m*3 27.3 C 0 km/h
744 01-08-2008 11:35:45 27.7 C 10.7 g/m*3 27.7 C 0 km/h
745 01-08-2008 12:05:45 27.7 C 9.9 g/m*3 27.7 C 0 km/h
746 01-08-2008 12:35:45 28.2 C 8.8 g/m*3 28.2 C 0 km/h
747 01-08-2008 13:05:45 28.2 C 8.52 g/m*3 28.2 C 0 km/h
748 01-08-2008 13:35:45 26.5 C 9.26 g/m*3 26.5 C 0 km/h
749 01-08-2008 14:05:45 26.3 C 9.41 g/m*3 26.3 C 0 km/h
750 01-08-2008 14:35:45 26.1 C 9.55 g/m*3 26.1 C 0 km/h
Sensor: Nr:Datum:Temp:Abs-Feuchte:Windchill:Wind:
Aussen-T/F 751 01-08-2008 15:05:45 28.2 C 8.8 g/m*3 28.2 C 0 km/h
752 01-08-2008 15:35:45 29.5 C 8.85 g/m*3 29.5 C 0 km/h
753 01-08-2008 16:05:45 28.2 C 8.8 g/m*3 28.2 C 0 km/h
754 01-08-2008 16:35:45 29.3 C 8.47 g/m*3 29.3 C 0 km/h
755 01-08-2008 17:05:45 28.4 C 8.34 g/m*3 28.4 C 0 km/h
756 01-08-2008 17:35:45 26.8 C 8.14 g/m*3 26.8 C 0 km/h
757 01-08-2008 18:05:45 26.3 C 7.92 g/m*3 26.3 C 0 km/h
758 01-08-2008 18:35:45 26.4 C 7.97 g/m*3 26.4 C 0 km/h
759 01-08-2008 19:05:45 26.9 C 7.68 g/m*3 26.9 C 0 km/h
760 01-08-2008 19:35:46 27.2 C 7.03 g/m*3 27.2 C 0 km/h
761 01-08-2008 20:05:46 25.6 C 6.43 g/m*3 25.6 C 0 km/h
762 01-08-2008 20:35:46 24.4 C 6.45 g/m*3 24.4 C 0 km/h
763 01-08-2008 21:05:46 23.7 C 7.06 g/m*3 23.7 C 0 km/h
764 01-08-2008 21:35:46 23.1 C 7.44 g/m*3 23.1 C 0 km/h
765 01-08-2008 22:05:46 22.4 C 7.55 g/m*3 22.4 C 0 km/h
766 01-08-2008 22:35:46 22 C 7.96 g/m*3 22 C 0 km/h
767 01-08-2008 23:05:46 21.6 C 8.16 g/m*3 21.6 C 0 km/h
768 01-08-2008 23:35:46 20.6 C 8.59 g/m*3 20.6 C 0 km/h
769 02-08-2008 00:05:46 19.6 C 8.61 g/m*3 19.6 C 0 km/h
770 02-08-2008 00:35:46 19 C 8.8 g/m*3 19 C 0 km/h
771 02-08-2008 01:05:46 18.4 C 9.12 g/m*3 18.4 C 0 km/h
772 02-08-2008 01:35:46 18.1 C 9.27 g/m*3 18.1 C 0 km/h
773 02-08-2008 02:05:46 17.2 C 9.52 g/m*3 17.2 C 0 km/h
774 02-08-2008 02:35:46 16.9 C 9.78 g/m*3 16.9 C 0 km/h
775 02-08-2008 03:05:46 16.6 C 9.75 g/m*3 16.6 C 0 km/h
Sensor: Nr:Datum:Temp:Abs-Feuchte:Windchill:Wind:
Aussen-T/F 776 02-08-2008 03:35:46 16.6 C 9.75 g/m*3 16.6 C 0 km/h
777 02-08-2008 04:05:46 16.3 C 9.85 g/m*3 16.3 C 0 km/h
778 02-08-2008 04:35:46 16.6 C 9.89 g/m*3 16.6 C 0 km/h
779 02-08-2008 05:05:47 16.1 C 9.73 g/m*3 16.1 C 0 km/h
780 02-08-2008 05:35:47 15.7 C 9.9 g/m*3 15.7 C 0 km/h
781 02-08-2008 06:05:47 15.5 C 10.05 g/m*3 15.5 C 0 km/h
782 02-08-2008 06:35:47 16.1 C 10.28 g/m*3 16.1 C 0 km/h
783 02-08-2008 07:05:47 16.6 C 10.45 g/m*3 16.6 C 0 km/h
784 02-08-2008 07:35:47 17.2 C 10.4 g/m*3 17.2 C 0 km/h
785 02-08-2008 08:05:47 18 C 10.29 g/m*3 18 C 0 km/h
786 02-08-2008 08:35:47 18.5 C 10.13 g/m*3 18.5 C 0 km/h
787 02-08-2008 09:05:47 20 C 9.85 g/m*3 20 C 0 km/h
788 02-08-2008 09:35:47 20.4 C 10.26 g/m*3 20.4 C 0 km/h
789 02-08-2008 10:05:47 21.2 C 10.38 g/m*3 21.2 C 0 km/h
790 02-08-2008 10:35:47 22 C 8.93 g/m*3 22 C 0 km/h
791 02-08-2008 11:05:47 22.9 C 8.58 g/m*3 22.9 C 0 km/h
792 02-08-2008 11:35:47 23.6 C 8.08 g/m*3 23.6 C 0 km/h
793 02-08-2008 12:05:47 24.4 C 7.79 g/m*3 24.4 C 0 km/h
794 02-08-2008 12:35:47 25.6 C 7.38 g/m*3 25.6 C 0 km/h
795 02-08-2008 13:05:47 26.9 C 6.91 g/m*3 26.9 C 0 km/h
796 02-08-2008 13:35:47 27 C 6.95 g/m*3 27 C 0 km/h
797 02-08-2008 14:05:47 26.9 C 6.65 g/m*3 26.9 C 0 km/h
798 02-08-2008 14:35:48 26.5 C 7.01 g/m*3 26.5 C 0 km/h
799 02-08-2008 15:05:48 27 C 6.95 g/m*3 27 C 0 km/h
800 02-08-2008 15:35:48 27.3 C 6.8 g/m*3 27.3 C 0 km/h
Sensor: Nr:Datum:Temp:Abs-Feuchte:Windchill:Wind:
Aussen-T/F 801 02-08-2008 16:05:48 26.9 C 6.91 g/m*3 26.9 C 0 km/h
802 02-08-2008 16:35:48 23.3 C 9.62 g/m*3 23.3 C 0 km/h
803 02-08-2008 17:05:48 24.6 C 8.55 g/m*3 24.6 C 0 km/h
804 02-08-2008 17:35:02 24.9 C 8.24 g/m*3 24.9 C 0 km/h
805 02-08-2008 18:05:02 24.7 C 8.15 g/m*3 24.7 C 0 km/h
806 02-08-2008 18:35:02 24.1 C 8.53 g/m*3 24.1 C 0 km/h
807 02-08-2008 19:05:04 24.7 C 8.83 g/m*3 24.7 C 0 km/h
808 02-08-2008 19:35:02 24.1 C 8.1 g/m*3 24.1 C 0 km/h
809 02-08-2008 20:05:02 23.7 C 8.34 g/m*3 23.7 C 0 km/h
810 02-08-2008 20:35:01 22.8 C 8.94 g/m*3 22.8 C 0 km/h
811 02-08-2008 21:05:03 22 C 8.93 g/m*3 22 C 0 km/h
812 02-08-2008 21:35:03 21.8 C 9.4 g/m*3 21.8 C 0 km/h
813 02-08-2008 22:05:04 21.5 C 9.62 g/m*3 21.5 C 0 km/h
814 02-08-2008 22:35:03 21.2 C 10.01 g/m*3 21.2 C 0 km/h
815 02-08-2008 23:05:02 20.7 C 10.26 g/m*3 20.7 C 0 km/h
816 02-08-2008 23:35:02 20.6 C 10.74 g/m*3 20.6 C 0 km/h
817 03-08-2008 00:05:03 20.4 C 11.14 g/m*3 20.4 C 0 km/h
818 03-08-2008 00:35:03 19 C 12.06 g/m*3 19 C 0 km/h
819 03-08-2008 01:05:02 19.2 C 12.2 g/m*3 19.2 C 0 km/h
820 03-08-2008 01:35:03 19.6 C 11.99 g/m*3 19.6 C 0 km/h
821 03-08-2008 02:05:02 18.4 C 13.05 g/m*3 18.4 C 0 km/h
822 03-08-2008 02:35:03 18.4 C 13.68 g/m*3 18.4 C 0 km/h
823 03-08-2008 03:06:03 18.2 C 13.68 g/m*3 18.2 C 0 km/h
824 03-08-2008 03:36:02 18.2 C 13.68 g/m*3 18.2 C 0 km/h
825 03-08-2008 04:06:02 17.7 C 12.98 g/m*3 17.7 C 0 km/h
Sensor: Nr:Datum:Temp:Abs-Feuchte:Windchill:Wind:
Aussen-T/F 826 03-08-2008 04:36:02 17.6 C 13.05 g/m*3 17.6 C 0 km/h
827 03-08-2008 05:06:01 17.3 C 12.96 g/m*3 17.3 C 0 km/h
828 03-08-2008 05:36:01 17.5 C 13.27 g/m*3 17.5 C 0 km/h
829 03-08-2008 06:06:03 17.5 C 13.27 g/m*3 17.5 C 0 km/h
830 03-08-2008 06:36:03 17.5 C 13.27 g/m*3 17.5 C 0 km/h
831 03-08-2008 07:06:02 17.7 C 12.82 g/m*3 17.7 C 0 km/h
832 03-08-2008 07:36:02 17.8 C 11.99 g/m*3 17.8 C 0 km/h
833 03-08-2008 08:06:02 17.9 C 10.84 g/m*3 17.9 C 0 km/h
834 03-08-2008 08:36:02 18.3 C 10.79 g/m*3 18.3 C 0 km/h
835 03-08-2008 09:06:02 19 C 10.1 g/m*3 19 C 0 km/h
836 03-08-2008 09:36:02 19.5 C 10.41 g/m*3 19.5 C 0 km/h
837 03-08-2008 10:06:02 20.1 C 9.91 g/m*3 20.1 C 0 km/h
838 03-08-2008 10:36:02 21.1 C 9.95 g/m*3 21.1 C 0 km/h
839 03-08-2008 11:06:01 22 C 9.7 g/m*3 22 C 0 km/h
840 03-08-2008 11:36:01 23.6 C 9.57 g/m*3 23.6 C 0 km/h
841 03-08-2008 12:00:01 22.6 C 9.24 g/m*3 22.6 C 0 km/h
842 03-08-2008 12:12:02 22.6 C 9.04 g/m*3 22.6 C 0 km/h
843 03-08-2008 12:24:01 22.5 C 8.99 g/m*3 22.5 C 0 km/h
844 03-08-2008 12:36:02 23 C 8.84 g/m*3 23 C 0 km/h
845 03-08-2008 12:48:02 23.1 C 9.1 g/m*3 23.1 C 0 km/h
846 03-08-2008 13:00:02 23.4 C 9.04 g/m*3 23.4 C 0 km/h
847 03-08-2008 13:12:01 23.3 C 9.62 g/m*3 23.3 C 0 km/h
848 03-08-2008 13:24:02 23.2 C 9.15 g/m*3 23.2 C 0 km/h
849 03-08-2008 13:36:02 24.6 C 9.23 g/m*3 24.6 C 0 km/h
850 03-08-2008 13:48:02 26.7 C 8.86 g/m*3 26.7 C 0 km/h
Sensor: Nr:Datum:Temp:Abs-Feuchte:Windchill:Wind:
Aussen-T/F 851 03-08-2008 14:00:02 26.5 C 9.01 g/m*3 26.5 C 0 km/h
852 03-08-2008 14:12:02 26.7 C 8.86 g/m*3 26.7 C 0 km/h
853 03-08-2008 14:24:01 26.2 C 9.11 g/m*3 26.2 C 0 km/h
854 03-08-2008 14:36:02 27.2 C 9.11 g/m*3 27.2 C 0 km/h
855 03-08-2008 14:48:02 27.1 C 8.8 g/m*3 27.1 C 0 km/h
856 03-08-2008 15:00:03 27.4 C 8.95 g/m*3 27.4 C 0 km/h
857 03-08-2008 15:12:02 27.6 C 8.78 g/m*3 27.6 C 0 km/h
858 03-08-2008 15:24:03 26.9 C 8.7 g/m*3 26.9 C 0 km/h
859 03-08-2008 15:36:03 27 C 9.01 g/m*3 27 C 0 km/h
860 03-08-2008 15:48:02 27.3 C 9.16 g/m*3 27.3 C 0 km/h
861 03-08-2008 16:00:02 27.7 C 9.36 g/m*3 27.7 C 0 km/h
862 03-08-2008 16:12:02 27.9 C 9.2 g/m*3 27.9 C 0 km/h
863 03-08-2008 16:24:02 28 C 8.97 g/m*3 28 C 0 km/h
864 03-08-2008 16:36:01 27.2 C 9.11 g/m*3 27.2 C 0 km/h
865 03-08-2008 16:48:02 27.2 C 9.11 g/m*3 27.2 C 0 km/h
866 03-08-2008 17:00:02 28 C 8.97 g/m*3 28 C 0 km/h
867 03-08-2008 17:12:03 28 C 8.7 g/m*3 28 C 0 km/h
868 03-08-2008 17:48:02 28.4 C 8.62 g/m*3 28.4 C 0 km/h
869 03-08-2008 18:00:02 28.4 C 8.9 g/m*3 28.4 C 0 km/h
870 03-08-2008 18:12:03 28.8 C 8.81 g/m*3 28.8 C 0 km/h
871 03-08-2008 18:24:03 27.5 C 8.73 g/m*3 27.5 C 0 km/h
872 03-08-2008 18:36:02 27.2 C 8.85 g/m*3 27.2 C 0 km/h
873 03-08-2008 18:48:02 27.3 C 9.16 g/m*3 27.3 C 0 km/h
874 03-08-2008 19:00:02 27.1 C 9.06 g/m*3 27.1 C 0 km/h
875 03-08-2008 19:12:02 27.3 C 9.16 g/m*3 27.3 C 0 km/h
Sensor: Nr:Datum:Temp:Abs-Feuchte:Windchill:Wind:
Aussen-T/F 876 03-08-2008 19:24:02 26.6 C 9.31 g/m*3 26.6 C 0 km/h
877 03-08-2008 19:36:02 26.1 C 9.3 g/m*3 26.1 C 0 km/h
878 03-08-2008 19:48:02 25.8 C 9.63 g/m*3 25.8 C 0 km/h
879 03-08-2008 20:00:03 25.7 C 9.58 g/m*3 25.7 C 0 km/h
880 03-08-2008 20:12:02 25.3 C 9.83 g/m*3 25.3 C 0 km/h
881 03-08-2008 20:24:02 25 C 9.67 g/m*3 25 C 0 km/h
882 03-08-2008 20:36:02 24.8 C 10.02 g/m*3 24.8 C 0 km/h
883 03-08-2008 20:48:02 24.7 C 10.19 g/m*3 24.7 C 0 km/h
884 03-08-2008 21:00:02 24.5 C 10.3 g/m*3 24.5 C 0 km/h
885 03-08-2008 21:12:02 24.3 C 10.4 g/m*3 24.3 C 0 km/h
886 03-08-2008 21:24:02 24.1 C 10.94 g/m*3 24.1 C 0 km/h
887 03-08-2008 21:36:03 23.6 C 11.27 g/m*3 23.6 C 0 km/h
888 03-08-2008 21:48:02 22.6 C 12.46 g/m*3 22.6 C 0 km/h
889 03-08-2008 22:00:02 22.7 C 12.32 g/m*3 22.7 C 0 km/h
890 03-08-2008 22:12:03 22.9 C 12.06 g/m*3 22.9 C 0 km/h
891 03-08-2008 22:24:02 22.7 C 11.92 g/m*3 22.7 C 0 km/h
892 03-08-2008 22:37:04 22.6 C 11.85 g/m*3 22.6 C 0 km/h
893 03-08-2008 22:49:04 22.5 C 11.98 g/m*3 22.5 C 0 km/h
894 03-08-2008 23:01:05 22.2 C 11.98 g/m*3 22.2 C 0 km/h
895 03-08-2008 23:13:05 22.1 C 11.91 g/m*3 22.1 C 0 km/h
896 03-08-2008 23:25:05 22 C 12.23 g/m*3 22 C 0 km/h
897 03-08-2008 23:37:05 21.8 C 12.28 g/m*3 21.8 C 0 km/h
898 03-08-2008 23:49:05 21.9 C 12.35 g/m*3 21.9 C 0 km/h
899 04-08-2008 00:01:05 21.8 C 12.28 g/m*3 21.8 C 0 km/h
900 04-08-2008 00:13:05 21.8 C 12.28 g/m*3 21.8 C 0 km/h
Sensor: Nr:Datum:Temp:Abs-Feuchte:Windchill:Wind:
Aussen-T/F 901 04-08-2008 00:25:05 21.6 C 12.33 g/m*3 21.6 C 0 km/h
902 04-08-2008 00:37:05 21.3 C 12.3 g/m*3 21.3 C 0 km/h
903 04-08-2008 00:49:05 21.3 C 12.3 g/m*3 21.3 C 0 km/h
904 04-08-2008 01:01:05 21.6 C 12.14 g/m*3 21.6 C 0 km/h
905 04-08-2008 01:13:05 21.8 C 11.9 g/m*3 21.8 C 0 km/h
906 04-08-2008 01:25:05 22.1 C 11.91 g/m*3 22.1 C 0 km/h
907 04-08-2008 01:37:05 22.6 C 11.85 g/m*3 22.6 C 0 km/h
908 04-08-2008 01:49:05 22.9 C 11.65 g/m*3 22.9 C 0 km/h
909 04-08-2008 02:01:05 23.1 C 11.37 g/m*3 23.1 C 0 km/h
910 04-08-2008 02:13:05 23.3 C 11.29 g/m*3 23.3 C 0 km/h
911 04-08-2008 02:25:05 23.4 C 11.14 g/m*3 23.4 C 0 km/h
912 04-08-2008 02:37:05 23.5 C 11.21 g/m*3 23.5 C 0 km/h
913 04-08-2008 02:49:06 23.4 C 11.14 g/m*3 23.4 C 0 km/h
914 04-08-2008 03:01:06 23.3 C 11.29 g/m*3 23.3 C 0 km/h
915 04-08-2008 03:13:06 23.2 C 11.23 g/m*3 23.2 C 0 km/h
916 04-08-2008 03:25:06 23 C 11.3 g/m*3 23 C 0 km/h
917 04-08-2008 03:37:06 22.9 C 11.44 g/m*3 22.9 C 0 km/h
918 04-08-2008 03:49:06 21.5 C 12.63 g/m*3 21.5 C 0 km/h
919 04-08-2008 04:01:06 19.8 C 13.84 g/m*3 19.8 C 0 km/h
920 04-08-2008 04:13:06 19.5 C 14.1 g/m*3 19.5 C 0 km/h
921 04-08-2008 04:25:06 19.4 C 14.18 g/m*3 19.4 C 0 km/h
922 04-08-2008 04:37:06 19.1 C 13.93 g/m*3 19.1 C 0 km/h
923 04-08-2008 04:49:06 19.2 C 13.36 g/m*3 19.2 C 0 km/h
924 04-08-2008 05:01:06 18.9 C 13.28 g/m*3 18.9 C 0 km/h
925 04-08-2008 05:13:06 18.8 C 13.53 g/m*3 18.8 C 0 km/h
Sensor: Nr:Datum:Temp:Abs-Feuchte:Windchill:Wind:
Aussen-T/F 926 04-08-2008 05:25:06 18.4 C 13.21 g/m*3 18.4 C 0 km/h
927 04-08-2008 05:37:06 17.9 C 12.83 g/m*3 17.9 C 0 km/h
928 04-08-2008 05:49:06 17.7 C 12.82 g/m*3 17.7 C 0 km/h
929 04-08-2008 06:01:06 17.6 C 12.9 g/m*3 17.6 C 0 km/h
930 04-08-2008 06:13:06 17.5 C 12.97 g/m*3 17.5 C 0 km/h
931 04-08-2008 06:25:06 17.2 C 12.89 g/m*3 17.2 C 0 km/h
932 04-08-2008 06:37:06 16.9 C 12.8 g/m*3 16.9 C 0 km/h
933 04-08-2008 06:49:06 16.8 C 12.72 g/m*3 16.8 C 0 km/h
934 04-08-2008 07:01:07 16.6 C 12.71 g/m*3 16.6 C 0 km/h
935 04-08-2008 07:13:07 16.3 C 12.49 g/m*3 16.3 C 0 km/h
936 04-08-2008 07:25:07 16.4 C 12.56 g/m*3 16.4 C 0 km/h
937 04-08-2008 07:37:07 16.5 C 12.64 g/m*3 16.5 C 0 km/h
938 04-08-2008 07:49:07 16.5 C 12.64 g/m*3 16.5 C 0 km/h
939 04-08-2008 08:01:07 17 C 12.73 g/m*3 17 C 0 km/h
940 04-08-2008 08:13:07 17.2 C 12.59 g/m*3 17.2 C 0 km/h
941 04-08-2008 08:25:07 17.4 C 12.6 g/m*3 17.4 C 0 km/h
942 04-08-2008 08:37:07 17.9 C 12.98 g/m*3 17.9 C 0 km/h
943 04-08-2008 08:49:07 18.1 C 12.98 g/m*3 18.1 C 0 km/h
944 04-08-2008 09:01:07 18 C 12.75 g/m*3 18 C 0 km/h
945 04-08-2008 09:13:07 17.9 C 12.67 g/m*3 17.9 C 0 km/h
946 04-08-2008 09:25:04 18.1 C 12.36 g/m*3 18.1 C 0 km/h
947 04-08-2008 09:37:04 18.6 C 12.73 g/m*3 18.6 C 0 km/h
948 04-08-2008 09:49:02 19.1 C 12.62 g/m*3 19.1 C 0 km/h
949 04-08-2008 10:01:02 19.1 C 11.8 g/m*3 19.1 C 0 km/h
950 04-08-2008 10:13:02 19 C 11.41 g/m*3 19 C 0 km/h
Sensor: Nr:Datum:Temp:Abs-Feuchte:Windchill:Wind:
Aussen-T/F 951 04-08-2008 10:25:01 19.4 C 11.85 g/m*3 19.4 C 0 km/h
952 04-08-2008 10:37:02 19.9 C 11.34 g/m*3 19.9 C 0 km/h
953 04-08-2008 10:49:02 20.4 C 10.08 g/m*3 20.4 C 0 km/h
954 04-08-2008 11:01:03 20.7 C 9.9 g/m*3 20.7 C 0 km/h
955 04-08-2008 11:13:03 20.8 C 9.42 g/m*3 20.8 C 0 km/h
956 04-08-2008 11:25:02 21.4 C 9.19 g/m*3 21.4 C 0 km/h
957 04-08-2008 11:37:02 21.8 C 9.4 g/m*3 21.8 C 0 km/h
958 04-08-2008 11:49:02 22 C 8.73 g/m*3 22 C 0 km/h
959 04-08-2008 12:01:02 22.6 C 8.84 g/m*3 22.6 C 0 km/h
960 04-08-2008 12:13:02 22.9 C 8.38 g/m*3 22.9 C 0 km/h
961 04-08-2008 12:25:02 23.7 C 7.91 g/m*3 23.7 C 0 km/h
962 04-08-2008 12:37:02 23.1 C 7.65 g/m*3 23.1 C 0 km/h
963 04-08-2008 12:49:02 23.4 C 7.57 g/m*3 23.4 C 0 km/h
964 04-08-2008 13:01:02 24.4 C 7.12 g/m*3 24.4 C 0 km/h
965 04-08-2008 13:13:02 24 C 6.74 g/m*3 24 C 0 km/h
966 04-08-2008 13:25:02 24 C 6.53 g/m*3 24 C 0 km/h
967 04-08-2008 13:37:02 24.5 C 6.94 g/m*3 24.5 C 0 km/h
968 04-08-2008 13:49:03 24.8 C 6.37 g/m*3 24.8 C 0 km/h
969 04-08-2008 14:01:03 25.7 C 6.46 g/m*3 25.7 C 0 km/h
970 04-08-2008 14:13:03 25.4 C 7.06 g/m*3 25.4 C 0 km/h
971 04-08-2008 14:25:03 24.8 C 7.97 g/m*3 24.8 C 0 km/h
972 04-08-2008 14:37:02 24.4 C 8.23 g/m*3 24.4 C 0 km/h
973 04-08-2008 14:49:02 25.3 C 7.26 g/m*3 25.3 C 0 km/h
974 04-08-2008 15:01:01 25.2 C 6.52 g/m*3 25.2 C 0 km/h
975 04-08-2008 15:13:01 24.7 C 6.34 g/m*3 24.7 C 0 km/h
Sensor: Nr:Datum:Temp:Abs-Feuchte:Windchill:Wind:
Aussen-T/F 976 04-08-2008 15:25:02 25.1 C 6.48 g/m*3 25.1 C 0 km/h
977 04-08-2008 15:37:01 25.9 C 6.29 g/m*3 25.9 C 0 km/h
978 04-08-2008 15:49:02 27.1 C 5.69 g/m*3 27.1 C 0 km/h
979 04-08-2008 16:01:02 26.2 C 5.66 g/m*3 26.2 C 0 km/h
980 04-08-2008 16:13:02 26.9 C 5.63 g/m*3 26.9 C 0 km/h
981 04-08-2008 16:25:02 26.8 C 5.6 g/m*3 26.8 C 0 km/h
982 04-08-2008 16:37:02 25.8 C 5.3 g/m*3 25.8 C 0 km/h
983 04-08-2008 16:49:03 26.3 C 6.19 g/m*3 26.3 C 0 km/h
984 04-08-2008 17:01:02 27.2 C 5.99 g/m*3 27.2 C 0 km/h
985 04-08-2008 17:13:02 26.3 C 6.19 g/m*3 26.3 C 0 km/h
986 04-08-2008 17:25:03 26.7 C 5.57 g/m*3 26.7 C 0 km/h
987 04-08-2008 17:37:02 26.2 C 5.42 g/m*3 26.2 C 0 km/h
988 04-08-2008 17:49:02 26.3 C 5.2 g/m*3 26.3 C 0 km/h
989 04-08-2008 18:01:02 26.5 C 5.51 g/m*3 26.5 C 0 km/h
990 04-08-2008 18:13:02 26.6 C 5.54 g/m*3 26.6 C 0 km/h
991 04-08-2008 18:25:02 25.9 C 5.57 g/m*3 25.9 C 0 km/h
992 04-08-2008 18:37:02 26.1 C 5.63 g/m*3 26.1 C 0 km/h
993 04-08-2008 18:49:01 25.7 C 5.99 g/m*3 25.7 C 0 km/h
994 04-08-2008 19:01:02 26 C 5.6 g/m*3 26 C 0 km/h
995 04-08-2008 19:13:02 25.9 C 6.29 g/m*3 25.9 C 0 km/h
996 04-08-2008 19:25:01 26.1 C 6.12 g/m*3 26.1 C 0 km/h
997 04-08-2008 19:37:02 26.1 C 5.88 g/m*3 26.1 C 0 km/h
998 04-08-2008 19:49:02 25.4 C 5.89 g/m*3 25.4 C 0 km/h
999 04-08-2008 20:01:02 24.5 C 5.82 g/m*3 24.5 C 0 km/h
1000 04-08-2008 20:13:02 23.9 C 6.06 g/m*3 23.9 C 0 km/h
Sensor: Nr:Datum:Temp:Abs-Feuchte:Windchill:Wind:
Aussen-T/F 1001 04-08-2008 20:25:02 23.4 C 6.1 g/m*3 23.4 C 0 km/h
1002 04-08-2008 20:37:02 23.1 C 6.41 g/m*3 23.1 C 0 km/h
1003 04-08-2008 20:49:02 22.5 C 6.99 g/m*3 22.5 C 0 km/h
1004 04-08-2008 21:01:01 21.8 C 6.91 g/m*3 21.8 C 0 km/h
1005 04-08-2008 21:13:01 21.5 C 7.17 g/m*3 21.5 C 0 km/h
1006 04-08-2008 21:25:02 21 C 7.14 g/m*3 21 C 0 km/h
1007 04-08-2008 21:37:01 20.6 C 7.16 g/m*3 20.6 C 0 km/h
1008 04-08-2008 21:49:03 20.4 C 7.25 g/m*3 20.4 C 0 km/h
1009 04-08-2008 22:01:02 20.3 C 7.39 g/m*3 20.3 C 0 km/h
1010 04-08-2008 22:13:02 19.9 C 7.56 g/m*3 19.9 C 0 km/h
1011 04-08-2008 22:25:03 19.5 C 7.55 g/m*3 19.5 C 0 km/h
1012 04-08-2008 22:38:13 19.3 C 7.8 g/m*3 19.3 C 0 km/h
1013 04-08-2008 22:50:13 19.2 C 7.75 g/m*3 19.2 C 0 km/h
1014 04-08-2008 23:02:13 19.2 C 7.91 g/m*3 19.2 C 0 km/h
1015 04-08-2008 23:14:13 19.3 C 7.8 g/m*3 19.3 C 0 km/h
1016 04-08-2008 23:26:13 19.1 C 8.03 g/m*3 19.1 C 0 km/h
1017 04-08-2008 23:38:13 18.9 C 8.1 g/m*3 18.9 C 0 km/h
1018 04-08-2008 23:50:13 18.5 C 8.23 g/m*3 18.5 C 0 km/h
1019 05-08-2008 00:02:13 18.4 C 8.18 g/m*3 18.4 C 0 km/h
1020 05-08-2008 00:14:14 18.2 C 8.24 g/m*3 18.2 C 0 km/h
1021 05-08-2008 00:26:14 18.1 C 8.34 g/m*3 18.1 C 0 km/h
1022 05-08-2008 00:38:14 17.7 C 8.75 g/m*3 17.7 C 0 km/h
1023 05-08-2008 00:50:14 17.4 C 8.6 g/m*3 17.4 C 0 km/h
1024 05-08-2008 01:02:14 17.2 C 8.64 g/m*3 17.2 C 0 km/h
1025 05-08-2008 01:14:14 16.8 C 8.86 g/m*3 16.8 C 0 km/h
Sensor: Nr:Datum:Temp:Abs-Feuchte:Windchill:Wind:
Aussen-T/F 1026 05-08-2008 01:26:14 16.6 C 8.76 g/m*3 16.6 C 0 km/h
1027 05-08-2008 01:38:14 16.4 C 8.93 g/m*3 16.4 C 0 km/h
1028 05-08-2008 01:50:14 16.2 C 8.96 g/m*3 16.2 C 0 km/h
1029 05-08-2008 02:02:14 16 C 8.99 g/m*3 16 C 0 km/h
1030 05-08-2008 02:14:14 15.8 C 9.02 g/m*3 15.8 C 0 km/h
1031 05-08-2008 02:26:14 15.6 C 8.91 g/m*3 15.6 C 0 km/h
1032 05-08-2008 02:38:14 15.5 C 9.12 g/m*3 15.5 C 0 km/h
1033 05-08-2008 02:50:14 15.4 C 8.8 g/m*3 15.4 C 0 km/h
1034 05-08-2008 03:02:14 15.2 C 8.44 g/m*3 15.2 C 0 km/h
1035 05-08-2008 03:14:14 15.3 C 8.62 g/m*3 15.3 C 0 km/h
1036 05-08-2008 03:26:14 15.1 C 8.39 g/m*3 15.1 C 0 km/h
1037 05-08-2008 03:38:14 15 C 8.59 g/m*3 15 C 0 km/h
1038 05-08-2008 03:50:14 14.8 C 8.74 g/m*3 14.8 C 0 km/h
1039 05-08-2008 04:02:14 14.7 C 8.56 g/m*3 14.7 C 0 km/h
1040 05-08-2008 04:14:14 14.7 C 8.18 g/m*3 14.7 C 0 km/h
1041 05-08-2008 04:26:15 14.5 C 8.58 g/m*3 14.5 C 0 km/h
1042 05-08-2008 04:38:15 14.2 C 8.55 g/m*3 14.2 C 0 km/h
1043 05-08-2008 04:50:15 14.2 C 8.43 g/m*3 14.2 C 0 km/h
1044 05-08-2008 05:02:15 14.1 C 8.25 g/m*3 14.1 C 0 km/h
1045 05-08-2008 05:14:15 14 C 8.32 g/m*3 14 C 0 km/h
1046 05-08-2008 05:26:15 13.9 C 8.63 g/m*3 13.9 C 0 km/h
1047 05-08-2008 05:38:15 13.7 C 8.64 g/m*3 13.7 C 0 km/h
1048 05-08-2008 05:50:15 13.5 C 8.54 g/m*3 13.5 C 0 km/h
1049 05-08-2008 06:02:15 13.5 C 8.54 g/m*3 13.5 C 0 km/h
1050 05-08-2008 06:14:15 13.4 C 8.6 g/m*3 13.4 C 0 km/h
Sensor: Nr:Datum:Temp:Abs-Feuchte:Windchill:Wind:
Aussen-T/F 1051 05-08-2008 06:26:15 13.4 C 8.6 g/m*3 13.4 C 0 km/h
1052 05-08-2008 06:38:15 13.4 C 8.6 g/m*3 13.4 C 0 km/h
1053 05-08-2008 06:50:15 13.5 C 8.66 g/m*3 13.5 C 0 km/h
1054 05-08-2008 07:02:15 13.6 C 8.71 g/m*3 13.6 C 0 km/h
1055 05-08-2008 07:14:15 13.7 C 8.76 g/m*3 13.7 C 0 km/h
1056 05-08-2008 07:26:15 13.9 C 8.75 g/m*3 13.9 C 0 km/h
1057 05-08-2008 07:38:15 14.2 C 8.67 g/m*3 14.2 C 0 km/h
1058 05-08-2008 07:50:15 14.4 C 8.53 g/m*3 14.4 C 0 km/h
1059 05-08-2008 08:02:15 14.6 C 8.63 g/m*3 14.6 C 0 km/h
1060 05-08-2008 08:14:15 14.8 C 8.61 g/m*3 14.8 C 0 km/h
1061 05-08-2008 08:26:15 15 C 8.46 g/m*3 15 C 0 km/h
1062 05-08-2008 08:38:03 15.4 C 8.54 g/m*3 15.4 C 0 km/h
1063 05-08-2008 08:50:03 15.6 C 8.38 g/m*3 15.6 C 0 km/h
1064 05-08-2008 09:02:03 15.7 C 8.56 g/m*3 15.7 C 0 km/h
1065 05-08-2008 09:14:03 16.1 C 8.5 g/m*3 16.1 C 0 km/h
1066 05-08-2008 09:26:02 16.4 C 8.51 g/m*3 16.4 C 0 km/h
1067 05-08-2008 09:38:02 16.8 C 8.58 g/m*3 16.8 C 0 km/h
1068 05-08-2008 09:50:02 17.2 C 8.49 g/m*3 17.2 C 0 km/h
1069 05-08-2008 10:02:03 17.9 C 8.7 g/m*3 17.9 C 0 km/h
1070 05-08-2008 10:14:03 18 C 8.45 g/m*3 18 C 0 km/h
1071 05-08-2008 10:26:02 18.4 C 8.49 g/m*3 18.4 C 0 km/h
1072 05-08-2008 10:38:03 19.1 C 8.52 g/m*3 19.1 C 0 km/h
1073 05-08-2008 10:50:03 19.8 C 8.37 g/m*3 19.8 C 0 km/h
1074 05-08-2008 11:02:02 20.1 C 8.17 g/m*3 20.1 C 0 km/h
1075 05-08-2008 11:14:03 20.5 C 8.19 g/m*3 20.5 C 0 km/h
Sensor: Nr:Datum:Temp:Abs-Feuchte:Windchill:Wind:
Aussen-T/F 1076 05-08-2008 11:26:02 21.1 C 8.29 g/m*3 21.1 C 0 km/h
1077 05-08-2008 11:38:03 22.7 C 7.88 g/m*3 22.7 C 0 km/h
1078 05-08-2008 11:50:02 22.2 C 8.05 g/m*3 22.2 C 0 km/h
1079 05-08-2008 12:02:02 22.7 C 8.28 g/m*3 22.7 C 0 km/h
1080 05-08-2008 12:14:02 23.8 C 7.96 g/m*3 23.8 C 0 km/h
1081 05-08-2008 12:26:02 24 C 7.83 g/m*3 24 C 0 km/h
1082 05-08-2008 12:38:02 24.5 C 7.83 g/m*3 24.5 C 0 km/h
1083 05-08-2008 12:50:01 24.3 C 7.52 g/m*3 24.3 C 0 km/h
1084 05-08-2008 13:02:03 24.8 C 7.28 g/m*3 24.8 C 0 km/h
1085 05-08-2008 13:14:03 24.6 C 7.2 g/m*3 24.6 C 0 km/h
1086 05-08-2008 13:26:02 24.4 C 7.34 g/m*3 24.4 C 0 km/h
1087 05-08-2008 13:38:02 25 C 7.37 g/m*3 25 C 0 km/h
1088 05-08-2008 13:50:01 25.2 C 7.45 g/m*3 25.2 C 0 km/h
1089 05-08-2008 14:02:02 25.9 C 7.51 g/m*3 25.9 C 0 km/h
1090 05-08-2008 14:14:02 26.5 C 7.01 g/m*3 26.5 C 0 km/h
1091 05-08-2008 14:26:02 26.9 C 6.65 g/m*3 26.9 C 0 km/h
1092 05-08-2008 14:38:02 26.8 C 6.87 g/m*3 26.8 C 0 km/h
1093 05-08-2008 14:50:01 27.5 C 6.61 g/m*3 27.5 C 0 km/h
1094 05-08-2008 15:02:02 26.9 C 6.65 g/m*3 26.9 C 0 km/h
1095 05-08-2008 15:14:02 26.7 C 6.58 g/m*3 26.7 C 0 km/h
1096 05-08-2008 15:26:02 26.2 C 7.14 g/m*3 26.2 C 0 km/h
1097 05-08-2008 15:38:01 25.8 C 7.22 g/m*3 25.8 C 0 km/h
1098 05-08-2008 15:50:01 26.3 C 7.18 g/m*3 26.3 C 0 km/h
1099 05-08-2008 16:02:02 26.6 C 7.05 g/m*3 26.6 C 0 km/h
1100 05-08-2008 16:14:02 26.6 C 7.3 g/m*3 26.6 C 0 km/h
Sensor: Nr:Datum:Temp:Abs-Feuchte:Windchill:Wind:
Aussen-T/F 1101 05-08-2008 16:26:01 27.6 C 7.18 g/m*3 27.6 C 0 km/h
1102 05-08-2008 16:38:02 28.5 C 6.99 g/m*3 28.5 C 0 km/h
1103 05-08-2008 16:50:02 28.6 C 7.03 g/m*3 28.6 C 0 km/h
1104 05-08-2008 17:02:02 29.1 C 6.35 g/m*3 29.1 C 0 km/h
1105 05-08-2008 17:14:02 29.6 C 6.53 g/m*3 29.6 C 0 km/h
1106 05-08-2008 17:26:02 27.9 C 6.76 g/m*3 27.9 C 0 km/h
1107 05-08-2008 17:38:02 27.2 C 6.77 g/m*3 27.2 C 0 km/h
1108 05-08-2008 17:50:02 28.3 C 6.91 g/m*3 28.3 C 0 km/h
1109 05-08-2008 18:02:02 28.8 C 6.53 g/m*3 28.8 C 0 km/h
1110 05-08-2008 18:14:02 27.1 C 6.47 g/m*3 27.1 C 0 km/h
1111 05-08-2008 18:26:02 26.7 C 7.59 g/m*3 26.7 C 0 km/h
1112 05-08-2008 18:38:02 26.6 C 8.05 g/m*3 26.6 C 0 km/h
1113 05-08-2008 18:50:02 26.2 C 7.88 g/m*3 26.2 C 0 km/h
1114 05-08-2008 19:02:01 25.8 C 7.7 g/m*3 25.8 C 0 km/h
1115 05-08-2008 19:14:01 25.9 C 7.99 g/m*3 25.9 C 0 km/h
1116 05-08-2008 19:26:02 25.6 C 8.09 g/m*3 25.6 C 0 km/h
1117 05-08-2008 19:38:01 25.1 C 8.33 g/m*3 25.1 C 0 km/h
1118 05-08-2008 19:50:01 24.7 C 8.37 g/m*3 24.7 C 0 km/h
1119 05-08-2008 20:02:02 24.7 C 8.37 g/m*3 24.7 C 0 km/h
1120 05-08-2008 20:14:02 24.1 C 8.1 g/m*3 24.1 C 0 km/h
1121 05-08-2008 20:26:02 23.5 C 8.25 g/m*3 23.5 C 0 km/h
1122 05-08-2008 20:38:01 22.9 C 8.58 g/m*3 22.9 C 0 km/h
1123 05-08-2008 20:50:02 22.4 C 8.34 g/m*3 22.4 C 0 km/h
1124 05-08-2008 21:02:03 21.9 C 8.68 g/m*3 21.9 C 0 km/h
1125 05-08-2008 21:14:03 21.5 C 8.67 g/m*3 21.5 C 0 km/h
Sensor: Nr:Datum:Temp:Abs-Feuchte:Windchill:Wind:
Aussen-T/F 1126 05-08-2008 21:26:03 21.2 C 8.52 g/m*3 21.2 C 0 km/h
1127 05-08-2008 21:38:02 21 C 8.43 g/m*3 21 C 0 km/h
1128 05-08-2008 21:50:03 20.9 C 9.11 g/m*3 20.9 C 0 km/h
1129 05-08-2008 22:02:02 21 C 8.98 g/m*3 21 C 0 km/h
1130 05-08-2008 22:14:02 20.8 C 9.05 g/m*3 20.8 C 0 km/h
1131 05-08-2008 22:26:03 20.6 C 9.13 g/m*3 20.6 C 0 km/h
1132 05-08-2008 22:39:03 20.3 C 9.15 g/m*3 20.3 C 0 km/h
1133 05-08-2008 22:51:03 20 C 8.81 g/m*3 20 C 0 km/h
1134 05-08-2008 23:03:03 19.9 C 8.93 g/m*3 19.9 C 0 km/h
1135 05-08-2008 23:15:03 19.5 C 8.89 g/m*3 19.5 C 0 km/h
1136 05-08-2008 23:27:03 19.3 C 8.79 g/m*3 19.3 C 0 km/h
1137 05-08-2008 23:39:03 19.2 C 9.07 g/m*3 19.2 C 0 km/h
1138 05-08-2008 23:51:03 18.9 C 9.23 g/m*3 18.9 C 0 km/h
1139 06-08-2008 00:03:04 18.9 C 9.23 g/m*3 18.9 C 0 km/h
1140 06-08-2008 00:15:04 18.7 C 9.13 g/m*3 18.7 C 0 km/h
1141 06-08-2008 00:27:04 18.7 C 9.29 g/m*3 18.7 C 0 km/h
1142 06-08-2008 00:39:04 18.6 C 9.39 g/m*3 18.6 C 0 km/h
1143 06-08-2008 00:51:04 18.4 C 9.28 g/m*3 18.4 C 0 km/h
1144 06-08-2008 01:03:04 18.3 C 9.22 g/m*3 18.3 C 0 km/h
1145 06-08-2008 01:15:04 18.1 C 9.43 g/m*3 18.1 C 0 km/h
1146 06-08-2008 01:27:04 17.9 C 9.47 g/m*3 17.9 C 0 km/h
1147 06-08-2008 01:39:04 17.9 C 9.62 g/m*3 17.9 C 0 km/h
1148 06-08-2008 01:51:04 17.7 C 9.66 g/m*3 17.7 C 0 km/h
1149 06-08-2008 02:03:04 17.6 C 9.6 g/m*3 17.6 C 0 km/h
1150 06-08-2008 02:15:04 17.5 C 9.54 g/m*3 17.5 C 0 km/h
Sensor: Nr:Datum:Temp:Abs-Feuchte:Windchill:Wind:
Aussen-T/F 1151 06-08-2008 02:27:04 17.4 C 9.48 g/m*3 17.4 C 0 km/h
1152 06-08-2008 02:39:04 17.5 C 9.69 g/m*3 17.5 C 0 km/h
1153 06-08-2008 02:51:04 17.6 C 9.6 g/m*3 17.6 C 0 km/h
1154 06-08-2008 03:03:04 17.4 C 9.63 g/m*3 17.4 C 0 km/h
1155 06-08-2008 03:15:04 17 C 9.41 g/m*3 17 C 0 km/h
1156 06-08-2008 03:27:04 16.8 C 9.72 g/m*3 16.8 C 0 km/h
1157 06-08-2008 03:39:04 16.7 C 9.81 g/m*3 16.7 C 0 km/h
1158 06-08-2008 03:51:05 16.6 C 9.75 g/m*3 16.6 C 0 km/h
1159 06-08-2008 04:03:05 16.6 C 9.75 g/m*3 16.6 C 0 km/h
1160 06-08-2008 04:15:05 16.6 C 9.75 g/m*3 16.6 C 0 km/h
1161 06-08-2008 04:27:05 16.4 C 9.77 g/m*3 16.4 C 0 km/h
1162 06-08-2008 04:39:05 16.2 C 9.79 g/m*3 16.2 C 0 km/h
1163 06-08-2008 04:51:05 16 C 9.81 g/m*3 16 C 0 km/h
1164 06-08-2008 05:03:05 15.9 C 9.89 g/m*3 15.9 C 0 km/h
1165 06-08-2008 05:15:05 15.7 C 9.77 g/m*3 15.7 C 0 km/h
1166 06-08-2008 05:27:05 15.6 C 9.84 g/m*3 15.6 C 0 km/h
1167 06-08-2008 05:39:05 15.4 C 9.72 g/m*3 15.4 C 0 km/h
1168 06-08-2008 05:51:05 15.3 C 9.79 g/m*3 15.3 C 0 km/h
1169 06-08-2008 06:03:05 15.2 C 9.73 g/m*3 15.2 C 0 km/h
1170 06-08-2008 06:15:05 15.2 C 9.99 g/m*3 15.2 C 0 km/h
1171 06-08-2008 06:27:05 15.1 C 9.93 g/m*3 15.1 C 0 km/h
1172 06-08-2008 06:39:05 14.9 C 9.94 g/m*3 14.9 C 0 km/h
1173 06-08-2008 06:51:02 14.9 C 9.94 g/m*3 14.9 C 0 km/h
1174 06-08-2008 07:03:01 15.2 C 10.12 g/m*3 15.2 C 0 km/h
1175 06-08-2008 07:15:02 15.3 C 10.19 g/m*3 15.3 C 0 km/h
Sensor: Nr:Datum:Temp:Abs-Feuchte:Windchill:Wind:
Aussen-T/F 1176 06-08-2008 07:27:02 15.5 C 10.31 g/m*3 15.5 C 0 km/h
1177 06-08-2008 07:39:01 15.6 C 10.24 g/m*3 15.6 C 0 km/h
1178 06-08-2008 07:51:02 15.8 C 10.36 g/m*3 15.8 C 0 km/h
1179 06-08-2008 08:03:01 15.9 C 10.29 g/m*3 15.9 C 0 km/h
1180 06-08-2008 08:15:02 16.2 C 10.34 g/m*3 16.2 C 0 km/h
1181 06-08-2008 08:27:02 16.4 C 10.33 g/m*3 16.4 C 0 km/h
1182 06-08-2008 08:39:01 16.6 C 10.45 g/m*3 16.6 C 0 km/h
1183 06-08-2008 08:51:01 16.9 C 10.36 g/m*3 16.9 C 0 km/h
1184 06-08-2008 09:03:01 17.3 C 10.16 g/m*3 17.3 C 0 km/h
1185 06-08-2008 09:15:02 17.8 C 10.47 g/m*3 17.8 C 0 km/h
1186 06-08-2008 09:27:02 18.3 C 10.32 g/m*3 18.3 C 0 km/h
1187 06-08-2008 09:39:01 18.9 C 10.69 g/m*3 18.9 C 0 km/h
1188 06-08-2008 09:51:01 19.3 C 10.62 g/m*3 19.3 C 0 km/h
1189 06-08-2008 10:03:01 20 C 10.54 g/m*3 20 C 0 km/h
1190 06-08-2008 10:15:01 20.9 C 10.56 g/m*3 20.9 C 0 km/h
1191 06-08-2008 10:27:01 21.7 C 10.11 g/m*3 21.7 C 0 km/h
1192 06-08-2008 10:39:01 22.2 C 10.01 g/m*3 22.2 C 0 km/h
1193 06-08-2008 10:51:01 23.2 C 9.98 g/m*3 23.2 C 0 km/h
1194 06-08-2008 11:03:02 23.7 C 10.27 g/m*3 23.7 C 0 km/h
1195 06-08-2008 11:15:01 24.3 C 9.52 g/m*3 24.3 C 0 km/h
1196 06-08-2008 11:27:01 25.1 C 9.26 g/m*3 25.1 C 0 km/h
1197 06-08-2008 11:39:02 25.8 C 9.39 g/m*3 25.8 C 0 km/h
1198 06-08-2008 11:51:02 26.1 C 9.06 g/m*3 26.1 C 0 km/h
1199 06-08-2008 12:03:02 26.9 C 9.47 g/m*3 26.9 C 0 km/h
1200 06-08-2008 12:15:01 27.1 C 8.8 g/m*3 27.1 C 0 km/h
Sensor: Nr:Datum:Temp:Abs-Feuchte:Windchill:Wind:
Aussen-T/F 1201 06-08-2008 12:27:01 27.6 C 9.04 g/m*3 27.6 C 0 km/h
1202 06-08-2008 12:39:02 28.1 C 8.75 g/m*3 28.1 C 0 km/h
1203 06-08-2008 12:51:02 27.8 C 8.61 g/m*3 27.8 C 0 km/h
1204 06-08-2008 13:03:02 28.9 C 8.86 g/m*3 28.9 C 0 km/h
1205 06-08-2008 13:15:02 30 C 8.19 g/m*3 30 C 0 km/h
1206 06-08-2008 13:27:02 30.6 C 8.14 g/m*3 30.6 C 0 km/h
1207 06-08-2008 13:39:02 30.6 C 7.83 g/m*3 30.6 C 0 km/h
1208 06-08-2008 13:51:02 30.9 C 7.96 g/m*3 30.9 C 0 km/h
1209 06-08-2008 14:03:01 31 C 8 g/m*3 31 C 0 km/h
1210 06-08-2008 14:15:02 31.1 C 8.04 g/m*3 31.1 C 0 km/h
1211 06-08-2008 14:27:02 30.7 C 8.5 g/m*3 30.7 C 0 km/h
1212 06-08-2008 14:39:02 31.3 C 7.81 g/m*3 31.3 C 0 km/h
1213 06-08-2008 14:51:02 31.5 C 7.56 g/m*3 31.5 C 0 km/h
1214 06-08-2008 15:03:02 32.1 C 7.47 g/m*3 32.1 C 0 km/h
1215 06-08-2008 15:15:02 32.3 C 6.86 g/m*3 32.3 C 0 km/h
1216 06-08-2008 15:27:03 32 C 7.09 g/m*3 32 C 0 km/h
1217 06-08-2008 15:39:02 32.5 C 6.93 g/m*3 32.5 C 0 km/h
1218 06-08-2008 15:51:02 32.7 C 7.01 g/m*3 32.7 C 0 km/h
1219 06-08-2008 16:03:02 33 C 7.12 g/m*3 33 C 0 km/h
1220 06-08-2008 16:15:02 33.2 C 7.2 g/m*3 33.2 C 0 km/h
1221 06-08-2008 16:27:02 33.5 C 7.31 g/m*3 33.5 C 0 km/h
1222 06-08-2008 16:39:02 33.6 C 7.35 g/m*3 33.6 C 0 km/h
1223 06-08-2008 16:51:02 33.7 C 7.39 g/m*3 33.7 C 0 km/h
1224 06-08-2008 17:03:02 33.9 C 7.46 g/m*3 33.9 C 0 km/h
1225 06-08-2008 17:15:02 33.9 C 7.46 g/m*3 33.9 C 0 km/h
Sensor: Nr:Datum:Temp:Abs-Feuchte:Windchill:Wind:
Aussen-T/F 1226 06-08-2008 17:27:02 33.6 C 7.35 g/m*3 33.6 C 0 km/h
1227 06-08-2008 17:39:02 33.7 C 7.39 g/m*3 33.7 C 0 km/h
1228 06-08-2008 17:51:02 33.8 C 7.43 g/m*3 33.8 C 0 km/h
1229 06-08-2008 18:03:02 34 C 7.5 g/m*3 34 C 0 km/h
1230 06-08-2008 18:15:02 34.2 C 7.58 g/m*3 34.2 C 0 km/h
1231 06-08-2008 18:27:02 33.9 C 7.46 g/m*3 33.9 C 0 km/h
1232 06-08-2008 18:39:02 34 C 7.5 g/m*3 34 C 0 km/h
1233 06-08-2008 18:51:02 33.9 C 7.46 g/m*3 33.9 C 0 km/h
1234 06-08-2008 19:03:01 33.9 C 7.46 g/m*3 33.9 C 0 km/h
1235 06-08-2008 19:15:02 33.3 C 7.23 g/m*3 33.3 C 0 km/h
1236 06-08-2008 19:27:02 33.3 C 7.59 g/m*3 33.3 C 0 km/h
1237 06-08-2008 19:39:02 32.7 C 7.36 g/m*3 32.7 C 0 km/h
1238 06-08-2008 19:51:02 31.6 C 8.59 g/m*3 31.6 C 0 km/h
1239 06-08-2008 20:03:02 30.6 C 9.4 g/m*3 30.6 C 0 km/h
1240 06-08-2008 20:15:02 30.1 C 9.45 g/m*3 30.1 C 0 km/h
1241 06-08-2008 20:27:03 29.5 C 9.44 g/m*3 29.5 C 0 km/h
1242 06-08-2008 20:39:02 28.9 C 9.43 g/m*3 28.9 C 0 km/h
1243 06-08-2008 20:51:02 28.4 C 9.45 g/m*3 28.4 C 0 km/h
1244 06-08-2008 21:03:02 27.8 C 9.15 g/m*3 27.8 C 0 km/h
1245 06-08-2008 21:15:03 27.3 C 9.16 g/m*3 27.3 C 0 km/h
1246 06-08-2008 21:27:03 27 C 9.01 g/m*3 27 C 0 km/h
1247 06-08-2008 21:39:02 26.7 C 9.11 g/m*3 26.7 C 0 km/h
1248 06-08-2008 21:51:01 26.6 C 9.31 g/m*3 26.6 C 0 km/h
1249 06-08-2008 22:03:01 26.6 C 9.06 g/m*3 26.6 C 0 km/h
1250 06-08-2008 22:15:01 26.4 C 9.21 g/m*3 26.4 C 0 km/h
Sensor: Nr:Datum:Temp:Abs-Feuchte:Windchill:Wind:
Aussen-T/F 1251 06-08-2008 22:27:01 26 C 9.49 g/m*3 26 C 0 km/h
1252 06-08-2008 22:40:02 25.8 C 9.39 g/m*3 25.8 C 0 km/h
1253 06-08-2008 22:52:02 25.6 C 9.28 g/m*3 25.6 C 0 km/h
1254 06-08-2008 23:04:02 25.1 C 9.26 g/m*3 25.1 C 0 km/h
1255 06-08-2008 23:16:02 24.8 C 9.79 g/m*3 24.8 C 0 km/h
1256 06-08-2008 23:28:02 24.5 C 10.07 g/m*3 24.5 C 0 km/h
1257 06-08-2008 23:40:02 24.1 C 9.85 g/m*3 24.1 C 0 km/h
1258 06-08-2008 23:52:02 24 C 10.01 g/m*3 24 C 0 km/h
1259 07-08-2008 00:04:02 23.7 C 9.84 g/m*3 23.7 C 0 km/h
1260 07-08-2008 00:16:02 23.6 C 10.21 g/m*3 23.6 C 0 km/h
1261 07-08-2008 00:28:02 23.3 C 10.25 g/m*3 23.3 C 0 km/h
1262 07-08-2008 00:40:02 23 C 10.28 g/m*3 23 C 0 km/h
1263 07-08-2008 00:52:02 22.7 C 10.51 g/m*3 22.7 C 0 km/h
1264 07-08-2008 01:04:02 22.5 C 10.59 g/m*3 22.5 C 0 km/h
1265 07-08-2008 01:16:02 22.3 C 10.66 g/m*3 22.3 C 0 km/h
1266 07-08-2008 01:28:02 22.1 C 10.74 g/m*3 22.1 C 0 km/h
1267 07-08-2008 01:40:02 21.9 C 11 g/m*3 21.9 C 0 km/h
1268 07-08-2008 01:52:03 21.7 C 11.06 g/m*3 21.7 C 0 km/h
1269 07-08-2008 02:04:03 21.4 C 11.06 g/m*3 21.4 C 0 km/h
1270 07-08-2008 02:16:03 21.3 C 11 g/m*3 21.3 C 0 km/h
1271 07-08-2008 02:28:03 21.1 C 11.06 g/m*3 21.1 C 0 km/h
1272 07-08-2008 02:40:03 20.9 C 11.29 g/m*3 20.9 C 0 km/h
1273 07-08-2008 02:52:03 20.7 C 11.34 g/m*3 20.7 C 0 km/h
1274 07-08-2008 03:04:03 20.6 C 11.28 g/m*3 20.6 C 0 km/h
1275 07-08-2008 03:16:03 20.4 C 11.14 g/m*3 20.4 C 0 km/h
Sensor: Nr:Datum:Temp:Abs-Feuchte:Windchill:Wind:
Aussen-T/F 1276 07-08-2008 03:28:03 20.3 C 11.26 g/m*3 20.3 C 0 km/h
1277 07-08-2008 03:40:03 20.3 C 11.26 g/m*3 20.3 C 0 km/h
1278 07-08-2008 03:52:03 20.2 C 11.19 g/m*3 20.2 C 0 km/h
1279 07-08-2008 04:04:03 19.9 C 11.34 g/m*3 19.9 C 0 km/h
1280 07-08-2008 04:16:03 19.7 C 11.38 g/m*3 19.7 C 0 km/h
1281 07-08-2008 04:28:03 19.6 C 11.31 g/m*3 19.6 C 0 km/h
1282 07-08-2008 04:40:03 19.4 C 11.35 g/m*3 19.4 C 0 km/h
1283 07-08-2008 04:52:03 19.3 C 11.44 g/m*3 19.3 C 0 km/h
1284 07-08-2008 05:04:03 19.3 C 11.44 g/m*3 19.3 C 0 km/h
1285 07-08-2008 05:16:03 19.1 C 11.47 g/m*3 19.1 C 0 km/h
1286 07-08-2008 05:28:03 18.8 C 11.6 g/m*3 18.8 C 0 km/h
1287 07-08-2008 05:40:03 18.8 C 11.6 g/m*3 18.8 C 0 km/h
1288 07-08-2008 05:52:04 18.6 C 11.62 g/m*3 18.6 C 0 km/h
1289 07-08-2008 06:04:04 18.6 C 11.62 g/m*3 18.6 C 0 km/h
1290 07-08-2008 06:16:04 18.5 C 11.71 g/m*3 18.5 C 0 km/h
1291 07-08-2008 06:28:04 18.4 C 11.64 g/m*3 18.4 C 0 km/h
1292 07-08-2008 06:40:04 18.3 C 11.57 g/m*3 18.3 C 0 km/h
1293 07-08-2008 06:52:04 18.5 C 11.87 g/m*3 18.5 C 0 km/h
1294 07-08-2008 07:04:03 18.7 C 12.01 g/m*3 18.7 C 0 km/h
1295 07-08-2008 07:16:02 18.8 C 11.92 g/m*3 18.8 C 0 km/h
1296 07-08-2008 07:28:02 18.6 C 11.94 g/m*3 18.6 C 0 km/h
1297 07-08-2008 07:40:02 18.8 C 12.08 g/m*3 18.8 C 0 km/h
1298 07-08-2008 07:52:02 19.1 C 11.97 g/m*3 19.1 C 0 km/h
1299 07-08-2008 08:04:02 19.2 C 12.04 g/m*3 19.2 C 0 km/h
1300 07-08-2008 08:16:02 19.6 C 12.15 g/m*3 19.6 C 0 km/h
Sensor: Nr:Datum:Temp:Abs-Feuchte:Windchill:Wind:
Aussen-T/F 1301 07-08-2008 08:28:02 19.9 C 12.2 g/m*3 19.9 C 0 km/h
1302 07-08-2008 08:40:02 20.3 C 12.14 g/m*3 20.3 C 0 km/h
1303 07-08-2008 08:52:02 20.9 C 12.38 g/m*3 20.9 C 0 km/h
1304 07-08-2008 09:04:02 21.6 C 12.52 g/m*3 21.6 C 0 km/h
1305 07-08-2008 09:16:02 22.5 C 12.58 g/m*3 22.5 C 0 km/h
1306 07-08-2008 09:28:02 23 C 12.33 g/m*3 23 C 0 km/h
1307 07-08-2008 09:40:02 23.7 C 12.62 g/m*3 23.7 C 0 km/h
1308 07-08-2008 09:52:03 24.2 C 12.54 g/m*3 24.2 C 0 km/h
1309 07-08-2008 10:04:02 24.7 C 12.22 g/m*3 24.7 C 0 km/h
1310 07-08-2008 10:16:02 25.3 C 11.47 g/m*3 25.3 C 0 km/h
1311 07-08-2008 10:28:02 26.2 C 11.32 g/m*3 26.2 C 0 km/h
1312 07-08-2008 10:40:02 26.8 C 11.45 g/m*3 26.8 C 0 km/h
1313 07-08-2008 10:52:02 27.2 C 11.19 g/m*3 27.2 C 0 km/h
1314 07-08-2008 11:04:02 27.4 C 11.31 g/m*3 27.4 C 0 km/h
1315 07-08-2008 11:16:02 28 C 11.42 g/m*3 28 C 0 km/h
1316 07-08-2008 11:28:02 28.3 C 11.06 g/m*3 28.3 C 0 km/h
1317 07-08-2008 11:40:02 28.3 C 11.33 g/m*3 28.3 C 0 km/h
1318 07-08-2008 11:52:02 28.7 C 10.74 g/m*3 28.7 C 0 km/h
1319 07-08-2008 12:04:02 29.1 C 10.69 g/m*3 29.1 C 0 km/h
1320 07-08-2008 12:16:02 29.1 C 10.69 g/m*3 29.1 C 0 km/h
1321 07-08-2008 12:28:02 28.7 C 10.74 g/m*3 28.7 C 0 km/h
1322 07-08-2008 12:40:02 29.3 C 10.51 g/m*3 29.3 C 0 km/h
1323 07-08-2008 12:52:02 29.9 C 10.56 g/m*3 29.9 C 0 km/h
1324 07-08-2008 13:04:02 30.4 C 10.54 g/m*3 30.4 C 0 km/h
1325 07-08-2008 13:16:02 30.6 C 10.02 g/m*3 30.6 C 0 km/h
Sensor: Nr:Datum:Temp:Abs-Feuchte:Windchill:Wind:
Aussen-T/F 1326 07-08-2008 13:28:02 30.4 C 10.23 g/m*3 30.4 C 0 km/h
1327 07-08-2008 13:40:02 29.6 C 10.09 g/m*3 29.6 C 0 km/h
1328 07-08-2008 13:52:01 29.8 C 10.5 g/m*3 29.8 C 0 km/h
1329 07-08-2008 14:04:02 29.4 C 10.57 g/m*3 29.4 C 0 km/h
1330 07-08-2008 14:16:01 29.8 C 10.5 g/m*3 29.8 C 0 km/h
1331 07-08-2008 14:28:01 28.8 C 10.51 g/m*3 28.8 C 0 km/h
1332 07-08-2008 14:40:02 28.1 C 10.39 g/m*3 28.1 C 0 km/h
1333 07-08-2008 14:52:02 28.4 C 10.56 g/m*3 28.4 C 0 km/h
1334 07-08-2008 15:04:02 28 C 10.33 g/m*3 28 C 0 km/h
1335 07-08-2008 15:16:02 28.2 C 10.72 g/m*3 28.2 C 0 km/h
1336 07-08-2008 15:28:02 28.5 C 10.34 g/m*3 28.5 C 0 km/h
1337 07-08-2008 15:40:02 29.2 C 9.87 g/m*3 29.2 C 0 km/h
1338 07-08-2008 15:52:01 29.1 C 9.24 g/m*3 29.1 C 0 km/h
1339 07-08-2008 16:04:02 29.3 C 9.63 g/m*3 29.3 C 0 km/h
1340 07-08-2008 16:16:01 28.7 C 9.89 g/m*3 28.7 C 0 km/h
1341 07-08-2008 16:28:01 29.3 C 9.63 g/m*3 29.3 C 0 km/h
1342 07-08-2008 16:40:02 29.4 C 9.39 g/m*3 29.4 C 0 km/h
1343 07-08-2008 16:52:02 30.4 C 9.3 g/m*3 30.4 C 0 km/h
1344 07-08-2008 17:04:01 30.7 C 9.13 g/m*3 30.7 C 0 km/h
1345 07-08-2008 17:16:02 30.1 C 8.84 g/m*3 30.1 C 0 km/h
1346 07-08-2008 17:28:02 29.4 C 8.81 g/m*3 29.4 C 0 km/h
1347 07-08-2008 17:40:01 29.4 C 8.81 g/m*3 29.4 C 0 km/h
1348 07-08-2008 17:52:02 28.7 C 8.48 g/m*3 28.7 C 0 km/h
1349 07-08-2008 18:04:01 30.1 C 8.54 g/m*3 30.1 C 0 km/h
1350 07-08-2008 18:16:02 29.9 C 8.14 g/m*3 29.9 C 0 km/h
Sensor: Nr:Datum:Temp:Abs-Feuchte:Windchill:Wind:
Aussen-T/F 1351 07-08-2008 18:28:03 28.8 C 8.52 g/m*3 28.8 C 0 km/h
1352 07-08-2008 18:40:01 28.6 C 8.71 g/m*3 28.6 C 0 km/h
1353 07-08-2008 18:52:02 28.5 C 8.66 g/m*3 28.5 C 0 km/h
1354 07-08-2008 19:04:01 28.3 C 8.57 g/m*3 28.3 C 0 km/h
1355 07-08-2008 19:16:02 27.7 C 8.56 g/m*3 27.7 C 0 km/h
1356 07-08-2008 19:28:02 27.1 C 8.54 g/m*3 27.1 C 0 km/h
1357 07-08-2008 19:40:01 26.9 C 8.96 g/m*3 26.9 C 0 km/h
1358 07-08-2008 19:52:02 26.6 C 9.06 g/m*3 26.6 C 0 km/h
1359 07-08-2008 20:04:02 26.7 C 9.11 g/m*3 26.7 C 0 km/h
1360 07-08-2008 20:16:02 27.2 C 8.85 g/m*3 27.2 C 0 km/h
1361 07-08-2008 20:28:02 26.1 C 8.81 g/m*3 26.1 C 0 km/h
1362 07-08-2008 20:40:02 25.4 C 8.71 g/m*3 25.4 C 0 km/h
1363 07-08-2008 20:52:02 24.8 C 8.42 g/m*3 24.8 C 0 km/h
1364 07-08-2008 21:04:02 24.6 C 8.33 g/m*3 24.6 C 0 km/h
1365 07-08-2008 21:16:02 24.3 C 8.41 g/m*3 24.3 C 0 km/h
1366 07-08-2008 21:28:02 24 C 8.49 g/m*3 24 C 0 km/h
1367 07-08-2008 21:40:02 23.7 C 8.77 g/m*3 23.7 C 0 km/h
1368 07-08-2008 21:52:02 23.4 C 8.83 g/m*3 23.4 C 0 km/h
1369 07-08-2008 22:04:02 23.3 C 8.78 g/m*3 23.3 C 0 km/h
1370 07-08-2008 22:17:02 23.3 C 8.57 g/m*3 23.3 C 0 km/h
1371 07-08-2008 22:29:02 23.1 C 8.27 g/m*3 23.1 C 0 km/h
1372 07-08-2008 22:41:02 23 C 8.43 g/m*3 23 C 0 km/h
1373 07-08-2008 22:53:02 20.4 C 10.79 g/m*3 20.4 C 0 km/h
1374 07-08-2008 23:05:02 19.2 C 12.7 g/m*3 19.2 C 0 km/h
1375 07-08-2008 23:17:02 18.5 C 12.82 g/m*3 18.5 C 0 km/h
Sensor: Nr:Datum:Temp:Abs-Feuchte:Windchill:Wind:
Aussen-T/F 1376 07-08-2008 23:29:01 17.9 C 12.67 g/m*3 17.9 C 0 km/h
1377 07-08-2008 23:41:01 17.8 C 12.9 g/m*3 17.8 C 0 km/h
1378 07-08-2008 23:53:02 17.9 C 12.98 g/m*3 17.9 C 0 km/h
1379 08-08-2008 00:05:02 18.2 C 13.06 g/m*3 18.2 C 0 km/h
1380 08-08-2008 00:17:02 18.2 C 12.9 g/m*3 18.2 C 0 km/h
1381 08-08-2008 00:29:02 17.9 C 12.67 g/m*3 17.9 C 0 km/h
1382 08-08-2008 00:41:02 17.8 C 12.6 g/m*3 17.8 C 0 km/h
1383 08-08-2008 00:53:03 17.7 C 12.52 g/m*3 17.7 C 0 km/h
1384 08-08-2008 01:05:03 17.6 C 12.45 g/m*3 17.6 C 0 km/h
1385 08-08-2008 01:17:03 17.6 C 12.45 g/m*3 17.6 C 0 km/h
1386 08-08-2008 01:41:03 17.7 C 12.37 g/m*3 17.7 C 0 km/h
1387 08-08-2008 01:53:03 17.7 C 12.37 g/m*3 17.7 C 0 km/h
1388 08-08-2008 02:05:03 17.7 C 12.22 g/m*3 17.7 C 0 km/h
1389 08-08-2008 02:29:03 17.8 C 12.45 g/m*3 17.8 C 0 km/h
1390 08-08-2008 02:41:04 17.7 C 12.37 g/m*3 17.7 C 0 km/h
1391 08-08-2008 02:53:04 17.7 C 12.37 g/m*3 17.7 C 0 km/h
1392 08-08-2008 03:05:34 17.6 C 12.3 g/m*3 17.6 C 0 km/h
1393 08-08-2008 03:17:34 17.7 C 12.37 g/m*3 17.7 C 0 km/h
1394 08-08-2008 03:29:34 17.7 C 12.37 g/m*3 17.7 C 0 km/h
1395 08-08-2008 03:41:04 17.7 C 12.37 g/m*3 17.7 C 0 km/h
1396 08-08-2008 03:53:05 17.8 C 12.29 g/m*3 17.8 C 0 km/h
1397 08-08-2008 04:05:05 18.1 C 12.05 g/m*3 18.1 C 0 km/h
1398 08-08-2008 04:17:35 18 C 11.83 g/m*3 18 C 0 km/h
1399 08-08-2008 04:29:35 17.9 C 11.76 g/m*3 17.9 C 0 km/h
1400 08-08-2008 04:41:02 17.9 C 11.6 g/m*3 17.9 C 0 km/h
Sensor: Nr:Datum:Temp:Abs-Feuchte:Windchill:Wind:
Aussen-T/F 1401 08-08-2008 04:53:02 17.7 C 11.47 g/m*3 17.7 C 0 km/h
1402 08-08-2008 05:05:02 17.7 C 11.47 g/m*3 17.7 C 0 km/h
1403 08-08-2008 05:17:02 17.7 C 11.47 g/m*3 17.7 C 0 km/h
1404 08-08-2008 05:29:01 17.6 C 11.55 g/m*3 17.6 C 0 km/h
1405 08-08-2008 05:41:01 17.7 C 11.47 g/m*3 17.7 C 0 km/h
1406 08-08-2008 05:53:02 17.7 C 11.32 g/m*3 17.7 C 0 km/h
1407 08-08-2008 06:05:02 17.6 C 11.25 g/m*3 17.6 C 0 km/h
1408 08-08-2008 06:17:02 17.7 C 11.16 g/m*3 17.7 C 0 km/h
1409 08-08-2008 06:29:02 17.8 C 11.23 g/m*3 17.8 C 0 km/h
1410 08-08-2008 06:41:02 17.7 C 11.47 g/m*3 17.7 C 0 km/h
1411 08-08-2008 06:53:33 17.1 C 11.65 g/m*3 17.1 C 0 km/h
1412 08-08-2008 07:05:33 17.2 C 11.72 g/m*3 17.2 C 0 km/h
1413 08-08-2008 07:17:33 17.7 C 11.62 g/m*3 17.7 C 0 km/h
1414 08-08-2008 07:29:33 18 C 11.21 g/m*3 18 C 0 km/h
1415 08-08-2008 07:41:33 17.7 C 11.16 g/m*3 17.7 C 0 km/h
1416 08-08-2008 07:53:33 16.6 C 11.72 g/m*3 16.6 C 0 km/h
1417 08-08-2008 08:17:34 16.3 C 11.93 g/m*3 16.3 C 0 km/h
1418 08-08-2008 08:29:34 16.6 C 12.29 g/m*3 16.6 C 0 km/h
1419 08-08-2008 08:41:34 16.9 C 12.37 g/m*3 16.9 C 0 km/h
1420 08-08-2008 09:05:34 17 C 11.72 g/m*3 17 C 0 km/h
1421 08-08-2008 09:17:34 17 C 11.87 g/m*3 17 C 0 km/h
1422 08-08-2008 09:29:34 16.8 C 11.87 g/m*3 16.8 C 0 km/h
1423 08-08-2008 09:41:03 17.2 C 12.15 g/m*3 17.2 C 0 km/h
1424 08-08-2008 09:53:03 17.5 C 12.08 g/m*3 17.5 C 0 km/h
1425 08-08-2008 10:05:03 17.7 C 11.92 g/m*3 17.7 C 0 km/h
Sensor: Nr:Datum:Temp:Abs-Feuchte:Windchill:Wind:
Aussen-T/F 1426 08-08-2008 10:17:02 17.7 C 11.62 g/m*3 17.7 C 0 km/h
1427 08-08-2008 10:29:02 17.8 C 11.84 g/m*3 17.8 C 0 km/h
1428 08-08-2008 10:41:02 18.2 C 11.81 g/m*3 18.2 C 0 km/h
1429 08-08-2008 10:53:02 18.5 C 11.55 g/m*3 18.5 C 0 km/h
1430 08-08-2008 11:05:02 18.8 C 11.76 g/m*3 18.8 C 0 km/h
1431 08-08-2008 11:17:03 19.4 C 11.85 g/m*3 19.4 C 0 km/h
1432 08-08-2008 11:29:03 20.3 C 11.78 g/m*3 20.3 C 0 km/h
1433 08-08-2008 11:41:02 20.9 C 11.47 g/m*3 20.9 C 0 km/h
1434 08-08-2008 11:53:02 21.9 C 11 g/m*3 21.9 C 0 km/h
1435 08-08-2008 12:05:02 21.7 C 10.68 g/m*3 21.7 C 0 km/h
1436 08-08-2008 12:17:03 21.4 C 10.87 g/m*3 21.4 C 0 km/h
1437 08-08-2008 12:29:03 21.7 C 11.06 g/m*3 21.7 C 0 km/h
1438 08-08-2008 12:41:02 16.9 C 10.64 g/m*3 16.9 C 0 km/h
1439 08-08-2008 12:53:02 16 C 11.44 g/m*3 16 C 0 km/h
1440 08-08-2008 13:05:02 17.8 C 13.2 g/m*3 17.8 C 0 km/h
1441 08-08-2008 13:17:02 19.2 C 13.85 g/m*3 19.2 C 0 km/h
1442 08-08-2008 13:29:02 20.9 C 13.11 g/m*3 20.9 C 0 km/h
1443 08-08-2008 13:41:02 21.8 C 12.28 g/m*3 21.8 C 0 km/h
1444 08-08-2008 13:53:01 20.8 C 13.04 g/m*3 20.8 C 0 km/h
1445 08-08-2008 14:05:02 20.4 C 13.27 g/m*3 20.4 C 0 km/h
1446 08-08-2008 14:17:02 20.3 C 14.07 g/m*3 20.3 C 0 km/h
1447 08-08-2008 14:29:02 21.1 C 13.82 g/m*3 21.1 C 0 km/h
1448 08-08-2008 14:41:02 22 C 13.78 g/m*3 22 C 0 km/h
1449 08-08-2008 14:53:02 22.7 C 12.73 g/m*3 22.7 C 0 km/h
1450 08-08-2008 15:05:02 21.7 C 12.02 g/m*3 21.7 C 0 km/h
Sensor: Nr:Datum:Temp:Abs-Feuchte:Windchill:Wind:
Aussen-T/F 1451 08-08-2008 15:17:02 19.2 C 11.71 g/m*3 19.2 C 0 km/h
1452 08-08-2008 15:29:03 20 C 12.96 g/m*3 20 C 0 km/h
1453 08-08-2008 15:41:03 21.9 C 11.77 g/m*3 21.9 C 0 km/h
1454 08-08-2008 15:53:03 22.1 C 11.52 g/m*3 22.1 C 0 km/h
1455 08-08-2008 16:05:03 21.1 C 9.58 g/m*3 21.1 C 0 km/h
1456 08-08-2008 16:17:02 21.1 C 9.95 g/m*3 21.1 C 0 km/h
1457 08-08-2008 16:29:02 22.7 C 9.7 g/m*3 22.7 C 0 km/h
1458 08-08-2008 16:41:02 22.1 C 9.17 g/m*3 22.1 C 0 km/h
1459 08-08-2008 16:53:01 21.6 C 9.48 g/m*3 21.6 C 0 km/h
1460 08-08-2008 17:05:01 21.8 C 9.21 g/m*3 21.8 C 0 km/h
1461 08-08-2008 17:17:01 21.8 C 9.4 g/m*3 21.8 C 0 km/h
1462 08-08-2008 17:29:01 21.4 C 9.19 g/m*3 21.4 C 0 km/h
1463 08-08-2008 17:41:01 19.7 C 9.85 g/m*3 19.7 C 0 km/h
1464 08-08-2008 17:53:02 18.7 C 11.05 g/m*3 18.7 C 0 km/h
1465 08-08-2008 18:05:02 18.9 C 11.66 g/m*3 18.9 C 0 km/h
1466 08-08-2008 18:17:02 19.5 C 11.24 g/m*3 19.5 C 0 km/h
1467 08-08-2008 18:29:02 19.5 C 10.74 g/m*3 19.5 C 0 km/h
1468 08-08-2008 18:41:02 19.4 C 10.51 g/m*3 19.4 C 0 km/h
1469 08-08-2008 18:53:28 19.3 C 10.28 g/m*3 19.3 C 0 km/h
1470 08-08-2008 19:05:02 19.4 C 10.34 g/m*3 19.4 C 0 km/h
1471 08-08-2008 19:17:03 19.4 C 10.34 g/m*3 19.4 C 0 km/h
1472 08-08-2008 19:29:03 19.3 C 10.28 g/m*3 19.3 C 0 km/h
1473 08-08-2008 19:41:03 19.3 C 10.12 g/m*3 19.3 C 0 km/h
1474 08-08-2008 19:53:02 19.3 C 10.12 g/m*3 19.3 C 0 km/h
1475 08-08-2008 20:05:03 19 C 10.27 g/m*3 19 C 0 km/h
Sensor: Nr:Datum:Temp:Abs-Feuchte:Windchill:Wind:
Aussen-T/F 1476 08-08-2008 20:17:02 17.8 C 11.08 g/m*3 17.8 C 0 km/h
1477 08-08-2008 20:29:02 17.5 C 11.18 g/m*3 17.5 C 0 km/h
1478 08-08-2008 20:41:03 16.8 C 11.58 g/m*3 16.8 C 0 km/h
1479 08-08-2008 20:53:02 16.5 C 11.8 g/m*3 16.5 C 0 km/h
1480 08-08-2008 21:05:02 16.4 C 12 g/m*3 16.4 C 0 km/h
1481 08-08-2008 21:17:02 16.3 C 12.07 g/m*3 16.3 C 0 km/h
1482 08-08-2008 21:29:01 16.3 C 12.21 g/m*3 16.3 C 0 km/h
1483 08-08-2008 21:41:01 16.5 C 12.22 g/m*3 16.5 C 0 km/h
1484 08-08-2008 21:54:01 16.6 C 12.15 g/m*3 16.6 C 0 km/h
1485 08-08-2008 22:06:01 16.7 C 12.08 g/m*3 16.7 C 0 km/h
1486 08-08-2008 22:18:01 16.7 C 11.94 g/m*3 16.7 C 0 km/h
1487 08-08-2008 22:30:01 16.8 C 11.87 g/m*3 16.8 C 0 km/h
1488 08-08-2008 22:42:01 16.4 C 11.58 g/m*3 16.4 C 0 km/h
1489 08-08-2008 22:54:01 16.1 C 11.93 g/m*3 16.1 C 0 km/h
1490 08-08-2008 23:06:01 16 C 11.99 g/m*3 16 C 0 km/h
1491 08-08-2008 23:18:01 16 C 12.13 g/m*3 16 C 0 km/h
1492 08-08-2008 23:30:02 16.1 C 12.34 g/m*3 16.1 C 0 km/h
1493 08-08-2008 23:42:02 16.2 C 12.41 g/m*3 16.2 C 0 km/h
1494 08-08-2008 23:54:02 16.1 C 12.2 g/m*3 16.1 C 0 km/h
1495 09-08-2008 00:06:02 16 C 11.99 g/m*3 16 C 0 km/h
1496 09-08-2008 00:18:02 16.1 C 12.06 g/m*3 16.1 C 0 km/h
1497 09-08-2008 00:30:02 16.2 C 12 g/m*3 16.2 C 0 km/h
1498 09-08-2008 00:42:02 16.2 C 11.86 g/m*3 16.2 C 0 km/h
1499 09-08-2008 00:54:02 16.1 C 11.65 g/m*3 16.1 C 0 km/h
1500 09-08-2008 01:06:02 15.9 C 11.51 g/m*3 15.9 C 0 km/h
Sensor: Nr:Datum:Temp:Abs-Feuchte:Windchill:Wind:
Aussen-T/F 1501 09-08-2008 01:18:02 15.7 C 11.37 g/m*3 15.7 C 0 km/h
1502 09-08-2008 01:30:02 15.4 C 11.3 g/m*3 15.4 C 0 km/h
1503 09-08-2008 01:42:02 15.1 C 11.09 g/m*3 15.1 C 0 km/h
1504 09-08-2008 01:54:02 14.9 C 11.22 g/m*3 14.9 C 0 km/h
1505 09-08-2008 02:06:02 14.9 C 11.22 g/m*3 14.9 C 0 km/h
1506 09-08-2008 02:18:02 14.7 C 11.08 g/m*3 14.7 C 0 km/h
1507 09-08-2008 02:30:02 14.5 C 10.94 g/m*3 14.5 C 0 km/h
1508 09-08-2008 02:42:02 14.5 C 10.94 g/m*3 14.5 C 0 km/h
1509 09-08-2008 02:54:02 14.4 C 10.88 g/m*3 14.4 C 0 km/h
1510 09-08-2008 03:06:02 14.4 C 10.88 g/m*3 14.4 C 0 km/h
1511 09-08-2008 03:18:03 14.5 C 10.7 g/m*3 14.5 C 0 km/h
1512 09-08-2008 03:30:03 14.5 C 10.32 g/m*3 14.5 C 0 km/h
1513 09-08-2008 03:42:03 14.4 C 10.26 g/m*3 14.4 C 0 km/h
1514 09-08-2008 03:54:03 14.4 C 10.26 g/m*3 14.4 C 0 km/h
1515 09-08-2008 04:06:03 14.5 C 10.45 g/m*3 14.5 C 0 km/h
1516 09-08-2008 04:18:03 14.5 C 10.45 g/m*3 14.5 C 0 km/h
1517 09-08-2008 04:30:03 14.5 C 10.57 g/m*3 14.5 C 0 km/h
1518 09-08-2008 04:42:03 14.6 C 10.64 g/m*3 14.6 C 0 km/h
1519 09-08-2008 04:54:03 14.6 C 10.64 g/m*3 14.6 C 0 km/h
1520 09-08-2008 05:06:03 14.7 C 10.58 g/m*3 14.7 C 0 km/h
1521 09-08-2008 05:18:03 14.6 C 10.51 g/m*3 14.6 C 0 km/h
1522 09-08-2008 05:30:03 14.6 C 10.51 g/m*3 14.6 C 0 km/h
1523 09-08-2008 05:42:03 14.6 C 10.39 g/m*3 14.6 C 0 km/h
1524 09-08-2008 05:54:03 14.7 C 10.2 g/m*3 14.7 C 0 km/h
1525 09-08-2008 06:06:03 14.7 C 10.07 g/m*3 14.7 C 0 km/h
Sensor: Nr:Datum:Temp:Abs-Feuchte:Windchill:Wind:
Aussen-T/F 1526 09-08-2008 06:18:03 14.9 C 9.81 g/m*3 14.9 C 0 km/h
1527 09-08-2008 06:30:03 14.9 C 9.69 g/m*3 14.9 C 0 km/h
1528 09-08-2008 06:42:03 14.9 C 9.69 g/m*3 14.9 C 0 km/h
1529 09-08-2008 06:54:03 15 C 9.87 g/m*3 15 C 0 km/h
1530 09-08-2008 07:06:03 15 C 9.75 g/m*3 15 C 0 km/h
1531 09-08-2008 07:18:04 14.9 C 9.43 g/m*3 14.9 C 0 km/h
1532 09-08-2008 07:30:04 14.8 C 9.37 g/m*3 14.8 C 0 km/h
1533 09-08-2008 07:42:04 15 C 9.36 g/m*3 15 C 0 km/h
1534 09-08-2008 07:54:04 15.1 C 9.29 g/m*3 15.1 C 0 km/h
1535 09-08-2008 08:06:02 14.7 C 9.19 g/m*3 14.7 C 0 km/h
1536 09-08-2008 08:18:02 14.7 C 9.44 g/m*3 14.7 C 0 km/h
1537 09-08-2008 08:30:02 15.1 C 9.42 g/m*3 15.1 C 0 km/h
1538 09-08-2008 08:42:01 15.7 C 9.1 g/m*3 15.7 C 0 km/h
1539 09-08-2008 08:54:02 16.2 C 9.38 g/m*3 16.2 C 0 km/h
1540 09-08-2008 09:06:02 16.3 C 9.02 g/m*3 16.3 C 0 km/h
1541 09-08-2008 09:18:02 16.3 C 9.43 g/m*3 16.3 C 0 km/h
1542 09-08-2008 09:30:02 16.8 C 9.72 g/m*3 16.8 C 0 km/h
1543 09-08-2008 09:42:02 17.1 C 9.17 g/m*3 17.1 C 0 km/h
1544 09-08-2008 09:54:02 16.6 C 9.04 g/m*3 16.6 C 0 km/h
1545 09-08-2008 10:06:02 17.6 C 8.85 g/m*3 17.6 C 0 km/h
1546 09-08-2008 10:18:01 17.9 C 8.09 g/m*3 17.9 C 0 km/h
1547 09-08-2008 10:30:01 18.1 C 7.73 g/m*3 18.1 C 0 km/h
1548 09-08-2008 10:42:02 18.5 C 7.91 g/m*3 18.5 C 0 km/h
1549 09-08-2008 10:54:02 18.6 C 6.84 g/m*3 18.6 C 0 km/h
1550 09-08-2008 11:06:02 19 C 7.66 g/m*3 19 C 0 km/h
Sensor: Nr:Datum:Temp:Abs-Feuchte:Windchill:Wind:
Aussen-T/F 1551 09-08-2008 11:18:02 20.2 C 6.64 g/m*3 20.2 C 0 km/h
1552 09-08-2008 11:30:02 19.9 C 7.22 g/m*3 19.9 C 0 km/h
1553 09-08-2008 11:42:02 20.4 C 6.72 g/m*3 20.4 C 0 km/h
1554 09-08-2008 11:54:02 20.7 C 6.48 g/m*3 20.7 C 0 km/h
1555 09-08-2008 12:06:01 20.9 C 6.19 g/m*3 20.9 C 0 km/h
1556 09-08-2008 12:18:02 21.9 C 6.18 g/m*3 21.9 C 0 km/h
1557 09-08-2008 12:30:02 22.5 C 6.19 g/m*3 22.5 C 0 km/h
1558 09-08-2008 12:42:01 21.5 C 6.03 g/m*3 21.5 C 0 km/h
1559 09-08-2008 12:54:02 22.3 C 5.73 g/m*3 22.3 C 0 km/h
1560 09-08-2008 13:06:01 22.4 C 5.56 g/m*3 22.4 C 0 km/h
1561 09-08-2008 13:18:02 23.1 C 5.37 g/m*3 23.1 C 0 km/h
1562 09-08-2008 13:30:02 23.5 C 5.29 g/m*3 23.5 C 0 km/h
1563 09-08-2008 13:42:01 23.5 C 5.5 g/m*3 23.5 C 0 km/h
1564 09-08-2008 13:54:03 22.9 C 5.11 g/m*3 22.9 C 0 km/h
1565 09-08-2008 14:06:02 23.2 C 5.61 g/m*3 23.2 C 0 km/h
1566 09-08-2008 14:18:03 23 C 5.34 g/m*3 23 C 0 km/h
1567 09-08-2008 14:30:03 23.2 C 5.2 g/m*3 23.2 C 0 km/h
1568 09-08-2008 14:42:02 24.4 C 5.56 g/m*3 24.4 C 0 km/h
1569 09-08-2008 14:54:02 25.2 C 5.12 g/m*3 25.2 C 0 km/h
1570 09-08-2008 15:06:03 24.3 C 5.53 g/m*3 24.3 C 0 km/h
1571 09-08-2008 15:18:03 24.9 C 5.72 g/m*3 24.9 C 0 km/h
1572 09-08-2008 15:30:03 25.6 C 5.48 g/m*3 25.6 C 0 km/h
1573 09-08-2008 15:42:03 26.1 C 5.63 g/m*3 26.1 C 0 km/h
1574 09-08-2008 15:54:02 26.1 C 5.39 g/m*3 26.1 C 0 km/h
1575 09-08-2008 16:06:03 25.9 C 5.33 g/m*3 25.9 C 0 km/h
Sensor: Nr:Datum:Temp:Abs-Feuchte:Windchill:Wind:
Aussen-T/F 1576 09-08-2008 16:18:02 25.9 C 6.05 g/m*3 25.9 C 0 km/h
1577 09-08-2008 16:30:02 25.4 C 5.65 g/m*3 25.4 C 0 km/h
1578 09-08-2008 16:42:03 24.8 C 5.92 g/m*3 24.8 C 0 km/h
1579 09-08-2008 16:54:03 24.8 C 5.92 g/m*3 24.8 C 0 km/h
1580 09-08-2008 17:06:02 26.3 C 5.94 g/m*3 26.3 C 0 km/h
1581 09-08-2008 17:18:02 26.4 C 5.48 g/m*3 26.4 C 0 km/h
1582 09-08-2008 17:30:02 25.4 C 5.89 g/m*3 25.4 C 0 km/h
1583 09-08-2008 17:42:02 24.9 C 5.95 g/m*3 24.9 C 0 km/h
1584 09-08-2008 17:54:01 26 C 6.09 g/m*3 26 C 0 km/h
1585 09-08-2008 18:06:02 26.2 C 6.15 g/m*3 26.2 C 0 km/h
1586 09-08-2008 18:18:01 25.2 C 6.05 g/m*3 25.2 C 0 km/h
1587 09-08-2008 18:30:01 25 C 6.22 g/m*3 25 C 0 km/h
1588 09-08-2008 18:42:02 25.9 C 6.29 g/m*3 25.9 C 0 km/h
1589 09-08-2008 18:54:01 25.8 C 6.74 g/m*3 25.8 C 0 km/h
1590 09-08-2008 19:06:02 25.3 C 6.79 g/m*3 25.3 C 0 km/h
1591 09-08-2008 19:18:02 24.9 C 7.1 g/m*3 24.9 C 0 km/h
1592 09-08-2008 19:30:02 23.9 C 7.14 g/m*3 23.9 C 0 km/h
1593 09-08-2008 19:42:01 23.8 C 7.1 g/m*3 23.8 C 0 km/h
1594 09-08-2008 19:54:01 23.3 C 7.32 g/m*3 23.3 C 0 km/h
1595 09-08-2008 20:06:02 22.9 C 7.56 g/m*3 22.9 C 0 km/h
1596 09-08-2008 20:18:01 22.3 C 7.7 g/m*3 22.3 C 0 km/h
1597 09-08-2008 20:30:01 21.6 C 7.78 g/m*3 21.6 C 0 km/h
1598 09-08-2008 20:42:02 21 C 7.69 g/m*3 21 C 0 km/h
1599 09-08-2008 20:54:02 20.7 C 8.1 g/m*3 20.7 C 0 km/h
1600 09-08-2008 21:06:02 20 C 7.95 g/m*3 20 C 0 km/h
Sensor: Nr:Datum:Temp:Abs-Feuchte:Windchill:Wind:
Aussen-T/F 1601 09-08-2008 21:18:02 19.9 C 8.25 g/m*3 19.9 C 0 km/h
1602 09-08-2008 21:30:02 19.8 C 8.2 g/m*3 19.8 C 0 km/h
1603 09-08-2008 21:42:02 19.6 C 8.27 g/m*3 19.6 C 0 km/h
1604 09-08-2008 21:54:02 19.5 C 8.39 g/m*3 19.5 C 0 km/h
1605 09-08-2008 22:06:01 19.3 C 8.63 g/m*3 19.3 C 0 km/h
1606 09-08-2008 22:18:02 19 C 8.8 g/m*3 19 C 0 km/h
1607 09-08-2008 22:30:02 19 C 8.8 g/m*3 19 C 0 km/h
1608 09-08-2008 22:42:01 18.9 C 9.23 g/m*3 18.9 C 0 km/h
1609 09-08-2008 22:54:02 18.9 C 9.23 g/m*3 18.9 C 0 km/h
1610 09-08-2008 23:06:01 18.8 C 9.34 g/m*3 18.8 C 0 km/h
1611 09-08-2008 23:18:02 18.7 C 9.13 g/m*3 18.7 C 0 km/h
1612 09-08-2008 23:30:02 18.4 C 9.28 g/m*3 18.4 C 0 km/h
1613 09-08-2008 23:43:02 18.2 C 9.33 g/m*3 18.2 C 0 km/h
1614 09-08-2008 23:55:02 18 C 9.37 g/m*3 18 C 0 km/h
1615 10-08-2008 00:07:02 17.8 C 9.56 g/m*3 17.8 C 0 km/h
1616 10-08-2008 00:19:02 17.7 C 9.51 g/m*3 17.7 C 0 km/h
1617 10-08-2008 00:31:02 17.7 C 9.51 g/m*3 17.7 C 0 km/h
1618 10-08-2008 00:43:02 17.9 C 9.77 g/m*3 17.9 C 0 km/h
1619 10-08-2008 00:55:02 17.9 C 9.77 g/m*3 17.9 C 0 km/h
1620 10-08-2008 01:07:02 18 C 9.68 g/m*3 18 C 0 km/h
1621 10-08-2008 01:19:02 18.1 C 9.73 g/m*3 18.1 C 0 km/h
1622 10-08-2008 01:31:02 17.9 C 9.77 g/m*3 17.9 C 0 km/h
1623 10-08-2008 01:43:02 17.9 C 9.92 g/m*3 17.9 C 0 km/h
1624 10-08-2008 01:55:02 18 C 9.83 g/m*3 18 C 0 km/h
1625 10-08-2008 02:07:02 17.9 C 10.08 g/m*3 17.9 C 0 km/h
Sensor: Nr:Datum:Temp:Abs-Feuchte:Windchill:Wind:
Aussen-T/F 1626 10-08-2008 02:19:02 17.7 C 10.11 g/m*3 17.7 C 0 km/h
1627 10-08-2008 02:31:02 18 C 10.14 g/m*3 18 C 0 km/h
1628 10-08-2008 02:43:02 18.1 C 9.73 g/m*3 18.1 C 0 km/h
1629 10-08-2008 02:55:02 18.3 C 9.85 g/m*3 18.3 C 0 km/h
1630 10-08-2008 03:07:02 18.3 C 9.69 g/m*3 18.3 C 0 km/h
1631 10-08-2008 03:19:03 18.2 C 9.79 g/m*3 18.2 C 0 km/h
1632 10-08-2008 03:31:03 18.2 C 9.79 g/m*3 18.2 C 0 km/h
1633 10-08-2008 03:43:03 18.2 C 9.64 g/m*3 18.2 C 0 km/h
1634 10-08-2008 03:55:03 17.7 C 10.11 g/m*3 17.7 C 0 km/h
1635 10-08-2008 04:07:03 17.6 C 10.2 g/m*3 17.6 C 0 km/h
1636 10-08-2008 04:19:03 18 C 9.68 g/m*3 18 C 0 km/h
1637 10-08-2008 04:31:03 17.9 C 9.77 g/m*3 17.9 C 0 km/h
1638 10-08-2008 04:43:03 18 C 9.68 g/m*3 18 C 0 km/h
1639 10-08-2008 04:55:03 18 C 9.68 g/m*3 18 C 0 km/h
1640 10-08-2008 05:07:03 18 C 9.68 g/m*3 18 C 0 km/h
1641 10-08-2008 05:19:03 17.9 C 9.47 g/m*3 17.9 C 0 km/h
1642 10-08-2008 05:31:03 17.9 C 9.47 g/m*3 17.9 C 0 km/h
1643 10-08-2008 05:43:03 17.9 C 9.47 g/m*3 17.9 C 0 km/h
1644 10-08-2008 05:55:03 18.2 C 9.33 g/m*3 18.2 C 0 km/h
1645 10-08-2008 06:07:03 18.2 C 9.33 g/m*3 18.2 C 0 km/h
1646 10-08-2008 06:19:03 18.2 C 9.17 g/m*3 18.2 C 0 km/h
1647 10-08-2008 06:31:03 18.1 C 9.27 g/m*3 18.1 C 0 km/h
1648 10-08-2008 06:43:03 17.5 C 9.99 g/m*3 17.5 C 0 km/h
1649 10-08-2008 06:55:03 17.7 C 10.26 g/m*3 17.7 C 0 km/h
1650 10-08-2008 07:07:04 17.9 C 10.08 g/m*3 17.9 C 0 km/h
Sensor: Nr:Datum:Temp:Abs-Feuchte:Windchill:Wind:
Aussen-T/F 1651 10-08-2008 07:19:04 18.1 C 9.89 g/m*3 18.1 C 0 km/h
1652 10-08-2008 07:31:04 18.1 C 9.89 g/m*3 18.1 C 0 km/h
1653 10-08-2008 07:43:04 18.4 C 9.75 g/m*3 18.4 C 0 km/h
1654 10-08-2008 07:55:04 18.8 C 9.66 g/m*3 18.8 C 0 km/h
1655 10-08-2008 08:07:04 19.2 C 9.07 g/m*3 19.2 C 0 km/h
1656 10-08-2008 08:19:04 19.4 C 9.01 g/m*3 19.4 C 0 km/h
1657 10-08-2008 08:31:04 19.5 C 9.06 g/m*3 19.5 C 0 km/h
1658 10-08-2008 08:43:04 19.7 C 9 g/m*3 19.7 C 0 km/h
1659 10-08-2008 08:55:04 19.9 C 8.93 g/m*3 19.9 C 0 km/h
1660 10-08-2008 09:07:02 19.9 C 9.11 g/m*3 19.9 C 0 km/h
1661 10-08-2008 09:19:02 20.2 C 9.09 g/m*3 20.2 C 0 km/h
1662 10-08-2008 09:31:02 20.2 C 8.92 g/m*3 20.2 C 0 km/h
1663 10-08-2008 09:43:02 20.3 C 8.97 g/m*3 20.3 C 0 km/h
1664 10-08-2008 09:55:02 20.1 C 9.04 g/m*3 20.1 C 0 km/h
1665 10-08-2008 10:07:02 20 C 9.16 g/m*3 20 C 0 km/h
1666 10-08-2008 10:19:02 19.9 C 9.79 g/m*3 19.9 C 0 km/h
1667 10-08-2008 10:31:02 19.5 C 9.9 g/m*3 19.5 C 0 km/h
1668 10-08-2008 10:43:02 19.6 C 10.13 g/m*3 19.6 C 0 km/h
1669 10-08-2008 10:55:02 20 C 10.02 g/m*3 20 C 0 km/h
1670 10-08-2008 11:07:02 20 C 9.68 g/m*3 20 C 0 km/h
1671 10-08-2008 11:19:02 19 C 10.27 g/m*3 19 C 0 km/h
1672 10-08-2008 11:31:02 18.8 C 10.79 g/m*3 18.8 C 0 km/h
1673 10-08-2008 11:43:02 18.5 C 10.44 g/m*3 18.5 C 0 km/h
1674 10-08-2008 11:58:02 19.3 C 10.12 g/m*3 19.3 C 0 km/h
1675 10-08-2008 12:10:01 19.6 C 9.96 g/m*3 19.6 C 0 km/h
Sensor: Nr:Datum:Temp:Abs-Feuchte:Windchill:Wind:
Aussen-T/F 1676 10-08-2008 12:22:02 20 C 9.68 g/m*3 20 C 0 km/h
1677 10-08-2008 12:34:01 20.7 C 9.9 g/m*3 20.7 C 0 km/h
1678 10-08-2008 12:46:02 20.9 C 9.29 g/m*3 20.9 C 0 km/h
1679 10-08-2008 12:58:02 21.2 C 9.27 g/m*3 21.2 C 0 km/h
1680 10-08-2008 13:10:02 21.5 C 8.86 g/m*3 21.5 C 0 km/h
1681 10-08-2008 13:22:02 21.1 C 9.03 g/m*3 21.1 C 0 km/h
1682 10-08-2008 13:34:02 21.5 C 9.05 g/m*3 21.5 C 0 km/h
1683 10-08-2008 13:46:02 22.3 C 8.49 g/m*3 22.3 C 0 km/h
1684 10-08-2008 13:58:02 22.8 C 8.33 g/m*3 22.8 C 0 km/h
1685 10-08-2008 14:10:02 22.6 C 8.24 g/m*3 22.6 C 0 km/h
1686 10-08-2008 14:22:02 22.4 C 8.14 g/m*3 22.4 C 0 km/h
1687 10-08-2008 14:34:02 21.6 C 8.91 g/m*3 21.6 C 0 km/h
1688 10-08-2008 14:46:02 20.7 C 9.54 g/m*3 20.7 C 0 km/h
1689 10-08-2008 14:58:02 21.5 C 10.18 g/m*3 21.5 C 0 km/h
1690 10-08-2008 15:10:01 22.6 C 9.24 g/m*3 22.6 C 0 km/h
1691 10-08-2008 15:22:02 22.7 C 9.5 g/m*3 22.7 C 0 km/h
1692 10-08-2008 15:34:01 22.6 C 9.84 g/m*3 22.6 C 0 km/h
1693 10-08-2008 15:46:02 22.2 C 8.83 g/m*3 22.2 C 0 km/h
1694 10-08-2008 15:58:02 22.6 C 8.24 g/m*3 22.6 C 0 km/h
1695 10-08-2008 16:10:02 23.2 C 8.11 g/m*3 23.2 C 0 km/h
1696 10-08-2008 16:22:02 24.5 C 8.06 g/m*3 24.5 C 0 km/h
1697 10-08-2008 16:34:02 24 C 7.61 g/m*3 24 C 0 km/h
1698 10-08-2008 16:46:02 23.8 C 7.74 g/m*3 23.8 C 0 km/h
1699 10-08-2008 16:58:02 24 C 7.4 g/m*3 24 C 0 km/h
1700 10-08-2008 17:10:02 23.8 C 7.74 g/m*3 23.8 C 0 km/h
Sensor: Nr:Datum:Temp:Abs-Feuchte:Windchill:Wind:
Aussen-T/F 1701 10-08-2008 17:22:02 23.9 C 7.79 g/m*3 23.9 C 0 km/h
1702 10-08-2008 17:34:01 24 C 7.4 g/m*3 24 C 0 km/h
1703 10-08-2008 17:46:02 23.8 C 7.53 g/m*3 23.8 C 0 km/h
1704 10-08-2008 17:58:02 23.7 C 7.91 g/m*3 23.7 C 0 km/h
1705 10-08-2008 18:10:02 23.5 C 7.61 g/m*3 23.5 C 0 km/h
1706 10-08-2008 18:22:01 23.7 C 7.91 g/m*3 23.7 C 0 km/h
1707 10-08-2008 18:34:03 23.9 C 7.79 g/m*3 23.9 C 0 km/h
1708 10-08-2008 18:46:03 23.6 C 7.87 g/m*3 23.6 C 0 km/h
1709 10-08-2008 18:58:03 23.3 C 8.36 g/m*3 23.3 C 0 km/h
1710 10-08-2008 19:10:02 23.3 C 8.36 g/m*3 23.3 C 0 km/h
1711 10-08-2008 19:22:03 22.9 C 8.58 g/m*3 22.9 C 0 km/h
1712 10-08-2008 19:34:02 22.5 C 8.39 g/m*3 22.5 C 0 km/h
1713 10-08-2008 19:46:02 22.2 C 8.44 g/m*3 22.2 C 0 km/h
1714 10-08-2008 19:58:02 21.9 C 9.07 g/m*3 21.9 C 0 km/h
1715 10-08-2008 20:10:02 21.7 C 8.97 g/m*3 21.7 C 0 km/h
1716 10-08-2008 20:22:02 21.3 C 9.13 g/m*3 21.3 C 0 km/h
1717 10-08-2008 20:34:02 21 C 8.98 g/m*3 21 C 0 km/h
1718 10-08-2008 20:46:02 21 C 9.16 g/m*3 21 C 0 km/h
1719 10-08-2008 20:58:02 20.8 C 9.42 g/m*3 20.8 C 0 km/h
1720 10-08-2008 21:10:03 20.6 C 9.31 g/m*3 20.6 C 0 km/h
1721 10-08-2008 21:22:02 20.6 C 9.31 g/m*3 20.6 C 0 km/h
1722 10-08-2008 21:34:03 20.4 C 9.55 g/m*3 20.4 C 0 km/h
1723 10-08-2008 21:46:02 20.2 C 9.44 g/m*3 20.2 C 0 km/h
1724 10-08-2008 21:58:03 20 C 9.51 g/m*3 20 C 0 km/h
1725 10-08-2008 22:10:01 19.6 C 9.79 g/m*3 19.6 C 0 km/h
Sensor: Nr:Datum:Temp:Abs-Feuchte:Windchill:Wind:
Aussen-T/F 1726 10-08-2008 22:23:02 19.4 C 9.84 g/m*3 19.4 C 0 km/h
1727 10-08-2008 22:35:02 19.1 C 9.84 g/m*3 19.1 C 0 km/h
1728 10-08-2008 22:47:02 19.1 C 10 g/m*3 19.1 C 0 km/h
1729 10-08-2008 22:59:02 19 C 9.78 g/m*3 19 C 0 km/h
1730 10-08-2008 23:11:02 18.8 C 9.82 g/m*3 18.8 C 0 km/h
1731 10-08-2008 23:23:02 18.7 C 9.77 g/m*3 18.7 C 0 km/h
1732 10-08-2008 23:35:03 18.5 C 9.65 g/m*3 18.5 C 0 km/h
1733 10-08-2008 23:47:03 18.4 C 9.44 g/m*3 18.4 C 0 km/h
1734 10-08-2008 23:59:03 18.3 C 9.07 g/m*3 18.3 C 0 km/h
1735 11-08-2008 00:11:03 18.1 C 9.12 g/m*3 18.1 C 0 km/h
1736 11-08-2008 00:23:03 18.1 C 9.27 g/m*3 18.1 C 0 km/h
1737 11-08-2008 00:35:03 18.1 C 9.27 g/m*3 18.1 C 0 km/h
1738 11-08-2008 00:47:03 18.1 C 9.27 g/m*3 18.1 C 0 km/h
1739 11-08-2008 00:59:03 18.2 C 9.33 g/m*3 18.2 C 0 km/h
1740 11-08-2008 01:11:03 18.4 C 9.28 g/m*3 18.4 C 0 km/h
1741 11-08-2008 01:23:03 18.6 C 9.39 g/m*3 18.6 C 0 km/h
1742 11-08-2008 01:35:03 18.7 C 9.45 g/m*3 18.7 C 0 km/h
1743 11-08-2008 01:47:03 18.5 C 9.65 g/m*3 18.5 C 0 km/h
1744 11-08-2008 01:59:03 18.3 C 9.69 g/m*3 18.3 C 0 km/h
1745 11-08-2008 02:11:03 18 C 9.68 g/m*3 18 C 0 km/h
1746 11-08-2008 02:23:03 17.6 C 9.9 g/m*3 17.6 C 0 km/h
1747 11-08-2008 02:35:03 17.3 C 10.02 g/m*3 17.3 C 0 km/h
1748 11-08-2008 02:47:03 17.4 C 10.23 g/m*3 17.4 C 0 km/h
1749 11-08-2008 02:59:03 17.5 C 10.44 g/m*3 17.5 C 0 km/h
1750 11-08-2008 03:11:03 17.5 C 10.59 g/m*3 17.5 C 0 km/h
Sensor: Nr:Datum:Temp:Abs-Feuchte:Windchill:Wind:
Aussen-T/F 1751 11-08-2008 03:23:03 17.5 C 10.59 g/m*3 17.5 C 0 km/h
1752 11-08-2008 03:35:04 17.7 C 10.56 g/m*3 17.7 C 0 km/h
1753 11-08-2008 03:47:04 17.7 C 10.56 g/m*3 17.7 C 0 km/h
1754 11-08-2008 03:59:04 17.5 C 10.44 g/m*3 17.5 C 0 km/h
1755 11-08-2008 04:11:04 17.4 C 10.37 g/m*3 17.4 C 0 km/h
1756 11-08-2008 04:23:04 17.1 C 10.19 g/m*3 17.1 C 0 km/h
1757 11-08-2008 04:35:04 16.8 C 10.15 g/m*3 16.8 C 0 km/h
1758 11-08-2008 04:47:04 16.6 C 10.03 g/m*3 16.6 C 0 km/h
1759 11-08-2008 04:59:04 16 C 9.67 g/m*3 16 C 0 km/h
1760 11-08-2008 05:11:04 15.7 C 9.63 g/m*3 15.7 C 0 km/h
1761 11-08-2008 05:23:04 15.6 C 9.71 g/m*3 15.6 C 0 km/h
1762 11-08-2008 05:35:04 15.9 C 9.62 g/m*3 15.9 C 0 km/h
1763 11-08-2008 05:47:04 15.8 C 9.69 g/m*3 15.8 C 0 km/h
1764 11-08-2008 05:59:04 15.4 C 9.59 g/m*3 15.4 C 0 km/h
1765 11-08-2008 06:11:02 15.1 C 9.68 g/m*3 15.1 C 0 km/h
1766 11-08-2008 06:23:02 14.8 C 9.88 g/m*3 14.8 C 0 km/h
1767 11-08-2008 06:35:02 15 C 10.13 g/m*3 15 C 0 km/h
1768 11-08-2008 06:47:02 15.2 C 10.12 g/m*3 15.2 C 0 km/h
1769 11-08-2008 06:59:02 15 C 10 g/m*3 15 C 0 km/h
1770 11-08-2008 07:11:02 14.9 C 10.2 g/m*3 14.9 C 0 km/h
1771 11-08-2008 07:23:02 14.9 C 10.2 g/m*3 14.9 C 0 km/h
1772 11-08-2008 07:35:02 15 C 10.26 g/m*3 15 C 0 km/h
1773 11-08-2008 07:47:02 15.4 C 10.51 g/m*3 15.4 C 0 km/h
1774 11-08-2008 07:59:02 15.6 C 10.37 g/m*3 15.6 C 0 km/h
1775 11-08-2008 08:11:01 15.5 C 10.31 g/m*3 15.5 C 0 km/h
Sensor: Nr:Datum:Temp:Abs-Feuchte:Windchill:Wind:
Aussen-T/F 1776 11-08-2008 08:23:02 15.9 C 10.56 g/m*3 15.9 C 0 km/h
1777 11-08-2008 08:35:01 16.3 C 10.41 g/m*3 16.3 C 0 km/h
1778 11-08-2008 08:47:02 16.7 C 10.37 g/m*3 16.7 C 0 km/h
1779 11-08-2008 08:59:02 17.5 C 10.14 g/m*3 17.5 C 0 km/h
1780 11-08-2008 09:11:01 18.2 C 10.41 g/m*3 18.2 C 0 km/h
1781 11-08-2008 09:23:02 19.1 C 10.16 g/m*3 19.1 C 0 km/h
1782 11-08-2008 09:35:02 19.6 C 10.13 g/m*3 19.6 C 0 km/h
1783 11-08-2008 09:47:02 20.2 C 9.97 g/m*3 20.2 C 0 km/h
1784 11-08-2008 09:59:03 20.8 C 9.78 g/m*3 20.8 C 0 km/h
1785 11-08-2008 10:11:02 20.9 C 9.47 g/m*3 20.9 C 0 km/h
1786 11-08-2008 10:23:02 21 C 9.53 g/m*3 21 C 0 km/h
1787 11-08-2008 10:35:01 21.3 C 9.51 g/m*3 21.3 C 0 km/h
1788 11-08-2008 10:47:02 21.6 C 8.72 g/m*3 21.6 C 0 km/h
1789 11-08-2008 10:59:02 21.9 C 8.1 g/m*3 21.9 C 0 km/h
1790 11-08-2008 11:11:01 22.4 C 8.14 g/m*3 22.4 C 0 km/h
1791 11-08-2008 11:23:02 22.5 C 7.99 g/m*3 22.5 C 0 km/h
1792 11-08-2008 11:35:01 22.1 C 8.2 g/m*3 22.1 C 0 km/h
1793 11-08-2008 11:47:01 22.6 C 8.84 g/m*3 22.6 C 0 km/h
1794 11-08-2008 11:59:01 22 C 8.73 g/m*3 22 C 0 km/h
1795 11-08-2008 12:11:02 22.7 C 8.49 g/m*3 22.7 C 0 km/h
1796 11-08-2008 12:23:01 23.4 C 8.41 g/m*3 23.4 C 0 km/h
1797 11-08-2008 12:35:02 23.7 C 7.91 g/m*3 23.7 C 0 km/h
1798 11-08-2008 12:47:02 24.2 C 7.26 g/m*3 24.2 C 0 km/h
1799 11-08-2008 12:59:02 24.1 C 7 g/m*3 24.1 C 0 km/h
1800 11-08-2008 13:11:03 25.2 C 7.22 g/m*3 25.2 C 0 km/h
Sensor: Nr:Datum:Temp:Abs-Feuchte:Windchill:Wind:
Aussen-T/F 1801 11-08-2008 13:23:02 25.9 C 6.78 g/m*3 25.9 C 0 km/h
1802 11-08-2008 13:35:02 26 C 6.33 g/m*3 26 C 0 km/h
1803 11-08-2008 13:47:02 25.8 C 6.5 g/m*3 25.8 C 0 km/h
1804 11-08-2008 13:59:02 26.4 C 6.22 g/m*3 26.4 C 0 km/h
1805 11-08-2008 14:11:02 26.2 C 5.91 g/m*3 26.2 C 0 km/h
1806 11-08-2008 14:23:02 26.5 C 6.26 g/m*3 26.5 C 0 km/h
1807 11-08-2008 14:35:02 27.1 C 6.47 g/m*3 27.1 C 0 km/h
1808 11-08-2008 14:47:01 27.2 C 6.25 g/m*3 27.2 C 0 km/h
1809 11-08-2008 14:59:01 27 C 5.66 g/m*3 27 C 0 km/h
1810 11-08-2008 15:11:02 27.8 C 6.72 g/m*3 27.8 C 0 km/h
1811 11-08-2008 15:23:01 27.4 C 5.26 g/m*3 27.4 C 0 km/h
1812 11-08-2008 15:35:02 26.7 C 5.32 g/m*3 26.7 C 0 km/h
1813 11-08-2008 15:47:02 26.7 C 5.82 g/m*3 26.7 C 0 km/h
1814 11-08-2008 15:59:02 26.8 C 5.85 g/m*3 26.8 C 0 km/h
1815 11-08-2008 16:11:01 26.8 C 5.85 g/m*3 26.8 C 0 km/h
1816 11-08-2008 16:23:02 26.2 C 5.91 g/m*3 26.2 C 0 km/h
1817 11-08-2008 16:35:02 26.2 C 6.15 g/m*3 26.2 C 0 km/h
1818 11-08-2008 16:47:02 25.7 C 6.46 g/m*3 25.7 C 0 km/h
1819 11-08-2008 16:59:02 25 C 6.22 g/m*3 25 C 0 km/h
1820 11-08-2008 17:11:01 25 C 6.22 g/m*3 25 C 0 km/h
1821 11-08-2008 17:23:02 24.5 C 6.49 g/m*3 24.5 C 0 km/h
1822 11-08-2008 17:35:01 24.3 C 6.86 g/m*3 24.3 C 0 km/h
1823 11-08-2008 17:47:02 23.9 C 6.71 g/m*3 23.9 C 0 km/h
1824 11-08-2008 17:59:03 23.9 C 6.49 g/m*3 23.9 C 0 km/h
1825 11-08-2008 18:11:02 23.9 C 6.92 g/m*3 23.9 C 0 km/h
Sensor: Nr:Datum:Temp:Abs-Feuchte:Windchill:Wind:
Aussen-T/F 1826 11-08-2008 18:23:02 22.9 C 7.97 g/m*3 22.9 C 0 km/h
1827 11-08-2008 18:35:02 23.3 C 7.95 g/m*3 23.3 C 0 km/h
1828 11-08-2008 18:47:02 23.2 C 8.11 g/m*3 23.2 C 0 km/h
1829 11-08-2008 18:59:02 22.6 C 8.64 g/m*3 22.6 C 0 km/h
1830 11-08-2008 19:11:02 22.7 C 8.28 g/m*3 22.7 C 0 km/h
1831 11-08-2008 19:23:02 22.9 C 8.79 g/m*3 22.9 C 0 km/h
1832 11-08-2008 19:35:01 22.9 C 8.79 g/m*3 22.9 C 0 km/h
1833 11-08-2008 19:47:02 22.5 C 9.19 g/m*3 22.5 C 0 km/h
1834 11-08-2008 19:59:02 22.1 C 8.98 g/m*3 22.1 C 0 km/h
1835 11-08-2008 20:11:02 21.9 C 9.46 g/m*3 21.9 C 0 km/h
1836 11-08-2008 20:23:01 21.5 C 9.43 g/m*3 21.5 C 0 km/h
1837 11-08-2008 20:35:02 21.2 C 9.45 g/m*3 21.2 C 0 km/h
1838 11-08-2008 20:47:02 21.1 C 9.4 g/m*3 21.1 C 0 km/h
1839 11-08-2008 20:59:02 20.6 C 9.84 g/m*3 20.6 C 0 km/h
1840 11-08-2008 21:11:02 20.1 C 9.91 g/m*3 20.1 C 0 km/h
1841 11-08-2008 21:23:02 19.9 C 10.31 g/m*3 19.9 C 0 km/h
1842 11-08-2008 21:35:02 19.7 C 10.19 g/m*3 19.7 C 0 km/h
1843 11-08-2008 21:47:02 19.9 C 10.14 g/m*3 19.9 C 0 km/h
1844 11-08-2008 21:59:02 20.1 C 10.08 g/m*3 20.1 C 0 km/h
1845 11-08-2008 22:11:03 19.8 C 10.25 g/m*3 19.8 C 0 km/h
1846 11-08-2008 22:24:33 19.9 C 10.65 g/m*3 19.9 C 0 km/h
1847 11-08-2008 22:36:33 20 C 10.71 g/m*3 20 C 0 km/h
1848 11-08-2008 22:48:33 20 C 10.89 g/m*3 20 C 0 km/h
1849 11-08-2008 23:00:33 19.8 C 10.93 g/m*3 19.8 C 0 km/h
1850 11-08-2008 23:12:33 19.9 C 11.17 g/m*3 19.9 C 0 km/h
Sensor: Nr:Datum:Temp:Abs-Feuchte:Windchill:Wind:
Aussen-T/F 1851 11-08-2008 23:24:34 19.7 C 11.04 g/m*3 19.7 C 0 km/h
1852 11-08-2008 23:36:34 19.5 C 11.24 g/m*3 19.5 C 0 km/h
1853 11-08-2008 23:48:34 19.1 C 11.64 g/m*3 19.1 C 0 km/h
1854 12-08-2008 00:00:34 18.6 C 11.78 g/m*3 18.6 C 0 km/h
1855 12-08-2008 00:12:34 18.3 C 11.88 g/m*3 18.3 C 0 km/h
1856 12-08-2008 00:24:34 18.2 C 12.12 g/m*3 18.2 C 0 km/h
1857 12-08-2008 00:36:34 17.9 C 12.37 g/m*3 17.9 C 0 km/h
1858 12-08-2008 00:48:34 17.7 C 12.52 g/m*3 17.7 C 0 km/h
1859 12-08-2008 01:00:34 17.3 C 12.37 g/m*3 17.3 C 0 km/h
1860 12-08-2008 01:12:34 17 C 12.3 g/m*3 17 C 0 km/h
1861 12-08-2008 01:24:34 17.2 C 12.59 g/m*3 17.2 C 0 km/h
1862 12-08-2008 01:36:34 17.5 C 12.82 g/m*3 17.5 C 0 km/h
1863 12-08-2008 01:48:34 17.2 C 12.59 g/m*3 17.2 C 0 km/h
1864 12-08-2008 02:00:34 17.1 C 12.66 g/m*3 17.1 C 0 km/h
1865 12-08-2008 02:12:34 17 C 12.59 g/m*3 17 C 0 km/h
1866 12-08-2008 02:24:34 16.8 C 12.58 g/m*3 16.8 C 0 km/h
1867 12-08-2008 02:36:34 16.8 C 12.72 g/m*3 16.8 C 0 km/h
1868 12-08-2008 02:48:34 16.6 C 12.57 g/m*3 16.6 C 0 km/h
1869 12-08-2008 03:00:34 16.7 C 12.65 g/m*3 16.7 C 0 km/h
1870 12-08-2008 03:12:34 16.8 C 12.72 g/m*3 16.8 C 0 km/h
1871 12-08-2008 03:24:34 16.9 C 12.8 g/m*3 16.9 C 0 km/h
1872 12-08-2008 03:36:35 16.8 C 12.58 g/m*3 16.8 C 0 km/h
1873 12-08-2008 03:48:35 16.4 C 12.28 g/m*3 16.4 C 0 km/h
1874 12-08-2008 04:00:35 16.2 C 12.14 g/m*3 16.2 C 0 km/h
1875 12-08-2008 04:12:35 16 C 11.85 g/m*3 16 C 0 km/h
Sensor: Nr:Datum:Temp:Abs-Feuchte:Windchill:Wind:
Aussen-T/F 1876 12-08-2008 04:24:35 15.8 C 11.85 g/m*3 15.8 C 0 km/h
1877 12-08-2008 04:36:35 16 C 11.99 g/m*3 16 C 0 km/h
1878 12-08-2008 04:48:35 15.8 C 11.98 g/m*3 15.8 C 0 km/h
1879 12-08-2008 05:00:35 16 C 11.99 g/m*3 16 C 0 km/h
1880 12-08-2008 05:12:35 16.3 C 12.21 g/m*3 16.3 C 0 km/h
1881 12-08-2008 05:24:35 16.2 C 12.14 g/m*3 16.2 C 0 km/h
1882 12-08-2008 05:36:35 16.2 C 12 g/m*3 16.2 C 0 km/h
1883 12-08-2008 05:48:35 16.2 C 12 g/m*3 16.2 C 0 km/h
1884 12-08-2008 06:00:35 16.1 C 11.93 g/m*3 16.1 C 0 km/h
1885 12-08-2008 06:12:35 16 C 11.85 g/m*3 16 C 0 km/h
1886 12-08-2008 06:24:35 16 C 11.85 g/m*3 16 C 0 km/h
1887 12-08-2008 06:36:35 16.1 C 12.06 g/m*3 16.1 C 0 km/h
1888 12-08-2008 06:48:35 16 C 11.85 g/m*3 16 C 0 km/h
1889 12-08-2008 07:00:35 16.1 C 12.06 g/m*3 16.1 C 0 km/h
1890 12-08-2008 07:12:04 16.1 C 12.06 g/m*3 16.1 C 0 km/h
1891 12-08-2008 07:24:03 16.1 C 12.06 g/m*3 16.1 C 0 km/h
1892 12-08-2008 07:36:03 16.2 C 12.14 g/m*3 16.2 C 0 km/h
1893 12-08-2008 07:48:02 16.2 C 12.27 g/m*3 16.2 C 0 km/h
1894 12-08-2008 08:00:02 16.2 C 12.27 g/m*3 16.2 C 0 km/h
1895 12-08-2008 08:12:02 16.6 C 12.71 g/m*3 16.6 C 0 km/h
1896 12-08-2008 08:24:02 16.8 C 12.87 g/m*3 16.8 C 0 km/h
1897 12-08-2008 08:36:02 16.8 C 12.72 g/m*3 16.8 C 0 km/h
1898 12-08-2008 08:48:02 16.9 C 12.8 g/m*3 16.9 C 0 km/h
1899 12-08-2008 09:00:02 16.6 C 12.57 g/m*3 16.6 C 0 km/h
1900 12-08-2008 09:12:02 16.6 C 12.71 g/m*3 16.6 C 0 km/h
Sensor: Nr:Datum:Temp:Abs-Feuchte:Windchill:Wind:
Aussen-T/F 1901 12-08-2008 09:24:02 16.9 C 12.94 g/m*3 16.9 C 0 km/h
1902 12-08-2008 09:36:03 17 C 12.88 g/m*3 17 C 0 km/h
1903 12-08-2008 09:48:02 17.2 C 13.03 g/m*3 17.2 C 0 km/h
1904 12-08-2008 10:00:02 17.2 C 13.03 g/m*3 17.2 C 0 km/h
1905 12-08-2008 10:12:02 17.3 C 12.96 g/m*3 17.3 C 0 km/h
1906 12-08-2008 10:24:02 17.4 C 13.04 g/m*3 17.4 C 0 km/h
1907 12-08-2008 10:36:02 17.6 C 13.2 g/m*3 17.6 C 0 km/h
1908 12-08-2008 10:48:02 17.6 C 13.35 g/m*3 17.6 C 0 km/h
1909 12-08-2008 11:00:02 17.9 C 13.59 g/m*3 17.9 C 0 km/h
1910 12-08-2008 11:12:02 18 C 13.52 g/m*3 18 C 0 km/h
1911 12-08-2008 11:24:02 18.2 C 13.68 g/m*3 18.2 C 0 km/h
1912 12-08-2008 11:36:02 18.4 C 13.84 g/m*3 18.4 C 0 km/h
1913 12-08-2008 11:48:02 18.9 C 14.26 g/m*3 18.9 C 0 km/h
1914 12-08-2008 12:00:02 19.5 C 14.27 g/m*3 19.5 C 0 km/h
1915 12-08-2008 12:12:01 19.7 C 14.09 g/m*3 19.7 C 0 km/h
1916 12-08-2008 12:24:02 20.5 C 14.41 g/m*3 20.5 C 0 km/h
1917 12-08-2008 12:36:01 21.1 C 14.19 g/m*3 21.1 C 0 km/h
1918 12-08-2008 12:48:01 21.9 C 14.09 g/m*3 21.9 C 0 km/h
1919 12-08-2008 13:00:01 22.4 C 13.7 g/m*3 22.4 C 0 km/h
1920 12-08-2008 13:12:02 22.1 C 13.27 g/m*3 22.1 C 0 km/h
1921 12-08-2008 13:24:01 22.4 C 13.31 g/m*3 22.4 C 0 km/h
1922 12-08-2008 13:36:02 21.8 C 13.24 g/m*3 21.8 C 0 km/h
1923 12-08-2008 13:48:02 21.3 C 13.42 g/m*3 21.3 C 0 km/h
1924 12-08-2008 14:00:02 20.7 C 13.68 g/m*3 20.7 C 0 km/h
1925 12-08-2008 14:12:02 21.2 C 13.9 g/m*3 21.2 C 0 km/h
Sensor: Nr:Datum:Temp:Abs-Feuchte:Windchill:Wind:
Aussen-T/F 1926 12-08-2008 14:24:02 22.2 C 13.55 g/m*3 22.2 C 0 km/h
1927 12-08-2008 14:36:02 23.4 C 13.46 g/m*3 23.4 C 0 km/h
1928 12-08-2008 14:48:02 23.5 C 13.11 g/m*3 23.5 C 0 km/h
1929 12-08-2008 15:00:02 22.8 C 12.4 g/m*3 22.8 C 0 km/h
1930 12-08-2008 15:12:02 22.9 C 12.47 g/m*3 22.9 C 0 km/h
1931 12-08-2008 15:24:02 22.2 C 12.17 g/m*3 22.2 C 0 km/h
1932 12-08-2008 15:36:03 21.4 C 12.75 g/m*3 21.4 C 0 km/h
1933 12-08-2008 15:48:02 20.6 C 13.07 g/m*3 20.6 C 0 km/h
1934 12-08-2008 16:00:02 19.7 C 13.92 g/m*3 19.7 C 0 km/h
1935 12-08-2008 16:12:03 19.9 C 14.43 g/m*3 19.9 C 0 km/h
1936 12-08-2008 16:24:02 20.9 C 14.93 g/m*3 20.9 C 0 km/h
1937 12-08-2008 16:36:03 21.5 C 14.9 g/m*3 21.5 C 0 km/h
1938 12-08-2008 16:48:02 21.2 C 12.97 g/m*3 21.2 C 0 km/h
1939 12-08-2008 17:00:02 21.6 C 12.52 g/m*3 21.6 C 0 km/h
1940 12-08-2008 17:12:02 21.5 C 12.45 g/m*3 21.5 C 0 km/h
1941 12-08-2008 17:24:02 21.5 C 12.07 g/m*3 21.5 C 0 km/h
1942 12-08-2008 17:36:02 21.3 C 12.86 g/m*3 21.3 C 0 km/h
1943 12-08-2008 17:48:02 21.4 C 12.37 g/m*3 21.4 C 0 km/h
1944 12-08-2008 18:00:02 21.4 C 12 g/m*3 21.4 C 0 km/h
1945 12-08-2008 18:12:02 21.3 C 11.93 g/m*3 21.3 C 0 km/h
1946 12-08-2008 18:24:02 21.5 C 12.26 g/m*3 21.5 C 0 km/h
1947 12-08-2008 18:36:03 21.9 C 12.16 g/m*3 21.9 C 0 km/h
1948 12-08-2008 18:48:02 21.8 C 11.32 g/m*3 21.8 C 0 km/h
1949 12-08-2008 19:00:02 21.9 C 11.39 g/m*3 21.9 C 0 km/h
1950 12-08-2008 19:12:02 22.3 C 11.65 g/m*3 22.3 C 0 km/h
Sensor: Nr:Datum:Temp:Abs-Feuchte:Windchill:Wind:
Aussen-T/F 1951 12-08-2008 19:24:02 22.6 C 11.05 g/m*3 22.6 C 0 km/h
1952 12-08-2008 19:36:02 22.5 C 10.79 g/m*3 22.5 C 0 km/h
1953 12-08-2008 19:48:02 22.6 C 10.65 g/m*3 22.6 C 0 km/h
1954 12-08-2008 20:00:02 22.5 C 10.39 g/m*3 22.5 C 0 km/h
1955 12-08-2008 20:12:01 22.8 C 10.36 g/m*3 22.8 C 0 km/h
1956 12-08-2008 20:24:02 22.5 C 10.39 g/m*3 22.5 C 0 km/h
1957 12-08-2008 20:36:01 21.8 C 10.55 g/m*3 21.8 C 0 km/h
1958 12-08-2008 20:48:01 21.2 C 10.56 g/m*3 21.2 C 0 km/h
1959 12-08-2008 21:00:01 20.7 C 10.62 g/m*3 20.7 C 0 km/h
1960 12-08-2008 21:12:02 20.2 C 10.84 g/m*3 20.2 C 0 km/h
1961 12-08-2008 21:24:02 20 C 11.06 g/m*3 20 C 0 km/h
1962 12-08-2008 21:36:02 19.7 C 11.38 g/m*3 19.7 C 0 km/h
1963 12-08-2008 21:48:03 19.4 C 11.68 g/m*3 19.4 C 0 km/h
1964 12-08-2008 22:00:03 19.1 C 11.8 g/m*3 19.1 C 0 km/h
1965 12-08-2008 22:12:02 19 C 11.57 g/m*3 19 C 0 km/h
1966 12-08-2008 22:24:02 18.9 C 11.83 g/m*3 18.9 C 0 km/h
1967 12-08-2008 22:36:02 18.6 C 11.62 g/m*3 18.6 C 0 km/h
1968 12-08-2008 22:48:02 18.4 C 11.48 g/m*3 18.4 C 0 km/h
1969 12-08-2008 23:00:03 18.6 C 11.46 g/m*3 18.6 C 0 km/h
1970 12-08-2008 23:12:02 18.9 C 11.18 g/m*3 18.9 C 0 km/h
1971 12-08-2008 23:25:03 19.3 C 11.11 g/m*3 19.3 C 0 km/h
1972 12-08-2008 23:37:03 16.6 C 9.89 g/m*3 16.6 C 0 km/h
1973 12-08-2008 23:49:03 15.6 C 9.97 g/m*3 15.6 C 0 km/h
1974 13-08-2008 00:01:03 15.2 C 9.99 g/m*3 15.2 C 0 km/h
1975 13-08-2008 00:13:03 15 C 10.26 g/m*3 15 C 0 km/h
Sensor: Nr:Datum:Temp:Abs-Feuchte:Windchill:Wind:
Aussen-T/F 1976 13-08-2008 00:25:03 14.7 C 10.2 g/m*3 14.7 C 0 km/h
1977 13-08-2008 00:37:03 14.4 C 10.14 g/m*3 14.4 C 0 km/h
1978 13-08-2008 00:49:04 14.2 C 10.14 g/m*3 14.2 C 0 km/h
1979 13-08-2008 01:01:04 14.2 C 10.26 g/m*3 14.2 C 0 km/h
1980 13-08-2008 01:13:04 14.3 C 10.44 g/m*3 14.3 C 0 km/h
1981 13-08-2008 01:25:04 14.3 C 10.57 g/m*3 14.3 C 0 km/h
1982 13-08-2008 01:37:04 14.3 C 10.57 g/m*3 14.3 C 0 km/h
1983 13-08-2008 01:49:04 14.6 C 10.76 g/m*3 14.6 C 0 km/h
1984 13-08-2008 02:01:04 14.6 C 10.76 g/m*3 14.6 C 0 km/h
1985 13-08-2008 02:13:04 14.7 C 10.83 g/m*3 14.7 C 0 km/h
1986 13-08-2008 02:25:04 14.5 C 10.7 g/m*3 14.5 C 0 km/h
1987 13-08-2008 02:37:04 14.3 C 10.57 g/m*3 14.3 C 0 km/h
1988 13-08-2008 02:49:04 14.2 C 10.5 g/m*3 14.2 C 0 km/h
1989 13-08-2008 03:01:04 14.2 C 10.62 g/m*3 14.2 C 0 km/h
1990 13-08-2008 03:13:04 14.3 C 10.81 g/m*3 14.3 C 0 km/h
1991 13-08-2008 03:25:04 14.3 C 10.81 g/m*3 14.3 C 0 km/h
1992 13-08-2008 03:37:04 14.3 C 10.69 g/m*3 14.3 C 0 km/h
1993 13-08-2008 03:49:04 14.2 C 10.62 g/m*3 14.2 C 0 km/h
1994 13-08-2008 04:01:04 14.1 C 10.56 g/m*3 14.1 C 0 km/h
1995 13-08-2008 04:13:04 14.4 C 10.38 g/m*3 14.4 C 0 km/h
1996 13-08-2008 04:25:04 14.7 C 10.07 g/m*3 14.7 C 0 km/h
1997 13-08-2008 04:37:04 15 C 9.49 g/m*3 15 C 0 km/h
1998 13-08-2008 04:49:05 15.4 C 9.2 g/m*3 15.4 C 0 km/h
1999 13-08-2008 05:01:05 15.2 C 9.09 g/m*3 15.2 C 0 km/h
2000 13-08-2008 05:13:05 15.4 C 8.93 g/m*3 15.4 C 0 km/h
Sensor: Nr:Datum:Temp:Abs-Feuchte:Windchill:Wind:
Aussen-T/F 2001 13-08-2008 05:25:05 15.4 C 8.93 g/m*3 15.4 C 0 km/h
2002 13-08-2008 05:37:05 15.6 C 8.78 g/m*3 15.6 C 0 km/h
2003 13-08-2008 05:49:05 15.8 C 8.62 g/m*3 15.8 C 0 km/h
2004 13-08-2008 06:01:05 15.8 C 8.62 g/m*3 15.8 C 0 km/h
2005 13-08-2008 06:13:05 15.9 C 8.53 g/m*3 15.9 C 0 km/h
2006 13-08-2008 06:25:05 15.9 C 8.53 g/m*3 15.9 C 0 km/h
2007 13-08-2008 06:37:03 15.9 C 8.53 g/m*3 15.9 C 0 km/h
2008 13-08-2008 06:49:02 15.7 C 8.43 g/m*3 15.7 C 0 km/h
2009 13-08-2008 07:01:02 15.8 C 8.48 g/m*3 15.8 C 0 km/h
2010 13-08-2008 07:13:02 15.9 C 8.53 g/m*3 15.9 C 0 km/h
2011 13-08-2008 07:25:03 15.9 C 8.53 g/m*3 15.9 C 0 km/h
2012 13-08-2008 07:37:02 16.4 C 8.51 g/m*3 16.4 C 0 km/h
2013 13-08-2008 07:49:02 16.6 C 8.33 g/m*3 16.6 C 0 km/h
2014 13-08-2008 08:01:02 16.5 C 8.43 g/m*3 16.5 C 0 km/h
2015 13-08-2008 08:13:02 16.6 C 8.33 g/m*3 16.6 C 0 km/h
2016 13-08-2008 08:25:02 16.8 C 8.44 g/m*3 16.8 C 0 km/h
2017 13-08-2008 08:37:02 16.9 C 8.2 g/m*3 16.9 C 0 km/h
2018 13-08-2008 08:49:01 16.8 C 8.15 g/m*3 16.8 C 0 km/h
2019 13-08-2008 09:01:02 17.1 C 8.01 g/m*3 17.1 C 0 km/h
2020 13-08-2008 09:13:02 17.4 C 8.15 g/m*3 17.4 C 0 km/h
2021 13-08-2008 09:25:02 17.7 C 8 g/m*3 17.7 C 0 km/h
2022 13-08-2008 09:37:02 17.6 C 8.1 g/m*3 17.6 C 0 km/h
2023 13-08-2008 09:49:02 17.6 C 7.95 g/m*3 17.6 C 0 km/h
2024 13-08-2008 10:01:02 18.1 C 7.88 g/m*3 18.1 C 0 km/h
2025 13-08-2008 10:13:03 18.3 C 7.82 g/m*3 18.3 C 0 km/h
Sensor: Nr:Datum:Temp:Abs-Feuchte:Windchill:Wind:
Aussen-T/F 2026 13-08-2008 10:25:02 18.3 C 7.97 g/m*3 18.3 C 0 km/h
2027 13-08-2008 10:37:02 18.5 C 7.91 g/m*3 18.5 C 0 km/h
2028 13-08-2008 10:49:02 17 C 8.54 g/m*3 17 C 0 km/h
2029 13-08-2008 11:01:03 17.2 C 9.08 g/m*3 17.2 C 0 km/h
2030 13-08-2008 11:13:03 18.1 C 9.12 g/m*3 18.1 C 0 km/h
2031 13-08-2008 11:25:02 18.3 C 8.6 g/m*3 18.3 C 0 km/h
2032 13-08-2008 11:37:03 19.3 C 8.46 g/m*3 19.3 C 0 km/h
2033 13-08-2008 11:49:02 19.7 C 8.15 g/m*3 19.7 C 0 km/h
2034 13-08-2008 12:01:02 20 C 8.12 g/m*3 20 C 0 km/h
2035 13-08-2008 12:13:02 20 C 7.78 g/m*3 20 C 0 km/h
2036 13-08-2008 12:25:02 19.7 C 7.47 g/m*3 19.7 C 0 km/h
2037 13-08-2008 12:37:02 20.7 C 7.74 g/m*3 20.7 C 0 km/h
2038 13-08-2008 12:49:03 21.3 C 7.46 g/m*3 21.3 C 0 km/h
2039 13-08-2008 13:01:02 20.8 C 7.24 g/m*3 20.8 C 0 km/h
2040 13-08-2008 13:13:02 21.2 C 7.41 g/m*3 21.2 C 0 km/h
2041 13-08-2008 13:25:02 21.4 C 7.5 g/m*3 21.4 C 0 km/h
2042 13-08-2008 13:37:02 21.2 C 7.41 g/m*3 21.2 C 0 km/h
2043 13-08-2008 13:49:02 21.2 C 7.41 g/m*3 21.2 C 0 km/h
2044 13-08-2008 14:01:02 21.6 C 7.59 g/m*3 21.6 C 0 km/h
2045 13-08-2008 14:13:02 21.7 C 7.82 g/m*3 21.7 C 0 km/h
2046 13-08-2008 14:25:02 22.5 C 7.59 g/m*3 22.5 C 0 km/h
2047 13-08-2008 14:37:02 22 C 7.38 g/m*3 22 C 0 km/h
2048 13-08-2008 14:49:02 21.6 C 7.59 g/m*3 21.6 C 0 km/h
2049 13-08-2008 15:01:02 19.1 C 6.56 g/m*3 19.1 C 0 km/h
2050 13-08-2008 15:13:02 19.1 C 10.98 g/m*3 19.1 C 0 km/h
Sensor: Nr:Datum:Temp:Abs-Feuchte:Windchill:Wind:
Aussen-T/F 2051 13-08-2008 15:25:02 20.5 C 10.32 g/m*3 20.5 C 0 km/h
2052 13-08-2008 15:37:02 20.4 C 9.38 g/m*3 20.4 C 0 km/h
2053 13-08-2008 15:49:02 22.2 C 8.83 g/m*3 22.2 C 0 km/h
2054 13-08-2008 16:01:02 22.6 C 8.24 g/m*3 22.6 C 0 km/h
2055 13-08-2008 16:13:02 23.6 C 7.87 g/m*3 23.6 C 0 km/h
2056 13-08-2008 16:25:02 23.5 C 6.98 g/m*3 23.5 C 0 km/h
2057 13-08-2008 16:37:02 23.8 C 6.88 g/m*3 23.8 C 0 km/h
2058 13-08-2008 16:49:02 24.3 C 6.86 g/m*3 24.3 C 0 km/h
2059 13-08-2008 17:01:02 24.1 C 6.35 g/m*3 24.1 C 0 km/h
2060 13-08-2008 17:13:02 23.5 C 6.56 g/m*3 23.5 C 0 km/h
2061 13-08-2008 17:25:02 24.3 C 6.64 g/m*3 24.3 C 0 km/h
2062 13-08-2008 17:37:02 23.8 C 6.45 g/m*3 23.8 C 0 km/h
2063 13-08-2008 17:49:02 23.4 C 6.52 g/m*3 23.4 C 0 km/h
2064 13-08-2008 18:01:02 23.3 C 6.48 g/m*3 23.3 C 0 km/h
2065 13-08-2008 18:13:02 23.6 C 6.59 g/m*3 23.6 C 0 km/h
2066 13-08-2008 18:25:02 23.5 C 6.56 g/m*3 23.5 C 0 km/h
2067 13-08-2008 18:37:02 22.6 C 6.63 g/m*3 22.6 C 0 km/h
2068 13-08-2008 18:49:02 22 C 6.79 g/m*3 22 C 0 km/h
2069 13-08-2008 19:01:02 21.6 C 7.59 g/m*3 21.6 C 0 km/h
2070 13-08-2008 19:13:02 21.7 C 7.25 g/m*3 21.7 C 0 km/h
2071 13-08-2008 19:25:02 21.6 C 6.83 g/m*3 21.6 C 0 km/h
2072 13-08-2008 19:37:02 21.3 C 6.9 g/m*3 21.3 C 0 km/h
2073 13-08-2008 19:49:01 21.2 C 7.04 g/m*3 21.2 C 0 km/h
2074 13-08-2008 20:01:02 19.4 C 8.01 g/m*3 19.4 C 0 km/h
2075 13-08-2008 20:13:02 19.5 C 8.39 g/m*3 19.5 C 0 km/h
Sensor: Nr:Datum:Temp:Abs-Feuchte:Windchill:Wind:
Aussen-T/F 2076 13-08-2008 20:25:01 19.5 C 8.56 g/m*3 19.5 C 0 km/h
2077 13-08-2008 20:37:02 19.6 C 8.44 g/m*3 19.6 C 0 km/h
2078 13-08-2008 20:49:02 19.5 C 8.39 g/m*3 19.5 C 0 km/h
2079 13-08-2008 21:01:02 19.7 C 6.96 g/m*3 19.7 C 0 km/h
2080 13-08-2008 21:13:02 19.8 C 6.83 g/m*3 19.8 C 0 km/h
2081 13-08-2008 21:25:02 19.5 C 6.88 g/m*3 19.5 C 0 km/h
2082 13-08-2008 21:37:03 18.8 C 7.41 g/m*3 18.8 C 0 km/h
2083 13-08-2008 21:50:04 18.7 C 7.52 g/m*3 18.7 C 0 km/h
2084 13-08-2008 22:02:04 18.3 C 7.66 g/m*3 18.3 C 0 km/h
2085 13-08-2008 22:14:04 18.3 C 7.66 g/m*3 18.3 C 0 km/h
2086 13-08-2008 22:26:04 18.4 C 7.55 g/m*3 18.4 C 0 km/h
2087 13-08-2008 22:38:04 18 C 7.68 g/m*3 18 C 0 km/h
2088 13-08-2008 22:50:04 17.8 C 7.89 g/m*3 17.8 C 0 km/h
2089 13-08-2008 23:02:04 17.8 C 7.74 g/m*3 17.8 C 0 km/h
2090 13-08-2008 23:14:04 17.4 C 7.85 g/m*3 17.4 C 0 km/h
2091 13-08-2008 23:26:04 17.3 C 7.96 g/m*3 17.3 C 0 km/h
2092 13-08-2008 23:38:04 17.1 C 8.01 g/m*3 17.1 C 0 km/h
2093 13-08-2008 23:50:04 17 C 8.25 g/m*3 17 C 0 km/h
2094 14-08-2008 00:02:04 17.1 C 8.3 g/m*3 17.1 C 0 km/h
2095 14-08-2008 00:14:04 16.8 C 8.29 g/m*3 16.8 C 0 km/h
2096 14-08-2008 00:26:04 16.4 C 8.23 g/m*3 16.4 C 0 km/h
2097 14-08-2008 00:38:04 16.2 C 8.27 g/m*3 16.2 C 0 km/h
2098 14-08-2008 00:50:04 16.4 C 8.51 g/m*3 16.4 C 0 km/h
2099 14-08-2008 01:02:04 16.4 C 8.51 g/m*3 16.4 C 0 km/h
2100 14-08-2008 01:14:04 16.4 C 8.65 g/m*3 16.4 C 0 km/h
Sensor: Nr:Datum:Temp:Abs-Feuchte:Windchill:Wind:
Aussen-T/F 2101 14-08-2008 01:26:05 16.1 C 8.5 g/m*3 16.1 C 0 km/h
2102 14-08-2008 01:38:05 15.9 C 8.67 g/m*3 15.9 C 0 km/h
2103 14-08-2008 01:50:05 15.8 C 8.62 g/m*3 15.8 C 0 km/h
2104 14-08-2008 02:02:05 16 C 8.58 g/m*3 16 C 0 km/h
2105 14-08-2008 02:14:05 16 C 8.58 g/m*3 16 C 0 km/h
2106 14-08-2008 02:26:05 15.8 C 8.62 g/m*3 15.8 C 0 km/h
2107 14-08-2008 02:38:05 15.4 C 8.67 g/m*3 15.4 C 0 km/h
2108 14-08-2008 02:50:05 15.3 C 8.88 g/m*3 15.3 C 0 km/h
2109 14-08-2008 03:02:05 15.1 C 8.77 g/m*3 15.1 C 0 km/h
2110 14-08-2008 03:14:05 15 C 8.85 g/m*3 15 C 0 km/h
2111 14-08-2008 03:26:05 14.9 C 8.92 g/m*3 14.9 C 0 km/h
2112 14-08-2008 03:38:05 14.8 C 8.99 g/m*3 14.8 C 0 km/h
2113 14-08-2008 03:50:05 14.7 C 8.94 g/m*3 14.7 C 0 km/h
2114 14-08-2008 04:02:05 14.5 C 8.95 g/m*3 14.5 C 0 km/h
2115 14-08-2008 04:14:05 14.5 C 9.08 g/m*3 14.5 C 0 km/h
2116 14-08-2008 04:26:05 14.3 C 8.97 g/m*3 14.3 C 0 km/h
2117 14-08-2008 04:38:05 14.1 C 8.98 g/m*3 14.1 C 0 km/h
2118 14-08-2008 04:50:05 13.9 C 8.99 g/m*3 13.9 C 0 km/h
2119 14-08-2008 05:02:05 13.9 C 9.11 g/m*3 13.9 C 0 km/h
2120 14-08-2008 05:14:05 13.8 C 9.17 g/m*3 13.8 C 0 km/h
2121 14-08-2008 05:26:05 13.6 C 9.06 g/m*3 13.6 C 0 km/h
2122 14-08-2008 05:38:06 13.6 C 9.06 g/m*3 13.6 C 0 km/h
2123 14-08-2008 05:50:06 13.5 C 9.12 g/m*3 13.5 C 0 km/h
2124 14-08-2008 06:02:06 13.6 C 9.06 g/m*3 13.6 C 0 km/h
2125 14-08-2008 06:14:06 13.6 C 9.06 g/m*3 13.6 C 0 km/h
Sensor: Nr:Datum:Temp:Abs-Feuchte:Windchill:Wind:
Aussen-T/F 2126 14-08-2008 06:26:03 13.7 C 9.12 g/m*3 13.7 C 0 km/h
2127 14-08-2008 06:38:04 13.7 C 9.12 g/m*3 13.7 C 0 km/h
2128 14-08-2008 06:50:02 13.7 C 9.12 g/m*3 13.7 C 0 km/h
2129 14-08-2008 07:02:02 13.8 C 9.06 g/m*3 13.8 C 0 km/h
2130 14-08-2008 07:14:02 13.8 C 9.06 g/m*3 13.8 C 0 km/h
2131 14-08-2008 07:26:02 13.8 C 9.06 g/m*3 13.8 C 0 km/h
2132 14-08-2008 07:38:01 14 C 9.05 g/m*3 14 C 0 km/h
2133 14-08-2008 07:50:02 14.1 C 9.1 g/m*3 14.1 C 0 km/h
2134 14-08-2008 08:02:01 14.3 C 8.97 g/m*3 14.3 C 0 km/h
2135 14-08-2008 08:14:01 14.5 C 9.08 g/m*3 14.5 C 0 km/h
2136 14-08-2008 08:26:02 14.6 C 9.13 g/m*3 14.6 C 0 km/h
2137 14-08-2008 08:38:01 14.9 C 9.05 g/m*3 14.9 C 0 km/h
2138 14-08-2008 08:50:02 15.4 C 8.41 g/m*3 15.4 C 0 km/h
2139 14-08-2008 09:02:01 15.8 C 8.21 g/m*3 15.8 C 0 km/h
2140 14-08-2008 09:14:01 16.1 C 7.95 g/m*3 16.1 C 0 km/h
2141 14-08-2008 09:26:02 16.4 C 7.82 g/m*3 16.4 C 0 km/h
2142 14-08-2008 09:38:02 16.8 C 7.15 g/m*3 16.8 C 0 km/h
2143 14-08-2008 09:50:02 17.1 C 7.13 g/m*3 17.1 C 0 km/h
2144 14-08-2008 10:02:02 17.4 C 7.11 g/m*3 17.4 C 0 km/h
2145 14-08-2008 10:14:02 17.8 C 7.13 g/m*3 17.8 C 0 km/h
2146 14-08-2008 10:26:01 18.1 C 7.11 g/m*3 18.1 C 0 km/h
2147 14-08-2008 10:38:02 18.3 C 6.88 g/m*3 18.3 C 0 km/h
2148 14-08-2008 10:50:02 18.8 C 7.09 g/m*3 18.8 C 0 km/h
2149 14-08-2008 11:02:02 19.1 C 7.05 g/m*3 19.1 C 0 km/h
2150 14-08-2008 11:14:02 19.5 C 7.05 g/m*3 19.5 C 0 km/h
Sensor: Nr:Datum:Temp:Abs-Feuchte:Windchill:Wind:
Aussen-T/F 2151 14-08-2008 11:26:02 19.8 C 7 g/m*3 19.8 C 0 km/h
2152 14-08-2008 11:38:02 20.3 C 7.03 g/m*3 20.3 C 0 km/h
2153 14-08-2008 11:50:02 20.4 C 6.72 g/m*3 20.4 C 0 km/h
2154 14-08-2008 12:02:02 20.8 C 6.34 g/m*3 20.8 C 0 km/h
2155 14-08-2008 12:14:02 21.2 C 6.12 g/m*3 21.2 C 0 km/h
2156 14-08-2008 12:26:01 22 C 6.02 g/m*3 22 C 0 km/h
2157 14-08-2008 12:38:02 21.9 C 5.79 g/m*3 21.9 C 0 km/h
2158 14-08-2008 12:50:02 22 C 5.43 g/m*3 22 C 0 km/h
2159 14-08-2008 13:02:02 22.9 C 6.13 g/m*3 22.9 C 0 km/h
2160 14-08-2008 13:14:02 23.2 C 6.03 g/m*3 23.2 C 0 km/h
2161 14-08-2008 13:26:02 23.4 C 6.31 g/m*3 23.4 C 0 km/h
2162 14-08-2008 13:38:02 24 C 6.09 g/m*3 24 C 0 km/h
2163 14-08-2008 13:50:02 23.4 C 6.31 g/m*3 23.4 C 0 km/h
2164 14-08-2008 14:02:01 23.4 C 5.89 g/m*3 23.4 C 0 km/h
2165 14-08-2008 14:14:01 23.1 C 5.79 g/m*3 23.1 C 0 km/h
2166 14-08-2008 14:26:02 23 C 5.76 g/m*3 23 C 0 km/h
2167 14-08-2008 14:38:01 23.4 C 6.1 g/m*3 23.4 C 0 km/h
2168 14-08-2008 14:50:02 24.1 C 5.69 g/m*3 24.1 C 0 km/h
2169 14-08-2008 15:02:01 24.3 C 5.53 g/m*3 24.3 C 0 km/h
2170 14-08-2008 15:14:01 24.2 C 5.5 g/m*3 24.2 C 0 km/h
2171 14-08-2008 15:26:02 24.4 C 5.56 g/m*3 24.4 C 0 km/h
2172 14-08-2008 15:38:01 24.5 C 5.6 g/m*3 24.5 C 0 km/h
2173 14-08-2008 15:50:01 24.8 C 5.46 g/m*3 24.8 C 0 km/h
2174 14-08-2008 16:02:01 25.2 C 5.35 g/m*3 25.2 C 0 km/h
2175 14-08-2008 16:14:01 25.1 C 5.56 g/m*3 25.1 C 0 km/h
Sensor: Nr:Datum:Temp:Abs-Feuchte:Windchill:Wind:
Aussen-T/F 2176 14-08-2008 16:26:01 25.5 C 5.21 g/m*3 25.5 C 0 km/h
2177 14-08-2008 16:38:01 25.6 C 5 g/m*3 25.6 C 0 km/h
2178 14-08-2008 16:50:01 26.2 C 5.17 g/m*3 26.2 C 0 km/h
2179 14-08-2008 17:02:02 25.1 C 5.09 g/m*3 25.1 C 0 km/h
2180 14-08-2008 17:14:03 26.7 C 5.06 g/m*3 26.7 C 0 km/h
2181 14-08-2008 17:26:01 26.5 C 5.01 g/m*3 26.5 C 0 km/h
2182 14-08-2008 17:38:02 26.7 C 5.06 g/m*3 26.7 C 0 km/h
2183 14-08-2008 17:50:01 26.6 C 5.03 g/m*3 26.6 C 0 km/h
2184 14-08-2008 18:02:02 26.7 C 5.06 g/m*3 26.7 C 0 km/h
2185 14-08-2008 18:14:02 26.8 C 5.09 g/m*3 26.8 C 0 km/h
2186 14-08-2008 18:26:01 26.8 C 5.09 g/m*3 26.8 C 0 km/h
2187 14-08-2008 18:38:02 26.2 C 4.92 g/m*3 26.2 C 0 km/h
2188 14-08-2008 18:50:02 26.4 C 4.98 g/m*3 26.4 C 0 km/h
2189 14-08-2008 19:02:02 25.8 C 4.82 g/m*3 25.8 C 0 km/h
2190 14-08-2008 19:14:02 25.1 C 5.09 g/m*3 25.1 C 0 km/h
2191 14-08-2008 19:26:02 23.8 C 5.59 g/m*3 23.8 C 0 km/h
2192 14-08-2008 19:38:02 23.7 C 5.56 g/m*3 23.7 C 0 km/h
2193 14-08-2008 19:50:01 23.6 C 5.96 g/m*3 23.6 C 0 km/h
2194 14-08-2008 20:02:02 22.8 C 5.69 g/m*3 22.8 C 0 km/h
2195 14-08-2008 20:14:02 22.6 C 6.03 g/m*3 22.6 C 0 km/h
2196 14-08-2008 20:26:01 21.8 C 5.95 g/m*3 21.8 C 0 km/h
2197 14-08-2008 20:38:02 20.9 C 6.19 g/m*3 20.9 C 0 km/h
2198 14-08-2008 20:50:02 20.5 C 6.23 g/m*3 20.5 C 0 km/h
2199 14-08-2008 21:02:02 19.9 C 6.19 g/m*3 19.9 C 0 km/h
2200 14-08-2008 21:14:02 19.4 C 6.17 g/m*3 19.4 C 0 km/h
Sensor: Nr:Datum:Temp:Abs-Feuchte:Windchill:Wind:
Aussen-T/F 2201 14-08-2008 21:26:02 19 C 6.03 g/m*3 19 C 0 km/h
2202 14-08-2008 21:38:01 18.8 C 6.6 g/m*3 18.8 C 0 km/h
2203 14-08-2008 21:51:03 18.6 C 6.68 g/m*3 18.6 C 0 km/h
2204 14-08-2008 22:03:03 18.3 C 6.88 g/m*3 18.3 C 0 km/h
2205 14-08-2008 22:15:03 18.1 C 6.8 g/m*3 18.1 C 0 km/h
2206 14-08-2008 22:27:03 18.1 C 6.64 g/m*3 18.1 C 0 km/h
2207 14-08-2008 22:39:03 17.9 C 6.87 g/m*3 17.9 C 0 km/h
2208 14-08-2008 22:51:03 17.5 C 7.01 g/m*3 17.5 C 0 km/h
2209 14-08-2008 23:03:03 17.5 C 7.01 g/m*3 17.5 C 0 km/h
2210 14-08-2008 23:15:03 17.4 C 7.41 g/m*3 17.4 C 0 km/h
2211 14-08-2008 23:27:03 17.2 C 7.47 g/m*3 17.2 C 0 km/h
2212 14-08-2008 23:39:03 17 C 7.38 g/m*3 17 C 0 km/h
2213 14-08-2008 23:51:03 17.1 C 7.42 g/m*3 17.1 C 0 km/h
2214 15-08-2008 00:03:03 17 C 7.38 g/m*3 17 C 0 km/h
2215 15-08-2008 00:15:03 17 C 7.52 g/m*3 17 C 0 km/h
2216 15-08-2008 00:27:03 16.8 C 7.72 g/m*3 16.8 C 0 km/h
2217 15-08-2008 00:39:03 16.8 C 7.58 g/m*3 16.8 C 0 km/h
2218 15-08-2008 00:51:03 16.7 C 7.67 g/m*3 16.7 C 0 km/h
2219 15-08-2008 01:03:03 16.6 C 7.63 g/m*3 16.6 C 0 km/h
2220 15-08-2008 01:15:04 16.7 C 7.67 g/m*3 16.7 C 0 km/h
2221 15-08-2008 01:27:04 16.5 C 7.72 g/m*3 16.5 C 0 km/h
2222 15-08-2008 01:39:04 16.3 C 7.77 g/m*3 16.3 C 0 km/h
2223 15-08-2008 01:51:04 16.1 C 7.68 g/m*3 16.1 C 0 km/h
2224 15-08-2008 02:03:04 16.1 C 7.68 g/m*3 16.1 C 0 km/h
2225 15-08-2008 02:15:04 16 C 7.77 g/m*3 16 C 0 km/h
Sensor: Nr:Datum:Temp:Abs-Feuchte:Windchill:Wind:
Aussen-T/F 2226 15-08-2008 02:27:04 15.9 C 7.99 g/m*3 15.9 C 0 km/h
2227 15-08-2008 02:39:04 15.7 C 7.89 g/m*3 15.7 C 0 km/h
2228 15-08-2008 02:51:04 15.6 C 7.85 g/m*3 15.6 C 0 km/h
2229 15-08-2008 03:03:04 15.6 C 7.98 g/m*3 15.6 C 0 km/h
2230 15-08-2008 03:15:04 15.5 C 8.06 g/m*3 15.5 C 0 km/h
2231 15-08-2008 03:27:04 15.5 C 8.06 g/m*3 15.5 C 0 km/h
2232 15-08-2008 03:39:04 15.2 C 8.05 g/m*3 15.2 C 0 km/h
2233 15-08-2008 03:51:04 15.2 C 8.18 g/m*3 15.2 C 0 km/h
2234 15-08-2008 04:03:04 14.9 C 8.28 g/m*3 14.9 C 0 km/h
2235 15-08-2008 04:15:04 14.7 C 8.31 g/m*3 14.7 C 0 km/h
2236 15-08-2008 04:27:04 14.5 C 8.33 g/m*3 14.5 C 0 km/h
2237 15-08-2008 04:39:04 14.6 C 8.38 g/m*3 14.6 C 0 km/h
2238 15-08-2008 04:51:04 14.6 C 8.38 g/m*3 14.6 C 0 km/h
2239 15-08-2008 05:03:05 14.5 C 8.33 g/m*3 14.5 C 0 km/h
2240 15-08-2008 05:15:05 14.3 C 8.35 g/m*3 14.3 C 0 km/h
2241 15-08-2008 05:27:05 14 C 8.32 g/m*3 14 C 0 km/h
2242 15-08-2008 05:39:05 13.8 C 8.46 g/m*3 13.8 C 0 km/h
2243 15-08-2008 05:51:05 13.8 C 8.46 g/m*3 13.8 C 0 km/h
2244 15-08-2008 06:03:05 13.7 C 8.53 g/m*3 13.7 C 0 km/h
2245 15-08-2008 06:15:05 13.6 C 8.47 g/m*3 13.6 C 0 km/h
2246 15-08-2008 06:27:05 13.6 C 8.47 g/m*3 13.6 C 0 km/h
2247 15-08-2008 06:39:05 13.5 C 8.54 g/m*3 13.5 C 0 km/h
2248 15-08-2008 06:51:01 13.5 C 8.54 g/m*3 13.5 C 0 km/h
2249 15-08-2008 07:03:02 13.4 C 8.6 g/m*3 13.4 C 0 km/h
2250 15-08-2008 07:15:01 13.3 C 8.55 g/m*3 13.3 C 0 km/h
Sensor: Nr:Datum:Temp:Abs-Feuchte:Windchill:Wind:
Aussen-T/F 2251 15-08-2008 07:27:01 13 C 8.51 g/m*3 13 C 0 km/h
2252 15-08-2008 07:39:02 12.8 C 8.62 g/m*3 12.8 C 0 km/h
2253 15-08-2008 07:51:02 12.8 C 8.74 g/m*3 12.8 C 0 km/h
2254 15-08-2008 08:03:02 12.9 C 8.79 g/m*3 12.9 C 0 km/h
2255 15-08-2008 08:15:02 13 C 8.73 g/m*3 13 C 0 km/h
2256 15-08-2008 08:27:02 13.3 C 8.9 g/m*3 13.3 C 0 km/h
2257 15-08-2008 08:39:02 13.5 C 8.77 g/m*3 13.5 C 0 km/h
2258 15-08-2008 08:51:02 13.8 C 8.82 g/m*3 13.8 C 0 km/h
2259 15-08-2008 09:03:03 14.1 C 8.86 g/m*3 14.1 C 0 km/h
2260 15-08-2008 09:15:02 14.4 C 8.65 g/m*3 14.4 C 0 km/h
2261 15-08-2008 09:27:03 15 C 8.98 g/m*3 15 C 0 km/h
2262 15-08-2008 09:39:02 16 C 8.86 g/m*3 16 C 0 km/h
2263 15-08-2008 09:51:02 16.8 C 8.72 g/m*3 16.8 C 0 km/h
2264 15-08-2008 10:03:02 17.2 C 8.05 g/m*3 17.2 C 0 km/h
2265 15-08-2008 10:15:02 17.7 C 8.15 g/m*3 17.7 C 0 km/h
2266 15-08-2008 10:27:02 18.1 C 8.19 g/m*3 18.1 C 0 km/h
2267 15-08-2008 10:39:02 18.4 C 8.02 g/m*3 18.4 C 0 km/h
2268 15-08-2008 10:51:01 18.9 C 7.94 g/m*3 18.9 C 0 km/h
2269 15-08-2008 11:03:02 19.3 C 7.3 g/m*3 19.3 C 0 km/h
2270 15-08-2008 11:15:01 19.9 C 7.56 g/m*3 19.9 C 0 km/h
2271 15-08-2008 11:27:01 20.6 C 7.52 g/m*3 20.6 C 0 km/h
2272 15-08-2008 11:39:01 20.8 C 7.42 g/m*3 20.8 C 0 km/h
2273 15-08-2008 11:51:02 20.5 C 7.3 g/m*3 20.5 C 0 km/h
2274 15-08-2008 12:03:02 21.2 C 7.23 g/m*3 21.2 C 0 km/h
2275 15-08-2008 12:15:02 22.1 C 7.22 g/m*3 22.1 C 0 km/h
Sensor: Nr:Datum:Temp:Abs-Feuchte:Windchill:Wind:
Aussen-T/F 2276 15-08-2008 12:27:02 22.8 C 7.52 g/m*3 22.8 C 0 km/h
2277 15-08-2008 12:39:02 23 C 6.99 g/m*3 23 C 0 km/h
2278 15-08-2008 12:51:02 22.7 C 7.07 g/m*3 22.7 C 0 km/h
2279 15-08-2008 13:03:03 21.6 C 7.21 g/m*3 21.6 C 0 km/h
2280 15-08-2008 13:15:02 22 C 6.79 g/m*3 22 C 0 km/h
2281 15-08-2008 13:27:02 21.7 C 6.87 g/m*3 21.7 C 0 km/h
2282 15-08-2008 13:39:03 22.1 C 6.83 g/m*3 22.1 C 0 km/h
2283 15-08-2008 13:51:02 22.7 C 6.67 g/m*3 22.7 C 0 km/h
2284 15-08-2008 14:03:01 22.3 C 7.7 g/m*3 22.3 C 0 km/h
2285 15-08-2008 14:15:02 19.6 C 8.61 g/m*3 19.6 C 0 km/h
2286 15-08-2008 14:27:02 19.2 C 8.08 g/m*3 19.2 C 0 km/h
2287 15-08-2008 14:39:01 19.7 C 7.81 g/m*3 19.7 C 0 km/h
2288 15-08-2008 14:51:02 20.5 C 8.36 g/m*3 20.5 C 0 km/h
2289 15-08-2008 15:03:01 22.7 C 7.07 g/m*3 22.7 C 0 km/h
2290 15-08-2008 15:21:02 20.6 C 7.87 g/m*3 20.6 C 0 km/h
2291 15-08-2008 15:33:01 20.7 C 8.1 g/m*3 20.7 C 0 km/h
2292 15-08-2008 15:45:02 22 C 8.15 g/m*3 22 C 0 km/h
2293 15-08-2008 15:57:02 22.6 C 7.23 g/m*3 22.6 C 0 km/h
2294 15-08-2008 16:09:01 22.9 C 7.56 g/m*3 22.9 C 0 km/h
2295 15-08-2008 16:21:02 23.6 C 7.02 g/m*3 23.6 C 0 km/h
2296 15-08-2008 16:33:01 24.8 C 6.83 g/m*3 24.8 C 0 km/h
2297 15-08-2008 16:45:01 26.1 C 6.12 g/m*3 26.1 C 0 km/h
2298 15-08-2008 16:57:01 24.8 C 6.15 g/m*3 24.8 C 0 km/h
2299 15-08-2008 17:09:01 23.8 C 6.67 g/m*3 23.8 C 0 km/h
2300 15-08-2008 17:21:01 24.4 C 6.9 g/m*3 24.4 C 0 km/h
Sensor: Nr:Datum:Temp:Abs-Feuchte:Windchill:Wind:
Aussen-T/F 2301 15-08-2008 17:33:01 25.3 C 6.55 g/m*3 25.3 C 0 km/h
2302 15-08-2008 17:45:01 24.3 C 7.08 g/m*3 24.3 C 0 km/h
2303 15-08-2008 17:57:01 23.6 C 7.44 g/m*3 23.6 C 0 km/h
2304 15-08-2008 18:09:02 24 C 6.74 g/m*3 24 C 0 km/h
2305 15-08-2008 18:21:01 24 C 6.96 g/m*3 24 C 0 km/h
2306 15-08-2008 18:33:02 23.4 C 6.94 g/m*3 23.4 C 0 km/h
2307 15-08-2008 18:45:03 23.8 C 6.88 g/m*3 23.8 C 0 km/h
2308 15-08-2008 18:57:03 24.1 C 7 g/m*3 24.1 C 0 km/h
2309 15-08-2008 19:09:02 24.6 C 6.98 g/m*3 24.6 C 0 km/h
2310 15-08-2008 19:21:02 24.6 C 6.75 g/m*3 24.6 C 0 km/h
2311 15-08-2008 19:33:02 24.7 C 7.02 g/m*3 24.7 C 0 km/h
2312 15-08-2008 19:45:01 24.2 C 7.26 g/m*3 24.2 C 0 km/h
2313 15-08-2008 19:57:01 22 C 7.38 g/m*3 22 C 0 km/h
2314 15-08-2008 20:09:02 20.6 C 7.52 g/m*3 20.6 C 0 km/h
2315 15-08-2008 20:21:01 19.9 C 7.56 g/m*3 19.9 C 0 km/h
2316 15-08-2008 20:33:02 19.4 C 7.51 g/m*3 19.4 C 0 km/h
2317 15-08-2008 20:45:03 19.1 C 7.54 g/m*3 19.1 C 0 km/h
2318 15-08-2008 20:57:03 18.9 C 7.78 g/m*3 18.9 C 0 km/h
2319 15-08-2008 21:09:02 18.4 C 7.86 g/m*3 18.4 C 0 km/h
2320 15-08-2008 21:21:02 18.1 C 7.57 g/m*3 18.1 C 0 km/h
2321 15-08-2008 21:33:02 18.2 C 8.08 g/m*3 18.2 C 0 km/h
2322 15-08-2008 21:45:01 18 C 7.99 g/m*3 18 C 0 km/h
2323 15-08-2008 21:57:01 17.7 C 8.6 g/m*3 17.7 C 0 km/h
2324 15-08-2008 22:10:03 17.1 C 9.03 g/m*3 17.1 C 0 km/h
2325 15-08-2008 22:22:03 17.1 C 8.88 g/m*3 17.1 C 0 km/h
Sensor: Nr:Datum:Temp:Abs-Feuchte:Windchill:Wind:
Aussen-T/F 2326 15-08-2008 22:34:03 16.8 C 8.72 g/m*3 16.8 C 0 km/h
2327 15-08-2008 22:46:03 16.7 C 8.67 g/m*3 16.7 C 0 km/h
2328 15-08-2008 22:58:03 17 C 8.25 g/m*3 17 C 0 km/h
2329 15-08-2008 23:10:03 17 C 8.25 g/m*3 17 C 0 km/h
2330 15-08-2008 23:22:03 16.7 C 8.38 g/m*3 16.7 C 0 km/h
2331 15-08-2008 23:34:03 16.3 C 8.32 g/m*3 16.3 C 0 km/h
2332 15-08-2008 23:46:04 16 C 8.31 g/m*3 16 C 0 km/h
2333 15-08-2008 23:58:04 15.8 C 8.35 g/m*3 15.8 C 0 km/h
2334 16-08-2008 00:10:04 15.4 C 8.41 g/m*3 15.4 C 0 km/h
2335 16-08-2008 00:22:04 15.4 C 8.41 g/m*3 15.4 C 0 km/h
2336 16-08-2008 00:34:04 15.1 C 8.51 g/m*3 15.1 C 0 km/h
2337 16-08-2008 00:46:04 14.8 C 8.36 g/m*3 14.8 C 0 km/h
2338 16-08-2008 00:58:04 14.7 C 8.56 g/m*3 14.7 C 0 km/h
2339 16-08-2008 01:10:04 14.4 C 8.65 g/m*3 14.4 C 0 km/h
2340 16-08-2008 01:22:04 14.1 C 8.5 g/m*3 14.1 C 0 km/h
2341 16-08-2008 01:34:04 14.1 C 8.62 g/m*3 14.1 C 0 km/h
2342 16-08-2008 01:46:04 13.9 C 8.63 g/m*3 13.9 C 0 km/h
2343 16-08-2008 01:58:04 13.9 C 8.75 g/m*3 13.9 C 0 km/h
2344 16-08-2008 02:10:04 13.7 C 8.64 g/m*3 13.7 C 0 km/h
2345 16-08-2008 02:22:04 13.5 C 8.66 g/m*3 13.5 C 0 km/h
2346 16-08-2008 02:34:04 13.4 C 8.6 g/m*3 13.4 C 0 km/h
2347 16-08-2008 02:46:04 13.2 C 8.5 g/m*3 13.2 C 0 km/h
2348 16-08-2008 02:58:04 13.1 C 8.56 g/m*3 13.1 C 0 km/h
2349 16-08-2008 03:10:04 12.9 C 8.57 g/m*3 12.9 C 0 km/h
2350 16-08-2008 03:22:04 12.7 C 8.68 g/m*3 12.7 C 0 km/h
Sensor: Nr:Datum:Temp:Abs-Feuchte:Windchill:Wind:
Aussen-T/F 2351 16-08-2008 03:34:04 12.5 C 8.58 g/m*3 12.5 C 0 km/h
2352 16-08-2008 03:46:04 12.4 C 8.52 g/m*3 12.4 C 0 km/h
2353 16-08-2008 03:58:05 12.4 C 8.63 g/m*3 12.4 C 0 km/h
2354 16-08-2008 04:10:05 12.1 C 8.47 g/m*3 12.1 C 0 km/h
2355 16-08-2008 04:22:05 12 C 8.63 g/m*3 12 C 0 km/h
2356 16-08-2008 04:34:05 11.8 C 8.63 g/m*3 11.8 C 0 km/h
2357 16-08-2008 04:46:05 11.6 C 8.63 g/m*3 11.6 C 0 km/h
2358 16-08-2008 04:58:05 11.5 C 8.57 g/m*3 11.5 C 0 km/h
2359 16-08-2008 05:10:05 11.4 C 8.52 g/m*3 11.4 C 0 km/h
2360 16-08-2008 05:22:05 11.2 C 8.41 g/m*3 11.2 C 0 km/h
2361 16-08-2008 05:34:05 11.1 C 8.36 g/m*3 11.1 C 0 km/h
2362 16-08-2008 05:46:05 11 C 8.41 g/m*3 11 C 0 km/h
2363 16-08-2008 05:58:05 10.8 C 8.3 g/m*3 10.8 C 0 km/h
2364 16-08-2008 06:10:05 10.8 C 8.3 g/m*3 10.8 C 0 km/h
2365 16-08-2008 06:22:05 10.7 C 8.25 g/m*3 10.7 C 0 km/h
2366 16-08-2008 06:34:05 10.6 C 8.2 g/m*3 10.6 C 0 km/h
2367 16-08-2008 06:46:05 10.5 C 8.24 g/m*3 10.5 C 0 km/h
2368 16-08-2008 06:58:05 10.5 C 8.24 g/m*3 10.5 C 0 km/h
2369 16-08-2008 07:10:05 10.6 C 8.3 g/m*3 10.6 C 0 km/h
2370 16-08-2008 07:22:02 10.7 C 8.25 g/m*3 10.7 C 0 km/h
2371 16-08-2008 07:34:03 10.8 C 8.3 g/m*3 10.8 C 0 km/h
2372 16-08-2008 07:46:02 10.9 C 8.36 g/m*3 10.9 C 0 km/h
2373 16-08-2008 07:58:02 11 C 8.41 g/m*3 11 C 0 km/h
2374 16-08-2008 08:10:02 11.1 C 8.46 g/m*3 11.1 C 0 km/h
2375 16-08-2008 08:22:02 11.4 C 8.62 g/m*3 11.4 C 0 km/h
Sensor: Nr:Datum:Temp:Abs-Feuchte:Windchill:Wind:
Aussen-T/F 2376 16-08-2008 08:34:02 11.6 C 8.73 g/m*3 11.6 C 0 km/h
2377 16-08-2008 08:46:03 12 C 8.74 g/m*3 12 C 0 km/h
2378 16-08-2008 08:58:03 12.2 C 8.63 g/m*3 12.2 C 0 km/h
2379 16-08-2008 09:10:02 12.6 C 8.74 g/m*3 12.6 C 0 km/h
2380 16-08-2008 09:22:03 13 C 8.62 g/m*3 13 C 0 km/h
2381 16-08-2008 09:34:02 13.5 C 8.77 g/m*3 13.5 C 0 km/h
2382 16-08-2008 09:46:02 14.1 C 8.74 g/m*3 14.1 C 0 km/h
2383 16-08-2008 09:58:02 14.7 C 8.69 g/m*3 14.7 C 0 km/h
2384 16-08-2008 10:10:02 15.3 C 8.75 g/m*3 15.3 C 0 km/h
2385 16-08-2008 10:22:02 16.1 C 8.77 g/m*3 16.1 C 0 km/h
2386 16-08-2008 10:34:02 16.7 C 8.81 g/m*3 16.7 C 0 km/h
2387 16-08-2008 10:46:02 17.4 C 8.74 g/m*3 17.4 C 0 km/h
2388 16-08-2008 10:58:02 18.1 C 8.5 g/m*3 18.1 C 0 km/h
2389 16-08-2008 11:10:01 18.9 C 8.59 g/m*3 18.9 C 0 km/h
2390 16-08-2008 11:22:02 20 C 8.64 g/m*3 20 C 0 km/h
2391 16-08-2008 11:34:01 20.7 C 8.28 g/m*3 20.7 C 0 km/h
2392 16-08-2008 11:46:01 20.4 C 7.78 g/m*3 20.4 C 0 km/h
2393 16-08-2008 11:58:01 20.8 C 7.97 g/m*3 20.8 C 0 km/h
2394 16-08-2008 12:10:01 21.4 C 7.31 g/m*3 21.4 C 0 km/h
2395 16-08-2008 12:22:01 22.1 C 6.83 g/m*3 22.1 C 0 km/h
2396 16-08-2008 12:34:01 22.5 C 6.99 g/m*3 22.5 C 0 km/h
2397 16-08-2008 12:46:01 22.4 C 6.16 g/m*3 22.4 C 0 km/h
2398 16-08-2008 12:58:01 22.5 C 5.79 g/m*3 22.5 C 0 km/h
2399 16-08-2008 13:10:02 22.7 C 5.66 g/m*3 22.7 C 0 km/h
2400 16-08-2008 13:22:01 23.5 C 5.5 g/m*3 23.5 C 0 km/h
Sensor: Nr:Datum:Temp:Abs-Feuchte:Windchill:Wind:
Aussen-T/F 2401 16-08-2008 13:34:02 24.8 C 5.92 g/m*3 24.8 C 0 km/h
2402 16-08-2008 13:46:02 25.1 C 5.32 g/m*3 25.1 C 0 km/h
2403 16-08-2008 13:58:03 25.2 C 4.89 g/m*3 25.2 C 0 km/h
2404 16-08-2008 14:10:02 24.8 C 5.01 g/m*3 24.8 C 0 km/h
2405 16-08-2008 14:22:02 25.7 C 5.51 g/m*3 25.7 C 0 km/h
2406 16-08-2008 14:34:01 26.7 C 5.06 g/m*3 26.7 C 0 km/h
2407 16-08-2008 14:46:02 26.8 C 5.09 g/m*3 26.8 C 0 km/h
2408 16-08-2008 14:58:02 27.2 C 5.2 g/m*3 27.2 C 0 km/h
2409 16-08-2008 15:10:02 27.8 C 5.38 g/m*3 27.8 C 0 km/h
2410 16-08-2008 15:22:02 28.3 C 5.53 g/m*3 28.3 C 0 km/h
2411 16-08-2008 15:34:02 28.8 C 5.68 g/m*3 28.8 C 0 km/h
2412 16-08-2008 15:46:01 29.4 C 5.87 g/m*3 29.4 C 0 km/h
2413 16-08-2008 15:58:01 29.9 C 6.03 g/m*3 29.9 C 0 km/h
2414 16-08-2008 16:10:02 30.2 C 6.13 g/m*3 30.2 C 0 km/h
2415 16-08-2008 16:22:01 29.8 C 6 g/m*3 29.8 C 0 km/h
2416 16-08-2008 16:34:02 29.8 C 6 g/m*3 29.8 C 0 km/h
2417 16-08-2008 16:46:02 30.2 C 6.13 g/m*3 30.2 C 0 km/h
2418 16-08-2008 16:58:02 30.6 C 6.26 g/m*3 30.6 C 0 km/h
2419 16-08-2008 17:10:02 30.9 C 6.37 g/m*3 30.9 C 0 km/h
2420 16-08-2008 17:22:02 29.2 C 5.81 g/m*3 29.2 C 0 km/h
2421 16-08-2008 17:34:02 28.6 C 5.62 g/m*3 28.6 C 0 km/h
2422 16-08-2008 17:46:02 29 C 5.74 g/m*3 29 C 0 km/h
2423 16-08-2008 17:58:02 29.5 C 5.9 g/m*3 29.5 C 0 km/h
2424 16-08-2008 18:10:01 30.3 C 6.16 g/m*3 30.3 C 0 km/h
2425 16-08-2008 18:22:02 30.3 C 6.16 g/m*3 30.3 C 0 km/h
Sensor: Nr:Datum:Temp:Abs-Feuchte:Windchill:Wind:
Aussen-T/F 2426 16-08-2008 18:34:01 30.3 C 6.16 g/m*3 30.3 C 0 km/h
2427 16-08-2008 18:46:01 30.1 C 6.1 g/m*3 30.1 C 0 km/h
2428 16-08-2008 18:58:01 29.7 C 5.97 g/m*3 29.7 C 0 km/h
2429 16-08-2008 19:10:02 28.4 C 5.56 g/m*3 28.4 C 0 km/h
2430 16-08-2008 19:22:01 26.5 C 6.26 g/m*3 26.5 C 0 km/h
2431 16-08-2008 19:34:02 24.9 C 6.18 g/m*3 24.9 C 0 km/h
2432 16-08-2008 19:46:01 23.6 C 6.38 g/m*3 23.6 C 0 km/h
2433 16-08-2008 19:58:01 22.8 C 6.3 g/m*3 22.8 C 0 km/h
2434 16-08-2008 20:10:02 22 C 6.4 g/m*3 22 C 0 km/h
2435 16-08-2008 20:22:02 21.3 C 6.52 g/m*3 21.3 C 0 km/h
2436 16-08-2008 20:34:02 20.8 C 6.7 g/m*3 20.8 C 0 km/h
2437 16-08-2008 20:46:02 20.6 C 6.8 g/m*3 20.6 C 0 km/h
2438 16-08-2008 20:58:02 19.6 C 6.92 g/m*3 19.6 C 0 km/h
2439 16-08-2008 21:10:02 19.2 C 6.76 g/m*3 19.2 C 0 km/h
2440 16-08-2008 21:22:01 19 C 6.84 g/m*3 19 C 0 km/h
2441 16-08-2008 21:34:02 18.9 C 6.97 g/m*3 18.9 C 0 km/h
2442 16-08-2008 21:46:02 18.7 C 7.04 g/m*3 18.7 C 0 km/h
2443 16-08-2008 21:58:02 18.6 C 7.16 g/m*3 18.6 C 0 km/h
2444 16-08-2008 22:10:02 18.5 C 7.28 g/m*3 18.5 C 0 km/h
2445 16-08-2008 22:23:02 18.5 C 7.28 g/m*3 18.5 C 0 km/h
2446 16-08-2008 22:35:02 18.2 C 7.15 g/m*3 18.2 C 0 km/h
2447 16-08-2008 22:47:02 18.2 C 7.15 g/m*3 18.2 C 0 km/h
2448 16-08-2008 22:59:02 18 C 7.07 g/m*3 18 C 0 km/h
2449 16-08-2008 23:11:02 17.8 C 7.59 g/m*3 17.8 C 0 km/h
2450 16-08-2008 23:23:02 17.5 C 7.75 g/m*3 17.5 C 0 km/h
Sensor: Nr:Datum:Temp:Abs-Feuchte:Windchill:Wind:
Aussen-T/F 2451 16-08-2008 23:35:02 17.3 C 7.37 g/m*3 17.3 C 0 km/h
2452 16-08-2008 23:47:02 17.1 C 7.42 g/m*3 17.1 C 0 km/h
2453 16-08-2008 23:59:03 16.9 C 7.19 g/m*3 16.9 C 0 km/h
2454 17-08-2008 00:11:03 16.6 C 7.06 g/m*3 16.6 C 0 km/h
2455 17-08-2008 00:23:03 16.2 C 7.03 g/m*3 16.2 C 0 km/h
2456 17-08-2008 00:35:03 16.1 C 7.26 g/m*3 16.1 C 0 km/h
2457 17-08-2008 00:47:03 15.9 C 7.31 g/m*3 15.9 C 0 km/h
2458 17-08-2008 00:59:03 15.8 C 7.4 g/m*3 15.8 C 0 km/h
2459 17-08-2008 01:11:03 15.6 C 7.45 g/m*3 15.6 C 0 km/h
2460 17-08-2008 01:23:03 15.3 C 7.44 g/m*3 15.3 C 0 km/h
2461 17-08-2008 01:35:03 15.1 C 7.48 g/m*3 15.1 C 0 km/h
2462 17-08-2008 01:47:03 14.9 C 7.52 g/m*3 14.9 C 0 km/h
2463 17-08-2008 01:59:03 14.8 C 7.6 g/m*3 14.8 C 0 km/h
2464 17-08-2008 02:11:03 14.7 C 7.55 g/m*3 14.7 C 0 km/h
2465 17-08-2008 02:23:03 14.4 C 7.54 g/m*3 14.4 C 0 km/h
2466 17-08-2008 02:35:03 14.4 C 7.66 g/m*3 14.4 C 0 km/h
2467 17-08-2008 02:47:03 14.3 C 7.62 g/m*3 14.3 C 0 km/h
2468 17-08-2008 02:59:03 14.1 C 7.65 g/m*3 14.1 C 0 km/h
2469 17-08-2008 03:11:03 13.8 C 7.86 g/m*3 13.8 C 0 km/h
2470 17-08-2008 03:23:03 13.7 C 7.82 g/m*3 13.7 C 0 km/h
2471 17-08-2008 03:35:03 13.7 C 7.82 g/m*3 13.7 C 0 km/h
2472 17-08-2008 03:47:03 13.5 C 7.72 g/m*3 13.5 C 0 km/h
2473 17-08-2008 03:59:03 13.6 C 7.77 g/m*3 13.6 C 0 km/h
2474 17-08-2008 04:11:04 13.4 C 7.79 g/m*3 13.4 C 0 km/h
2475 17-08-2008 04:23:04 13.1 C 7.76 g/m*3 13.1 C 0 km/h
Sensor: Nr:Datum:Temp:Abs-Feuchte:Windchill:Wind:
Aussen-T/F 2476 17-08-2008 04:35:04 13.1 C 7.87 g/m*3 13.1 C 0 km/h
2477 17-08-2008 04:47:04 12.9 C 7.89 g/m*3 12.9 C 0 km/h
2478 17-08-2008 04:59:04 12.9 C 7.89 g/m*3 12.9 C 0 km/h
2479 17-08-2008 05:11:04 12.8 C 7.95 g/m*3 12.8 C 0 km/h
2480 17-08-2008 05:23:04 12.7 C 7.9 g/m*3 12.7 C 0 km/h
2481 17-08-2008 05:35:04 12.5 C 7.92 g/m*3 12.5 C 0 km/h
2482 17-08-2008 05:47:04 12.3 C 7.82 g/m*3 12.3 C 0 km/h
2483 17-08-2008 05:59:04 12.4 C 7.98 g/m*3 12.4 C 0 km/h
2484 17-08-2008 06:11:04 12.2 C 7.88 g/m*3 12.2 C 0 km/h
2485 17-08-2008 06:23:04 12.1 C 7.94 g/m*3 12.1 C 0 km/h
2486 17-08-2008 06:35:04 11.9 C 8.05 g/m*3 11.9 C 0 km/h
2487 17-08-2008 06:47:04 11.9 C 8.05 g/m*3 11.9 C 0 km/h
2488 17-08-2008 06:59:04 12 C 7.99 g/m*3 12 C 0 km/h
2489 17-08-2008 07:11:04 12 C 7.99 g/m*3 12 C 0 km/h
2490 17-08-2008 07:23:04 12 C 8.1 g/m*3 12 C 0 km/h
2491 17-08-2008 07:35:04 12 C 8.1 g/m*3 12 C 0 km/h
2492 17-08-2008 07:47:04 12.1 C 8.15 g/m*3 12.1 C 0 km/h
2493 17-08-2008 07:59:04 12.5 C 8.36 g/m*3 12.5 C 0 km/h
2494 17-08-2008 08:11:05 12.5 C 8.36 g/m*3 12.5 C 0 km/h
2495 17-08-2008 08:23:05 12.6 C 8.3 g/m*3 12.6 C 0 km/h
2496 17-08-2008 08:35:05 12.9 C 8.45 g/m*3 12.9 C 0 km/h
2497 17-08-2008 08:47:05 13.2 C 8.38 g/m*3 13.2 C 0 km/h
2498 17-08-2008 08:59:05 13.6 C 8.47 g/m*3 13.6 C 0 km/h
2499 17-08-2008 09:11:02 13.9 C 8.51 g/m*3 13.9 C 0 km/h
2500 17-08-2008 09:23:03 14.6 C 8.51 g/m*3 14.6 C 0 km/h
Sensor: Nr:Datum:Temp:Abs-Feuchte:Windchill:Wind:
Aussen-T/F 2501 17-08-2008 09:35:03 15.1 C 8.39 g/m*3 15.1 C 0 km/h
2502 17-08-2008 09:47:01 15.5 C 8.46 g/m*3 15.5 C 0 km/h
2503 17-08-2008 09:59:01 16.2 C 8.69 g/m*3 16.2 C 0 km/h
2504 17-08-2008 10:11:03 17.1 C 8.88 g/m*3 17.1 C 0 km/h
2505 17-08-2008 10:23:02 17.8 C 8.95 g/m*3 17.8 C 0 km/h
2506 17-08-2008 10:35:02 18.7 C 9.13 g/m*3 18.7 C 0 km/h
2507 17-08-2008 10:47:02 19.6 C 8.95 g/m*3 19.6 C 0 km/h
2508 17-08-2008 10:59:02 20.2 C 8.92 g/m*3 20.2 C 0 km/h
2509 17-08-2008 11:11:03 21 C 8.61 g/m*3 21 C 0 km/h
2510 17-08-2008 11:23:03 21.8 C 8.83 g/m*3 21.8 C 0 km/h
2511 17-08-2008 11:35:03 22.5 C 8.19 g/m*3 22.5 C 0 km/h
2512 17-08-2008 11:47:02 22.9 C 7.77 g/m*3 22.9 C 0 km/h
2513 17-08-2008 11:59:02 23.1 C 7.23 g/m*3 23.1 C 0 km/h
2514 17-08-2008 12:11:02 23.7 C 6.84 g/m*3 23.7 C 0 km/h
2515 17-08-2008 12:23:02 24.3 C 6.64 g/m*3 24.3 C 0 km/h
2516 17-08-2008 12:35:02 24.1 C 5.69 g/m*3 24.1 C 0 km/h
2517 17-08-2008 12:47:03 24.5 C 5.6 g/m*3 24.5 C 0 km/h
2518 17-08-2008 12:59:03 24.5 C 4.7 g/m*3 24.5 C 0 km/h
2519 17-08-2008 13:11:02 25 C 4.83 g/m*3 25 C 0 km/h
2520 17-08-2008 13:23:02 25.5 C 4.73 g/m*3 25.5 C 0 km/h
2521 17-08-2008 13:35:02 26.4 C 4.98 g/m*3 26.4 C 0 km/h
2522 17-08-2008 13:47:02 26.1 C 4.9 g/m*3 26.1 C 0 km/h
2523 17-08-2008 13:59:02 26.6 C 5.03 g/m*3 26.6 C 0 km/h
2524 17-08-2008 14:11:02 26.3 C 4.95 g/m*3 26.3 C 0 km/h
2525 17-08-2008 14:23:01 26.2 C 5.17 g/m*3 26.2 C 0 km/h
Sensor: Nr:Datum:Temp:Abs-Feuchte:Windchill:Wind:
Aussen-T/F 2526 17-08-2008 14:35:01 26.8 C 5.35 g/m*3 26.8 C 0 km/h
2527 17-08-2008 14:47:01 26.8 C 5.6 g/m*3 26.8 C 0 km/h
2528 17-08-2008 14:59:01 25.9 C 5.57 g/m*3 25.9 C 0 km/h
2529 17-08-2008 15:11:02 25.1 C 5.56 g/m*3 25.1 C 0 km/h
2530 17-08-2008 15:23:01 25.3 C 5.62 g/m*3 25.3 C 0 km/h
2531 17-08-2008 15:35:01 25.7 C 5.99 g/m*3 25.7 C 0 km/h
2532 17-08-2008 15:47:02 27.6 C 5.59 g/m*3 27.6 C 0 km/h
2533 17-08-2008 15:59:02 28.5 C 5.87 g/m*3 28.5 C 0 km/h
2534 17-08-2008 16:11:02 27.9 C 5.68 g/m*3 27.9 C 0 km/h
2535 17-08-2008 16:23:02 27.1 C 5.69 g/m*3 27.1 C 0 km/h
2536 17-08-2008 16:35:01 27.1 C 5.43 g/m*3 27.1 C 0 km/h
2537 17-08-2008 16:47:02 26.3 C 5.45 g/m*3 26.3 C 0 km/h
2538 17-08-2008 16:59:02 26.6 C 5.54 g/m*3 26.6 C 0 km/h
2539 17-08-2008 17:11:01 26.3 C 5.69 g/m*3 26.3 C 0 km/h
2540 17-08-2008 17:23:02 26 C 5.84 g/m*3 26 C 0 km/h
2541 17-08-2008 17:35:01 25.9 C 6.54 g/m*3 25.9 C 0 km/h
2542 17-08-2008 17:47:01 25.4 C 6.12 g/m*3 25.4 C 0 km/h
2543 17-08-2008 17:59:01 25.4 C 6.83 g/m*3 25.4 C 0 km/h
2544 17-08-2008 18:11:02 25.2 C 6.98 g/m*3 25.2 C 0 km/h
2545 17-08-2008 18:23:01 25.2 C 6.52 g/m*3 25.2 C 0 km/h
2546 17-08-2008 18:35:02 24.9 C 6.87 g/m*3 24.9 C 0 km/h
2547 17-08-2008 18:47:02 24.6 C 6.75 g/m*3 24.6 C 0 km/h
2548 17-08-2008 18:59:02 24.6 C 6.98 g/m*3 24.6 C 0 km/h
2549 17-08-2008 19:11:02 25.4 C 7.06 g/m*3 25.4 C 0 km/h
2550 17-08-2008 19:23:02 24.8 C 7.28 g/m*3 24.8 C 0 km/h
Sensor: Nr:Datum:Temp:Abs-Feuchte:Windchill:Wind:
Aussen-T/F 2551 17-08-2008 19:35:02 23.9 C 7.79 g/m*3 23.9 C 0 km/h
2552 17-08-2008 19:47:01 23.7 C 7.7 g/m*3 23.7 C 0 km/h
2553 17-08-2008 19:59:01 24.1 C 7.88 g/m*3 24.1 C 0 km/h
2554 17-08-2008 20:11:01 23.3 C 7.95 g/m*3 23.3 C 0 km/h
2555 17-08-2008 20:23:01 22.1 C 7.81 g/m*3 22.1 C 0 km/h
2556 17-08-2008 20:35:02 21.4 C 8.06 g/m*3 21.4 C 0 km/h
2557 17-08-2008 20:47:02 21.1 C 7.92 g/m*3 21.1 C 0 km/h
2558 17-08-2008 20:59:02 20.8 C 8.33 g/m*3 20.8 C 0 km/h
2559 17-08-2008 21:11:02 20.8 C 8.15 g/m*3 20.8 C 0 km/h
2560 17-08-2008 21:23:02 21 C 8.06 g/m*3 21 C 0 km/h
2561 17-08-2008 21:35:02 20.1 C 9.56 g/m*3 20.1 C 0 km/h
2562 17-08-2008 21:47:02 17.7 C 11.32 g/m*3 17.7 C 0 km/h
2563 17-08-2008 21:59:02 17.3 C 11.93 g/m*3 17.3 C 0 km/h
2564 17-08-2008 22:11:01 17.4 C 12.3 g/m*3 17.4 C 0 km/h
2565 17-08-2008 22:23:02 17.6 C 12.6 g/m*3 17.6 C 0 km/h
2566 17-08-2008 22:36:02 17.3 C 12.08 g/m*3 17.3 C 0 km/h
2567 17-08-2008 22:48:02 17.2 C 11.86 g/m*3 17.2 C 0 km/h
2568 17-08-2008 23:00:02 17 C 11.72 g/m*3 17 C 0 km/h
2569 17-08-2008 23:12:02 16.8 C 11.58 g/m*3 16.8 C 0 km/h
2570 17-08-2008 23:24:02 16.5 C 11.37 g/m*3 16.5 C 0 km/h
2571 17-08-2008 23:36:02 16.3 C 11.38 g/m*3 16.3 C 0 km/h
2572 17-08-2008 23:48:02 16.1 C 11.24 g/m*3 16.1 C 0 km/h
2573 18-08-2008 00:00:02 16.1 C 11.24 g/m*3 16.1 C 0 km/h
2574 18-08-2008 00:12:02 16 C 11.17 g/m*3 16 C 0 km/h
2575 18-08-2008 00:24:02 16.1 C 11.24 g/m*3 16.1 C 0 km/h
Sensor: Nr:Datum:Temp:Abs-Feuchte:Windchill:Wind:
Aussen-T/F 2576 18-08-2008 00:36:03 16.1 C 11.24 g/m*3 16.1 C 0 km/h
2577 18-08-2008 00:48:03 16.4 C 11.45 g/m*3 16.4 C 0 km/h
2578 18-08-2008 01:00:03 16.5 C 11.37 g/m*3 16.5 C 0 km/h
2579 18-08-2008 01:12:03 16.5 C 11.37 g/m*3 16.5 C 0 km/h
2580 18-08-2008 01:24:03 16.6 C 11.44 g/m*3 16.6 C 0 km/h
2581 18-08-2008 01:36:03 16.5 C 11.37 g/m*3 16.5 C 0 km/h
2582 18-08-2008 01:48:03 16.6 C 11.44 g/m*3 16.6 C 0 km/h
2583 18-08-2008 02:00:03 16.6 C 11.44 g/m*3 16.6 C 0 km/h
2584 18-08-2008 02:12:03 16.6 C 11.44 g/m*3 16.6 C 0 km/h
2585 18-08-2008 02:24:03 16.6 C 11.44 g/m*3 16.6 C 0 km/h
2586 18-08-2008 02:36:03 16.7 C 11.51 g/m*3 16.7 C 0 km/h
2587 18-08-2008 02:48:03 16.4 C 11.31 g/m*3 16.4 C 0 km/h
2588 18-08-2008 03:00:03 16.3 C 11.38 g/m*3 16.3 C 0 km/h
2589 18-08-2008 03:12:03 16.2 C 11.31 g/m*3 16.2 C 0 km/h
2590 18-08-2008 03:24:03 16 C 11.17 g/m*3 16 C 0 km/h
2591 18-08-2008 03:36:03 15.8 C 11.31 g/m*3 15.8 C 0 km/h
2592 18-08-2008 03:48:03 15.5 C 11.1 g/m*3 15.5 C 0 km/h
2593 18-08-2008 04:00:03 15.4 C 11.04 g/m*3 15.4 C 0 km/h
2594 18-08-2008 04:12:03 15.4 C 11.17 g/m*3 15.4 C 0 km/h
2595 18-08-2008 04:24:03 15.4 C 11.17 g/m*3 15.4 C 0 km/h
2596 18-08-2008 04:36:03 15.4 C 11.17 g/m*3 15.4 C 0 km/h
2597 18-08-2008 04:48:04 15.5 C 11.24 g/m*3 15.5 C 0 km/h
2598 18-08-2008 05:00:04 15.5 C 11.24 g/m*3 15.5 C 0 km/h
2599 18-08-2008 05:12:04 15.7 C 11.51 g/m*3 15.7 C 0 km/h
2600 18-08-2008 05:24:04 15.8 C 11.44 g/m*3 15.8 C 0 km/h
Sensor: Nr:Datum:Temp:Abs-Feuchte:Windchill:Wind:
Aussen-T/F 2601 18-08-2008 05:36:04 15.7 C 11.24 g/m*3 15.7 C 0 km/h
2602 18-08-2008 05:48:04 15.8 C 11.44 g/m*3 15.8 C 0 km/h
2603 18-08-2008 06:00:04 15.9 C 11.38 g/m*3 15.9 C 0 km/h
2604 18-08-2008 06:12:04 15.9 C 11.38 g/m*3 15.9 C 0 km/h
2605 18-08-2008 06:24:04 15.5 C 11.1 g/m*3 15.5 C 0 km/h
2606 18-08-2008 06:36:04 15.3 C 10.97 g/m*3 15.3 C 0 km/h
2607 18-08-2008 06:48:02 15.2 C 11.03 g/m*3 15.2 C 0 km/h
2608 18-08-2008 07:00:03 15.2 C 11.03 g/m*3 15.2 C 0 km/h
2609 18-08-2008 07:12:02 15.2 C 11.16 g/m*3 15.2 C 0 km/h
2610 18-08-2008 07:24:02 15.2 C 11.16 g/m*3 15.2 C 0 km/h
2611 18-08-2008 07:36:02 15.2 C 11.29 g/m*3 15.2 C 0 km/h
2612 18-08-2008 07:48:02 15.3 C 11.36 g/m*3 15.3 C 0 km/h
2613 18-08-2008 08:00:02 15.5 C 11.5 g/m*3 15.5 C 0 km/h
2614 18-08-2008 08:12:01 15.9 C 11.65 g/m*3 15.9 C 0 km/h
2615 18-08-2008 08:24:02 16.4 C 11.72 g/m*3 16.4 C 0 km/h
2616 18-08-2008 08:36:01 16.8 C 11.72 g/m*3 16.8 C 0 km/h
2617 18-08-2008 08:48:02 17.1 C 11.5 g/m*3 17.1 C 0 km/h
2618 18-08-2008 09:00:02 17.9 C 11.76 g/m*3 17.9 C 0 km/h
2619 18-08-2008 09:12:01 18.3 C 11.57 g/m*3 18.3 C 0 km/h
2620 18-08-2008 09:24:01 18.8 C 11.76 g/m*3 18.8 C 0 km/h
2621 18-08-2008 09:36:01 19.6 C 11.65 g/m*3 19.6 C 0 km/h
2622 18-08-2008 09:48:02 20 C 10.89 g/m*3 20 C 0 km/h
2623 18-08-2008 10:00:02 20.1 C 10.95 g/m*3 20.1 C 0 km/h
2624 18-08-2008 10:12:02 20.4 C 10.79 g/m*3 20.4 C 0 km/h
2625 18-08-2008 10:24:02 20.6 C 11.1 g/m*3 20.6 C 0 km/h
Sensor: Nr:Datum:Temp:Abs-Feuchte:Windchill:Wind:
Aussen-T/F 2626 18-08-2008 10:36:02 21 C 10.62 g/m*3 21 C 0 km/h
2627 18-08-2008 10:48:02 21.3 C 10.44 g/m*3 21.3 C 0 km/h
2628 18-08-2008 11:00:02 21.6 C 10.24 g/m*3 21.6 C 0 km/h
2629 18-08-2008 11:12:02 22 C 10.48 g/m*3 22 C 0 km/h
2630 18-08-2008 11:24:03 22.5 C 10.39 g/m*3 22.5 C 0 km/h
2631 18-08-2008 11:36:02 22.7 C 9.7 g/m*3 22.7 C 0 km/h
2632 18-08-2008 11:48:02 23.2 C 9.77 g/m*3 23.2 C 0 km/h
2633 18-08-2008 12:00:02 23.8 C 9.46 g/m*3 23.8 C 0 km/h
2634 18-08-2008 12:12:02 23.9 C 9.52 g/m*3 23.9 C 0 km/h
2635 18-08-2008 12:24:02 23.5 C 9.52 g/m*3 23.5 C 0 km/h
2636 18-08-2008 12:36:02 23.6 C 9.36 g/m*3 23.6 C 0 km/h
2637 18-08-2008 12:48:01 23.5 C 9.31 g/m*3 23.5 C 0 km/h
2638 18-08-2008 13:00:01 23.7 C 9.41 g/m*3 23.7 C 0 km/h
2639 18-08-2008 13:12:02 24.1 C 9.41 g/m*3 24.1 C 0 km/h
2640 18-08-2008 13:24:01 24.8 C 9.1 g/m*3 24.8 C 0 km/h
2641 18-08-2008 13:36:02 25.5 C 9 g/m*3 25.5 C 0 km/h
2642 18-08-2008 13:48:02 25.9 C 8.72 g/m*3 25.9 C 0 km/h
2643 18-08-2008 14:00:02 24.7 C 8.6 g/m*3 24.7 C 0 km/h
2644 18-08-2008 14:12:02 24.6 C 8.78 g/m*3 24.6 C 0 km/h
2645 18-08-2008 14:24:02 23.9 C 9.3 g/m*3 23.9 C 0 km/h
2646 18-08-2008 14:36:02 24.7 C 9.05 g/m*3 24.7 C 0 km/h
2647 18-08-2008 14:48:01 25.3 C 8.66 g/m*3 25.3 C 0 km/h
2648 18-08-2008 15:00:01 25.4 C 8.48 g/m*3 25.4 C 0 km/h
2649 18-08-2008 15:12:01 25.5 C 8.29 g/m*3 25.5 C 0 km/h
2650 18-08-2008 15:24:01 25.3 C 8.19 g/m*3 25.3 C 0 km/h
Sensor: Nr:Datum:Temp:Abs-Feuchte:Windchill:Wind:
Aussen-T/F 2651 18-08-2008 15:36:02 25.2 C 8.15 g/m*3 25.2 C 0 km/h
2652 18-08-2008 15:48:02 25.1 C 8.1 g/m*3 25.1 C 0 km/h
2653 18-08-2008 16:00:02 25.4 C 8.71 g/m*3 25.4 C 0 km/h
2654 18-08-2008 16:12:02 25.7 C 9.1 g/m*3 25.7 C 0 km/h
2655 18-08-2008 16:24:02 26.2 C 8.62 g/m*3 26.2 C 0 km/h
2656 18-08-2008 16:36:02 26.4 C 8.46 g/m*3 26.4 C 0 km/h
2657 18-08-2008 16:48:02 27.9 C 8.11 g/m*3 27.9 C 0 km/h
2658 18-08-2008 17:00:02 29 C 7.76 g/m*3 29 C 0 km/h
2659 18-08-2008 17:12:02 29.8 C 7.2 g/m*3 29.8 C 0 km/h
2660 18-08-2008 17:24:02 29.4 C 7.34 g/m*3 29.4 C 0 km/h
2661 18-08-2008 17:36:02 28.6 C 7.03 g/m*3 28.6 C 0 km/h
2662 18-08-2008 17:48:02 29.7 C 6.86 g/m*3 29.7 C 0 km/h
2663 18-08-2008 18:00:02 30 C 6.97 g/m*3 30 C 0 km/h
2664 18-08-2008 18:12:03 29.6 C 6.83 g/m*3 29.6 C 0 km/h
2665 18-08-2008 18:24:02 28.5 C 6.99 g/m*3 28.5 C 0 km/h
2666 18-08-2008 18:36:03 28.9 C 7.14 g/m*3 28.9 C 0 km/h
2667 18-08-2008 18:48:02 28 C 7.07 g/m*3 28 C 0 km/h
2668 18-08-2008 19:00:03 28 C 7.34 g/m*3 28 C 0 km/h
2669 18-08-2008 19:12:01 28 C 7.34 g/m*3 28 C 0 km/h
2670 18-08-2008 19:24:02 27.5 C 7.67 g/m*3 27.5 C 0 km/h
2671 18-08-2008 19:36:01 27.6 C 7.71 g/m*3 27.6 C 0 km/h
2672 18-08-2008 19:48:02 28.2 C 8.25 g/m*3 28.2 C 0 km/h
2673 18-08-2008 20:00:02 27.5 C 8.2 g/m*3 27.5 C 0 km/h
2674 18-08-2008 20:12:01 26.3 C 8.66 g/m*3 26.3 C 0 km/h
2675 18-08-2008 20:24:02 25.3 C 8.9 g/m*3 25.3 C 0 km/h
Sensor: Nr:Datum:Temp:Abs-Feuchte:Windchill:Wind:
Aussen-T/F 2676 18-08-2008 20:36:01 24.6 C 9.23 g/m*3 24.6 C 0 km/h
2677 18-08-2008 20:48:03 24.1 C 9.19 g/m*3 24.1 C 0 km/h
2678 18-08-2008 21:00:03 23.7 C 9.63 g/m*3 23.7 C 0 km/h
2679 18-08-2008 21:12:02 23.4 C 9.25 g/m*3 23.4 C 0 km/h
2680 18-08-2008 21:24:03 23 C 9.45 g/m*3 23 C 0 km/h
2681 18-08-2008 21:36:02 22.8 C 9.35 g/m*3 22.8 C 0 km/h
2682 18-08-2008 21:48:02 22.6 C 9.64 g/m*3 22.6 C 0 km/h
2683 18-08-2008 22:00:02 22.4 C 9.33 g/m*3 22.4 C 0 km/h
2684 18-08-2008 22:13:01 22.4 C 9.33 g/m*3 22.4 C 0 km/h
2685 18-08-2008 22:25:01 22.3 C 9.48 g/m*3 22.3 C 0 km/h
2686 18-08-2008 22:37:01 22.1 C 9.56 g/m*3 22.1 C 0 km/h
2687 18-08-2008 22:49:01 22 C 9.32 g/m*3 22 C 0 km/h
2688 18-08-2008 23:01:01 21.9 C 9.46 g/m*3 21.9 C 0 km/h
2689 18-08-2008 23:13:01 22 C 9.12 g/m*3 22 C 0 km/h
2690 18-08-2008 23:25:01 21.8 C 9.78 g/m*3 21.8 C 0 km/h
2691 18-08-2008 23:37:01 21.7 C 9.92 g/m*3 21.7 C 0 km/h
2692 18-08-2008 23:49:01 21.6 C 9.86 g/m*3 21.6 C 0 km/h
2693 19-08-2008 00:01:01 21.8 C 9.98 g/m*3 21.8 C 0 km/h
2694 19-08-2008 00:13:01 22 C 10.29 g/m*3 22 C 0 km/h
2695 19-08-2008 00:25:02 20.7 C 11.34 g/m*3 20.7 C 0 km/h
2696 19-08-2008 00:37:02 20.5 C 11.74 g/m*3 20.5 C 0 km/h
2697 19-08-2008 00:49:02 20.5 C 11.92 g/m*3 20.5 C 0 km/h
2698 19-08-2008 01:01:02 20.6 C 12.17 g/m*3 20.6 C 0 km/h
2699 19-08-2008 01:13:02 20.2 C 11.89 g/m*3 20.2 C 0 km/h
2700 19-08-2008 01:25:02 19.8 C 11.79 g/m*3 19.8 C 0 km/h
Sensor: Nr:Datum:Temp:Abs-Feuchte:Windchill:Wind:
Aussen-T/F 2701 19-08-2008 01:37:02 19.7 C 11.72 g/m*3 19.7 C 0 km/h
2702 19-08-2008 01:49:02 19.5 C 11.75 g/m*3 19.5 C 0 km/h
2703 19-08-2008 02:01:02 19.5 C 11.75 g/m*3 19.5 C 0 km/h
2704 19-08-2008 02:13:02 19.2 C 11.54 g/m*3 19.2 C 0 km/h
2705 19-08-2008 02:25:02 19.3 C 11.78 g/m*3 19.3 C 0 km/h
2706 19-08-2008 02:37:02 19.1 C 11.64 g/m*3 19.1 C 0 km/h
2707 19-08-2008 02:49:02 18.9 C 11.83 g/m*3 18.9 C 0 km/h
2708 19-08-2008 03:01:02 18.7 C 11.69 g/m*3 18.7 C 0 km/h
2709 19-08-2008 03:13:02 18.8 C 11.92 g/m*3 18.8 C 0 km/h
2710 19-08-2008 03:25:02 19 C 11.9 g/m*3 19 C 0 km/h
2711 19-08-2008 03:37:02 18.9 C 11.83 g/m*3 18.9 C 0 km/h
2712 19-08-2008 03:49:02 18.7 C 11.69 g/m*3 18.7 C 0 km/h
2713 19-08-2008 04:01:02 18.6 C 11.78 g/m*3 18.6 C 0 km/h
2714 19-08-2008 04:13:02 18.5 C 11.71 g/m*3 18.5 C 0 km/h
2715 19-08-2008 04:25:03 18.5 C 11.71 g/m*3 18.5 C 0 km/h
2716 19-08-2008 04:37:03 18.9 C 11.34 g/m*3 18.9 C 0 km/h
2717 19-08-2008 04:49:03 19.1 C 10.66 g/m*3 19.1 C 0 km/h
2718 19-08-2008 05:01:03 19.2 C 10.72 g/m*3 19.2 C 0 km/h
2719 19-08-2008 05:13:03 19 C 10.59 g/m*3 19 C 0 km/h
2720 19-08-2008 05:25:03 18.8 C 10.79 g/m*3 18.8 C 0 km/h
2721 19-08-2008 05:37:03 18.6 C 10.82 g/m*3 18.6 C 0 km/h
2722 19-08-2008 05:49:03 18.3 C 10.79 g/m*3 18.3 C 0 km/h
2723 19-08-2008 06:01:03 18.3 C 10.79 g/m*3 18.3 C 0 km/h
2724 19-08-2008 06:13:03 18.3 C 10.32 g/m*3 18.3 C 0 km/h
2725 19-08-2008 06:25:03 18.5 C 9.97 g/m*3 18.5 C 0 km/h
Sensor: Nr:Datum:Temp:Abs-Feuchte:Windchill:Wind:
Aussen-T/F 2726 19-08-2008 06:37:03 18.7 C 9.77 g/m*3 18.7 C 0 km/h
2727 19-08-2008 06:49:03 18.5 C 9.65 g/m*3 18.5 C 0 km/h
2728 19-08-2008 07:01:02 18.5 C 9.49 g/m*3 18.5 C 0 km/h
2729 19-08-2008 07:13:02 18.4 C 9.59 g/m*3 18.4 C 0 km/h
2730 19-08-2008 07:25:02 18.2 C 9.64 g/m*3 18.2 C 0 km/h
2731 19-08-2008 07:37:02 18 C 9.68 g/m*3 18 C 0 km/h
2732 19-08-2008 07:49:02 18.5 C 9.49 g/m*3 18.5 C 0 km/h
2733 19-08-2008 08:01:03 19 C 9.29 g/m*3 19 C 0 km/h
2734 19-08-2008 08:13:03 19.4 C 8.84 g/m*3 19.4 C 0 km/h
2735 19-08-2008 08:25:02 19.5 C 8.89 g/m*3 19.5 C 0 km/h
2736 19-08-2008 08:37:02 19.7 C 8.83 g/m*3 19.7 C 0 km/h
2737 19-08-2008 08:49:02 19.9 C 8.59 g/m*3 19.9 C 0 km/h
2738 19-08-2008 09:01:02 20 C 8.47 g/m*3 20 C 0 km/h
2739 19-08-2008 09:13:02 20.2 C 8.57 g/m*3 20.2 C 0 km/h
2740 19-08-2008 09:25:02 20.1 C 8.52 g/m*3 20.1 C 0 km/h
2741 19-08-2008 09:37:02 20 C 8.47 g/m*3 20 C 0 km/h
2742 19-08-2008 09:49:02 20.2 C 8.74 g/m*3 20.2 C 0 km/h
2743 19-08-2008 10:01:02 20.3 C 8.62 g/m*3 20.3 C 0 km/h
2744 19-08-2008 10:13:02 20.7 C 8.82 g/m*3 20.7 C 0 km/h
2745 19-08-2008 10:25:02 21 C 8.61 g/m*3 21 C 0 km/h
2746 19-08-2008 10:37:02 20.8 C 8.87 g/m*3 20.8 C 0 km/h
2747 19-08-2008 10:49:02 21.2 C 8.9 g/m*3 21.2 C 0 km/h
2748 19-08-2008 11:01:02 21.3 C 8.95 g/m*3 21.3 C 0 km/h
2749 19-08-2008 11:13:02 21.6 C 8.91 g/m*3 21.6 C 0 km/h
2750 19-08-2008 11:25:02 21.5 C 8.86 g/m*3 21.5 C 0 km/h
Sensor: Nr:Datum:Temp:Abs-Feuchte:Windchill:Wind:
Aussen-T/F 2751 19-08-2008 11:37:02 22.2 C 8.83 g/m*3 22.2 C 0 km/h
2752 19-08-2008 11:49:02 21.9 C 8.68 g/m*3 21.9 C 0 km/h
2753 19-08-2008 12:01:03 22.6 C 8.84 g/m*3 22.6 C 0 km/h
2754 19-08-2008 12:13:03 22.7 C 8.49 g/m*3 22.7 C 0 km/h
2755 19-08-2008 12:25:02 22.5 C 8.39 g/m*3 22.5 C 0 km/h
2756 19-08-2008 12:37:03 22.7 C 8.28 g/m*3 22.7 C 0 km/h
2757 19-08-2008 12:49:02 22.8 C 8.13 g/m*3 22.8 C 0 km/h
2758 19-08-2008 13:01:01 23 C 8.02 g/m*3 23 C 0 km/h
2759 19-08-2008 13:13:01 23.5 C 8.04 g/m*3 23.5 C 0 km/h
2760 19-08-2008 13:25:02 23.9 C 8.22 g/m*3 23.9 C 0 km/h
2761 19-08-2008 13:37:01 23.7 C 7.91 g/m*3 23.7 C 0 km/h
2762 19-08-2008 13:49:02 23.7 C 8.13 g/m*3 23.7 C 0 km/h
2763 19-08-2008 14:01:01 24.3 C 7.97 g/m*3 24.3 C 0 km/h
2764 19-08-2008 14:13:01 24.5 C 7.83 g/m*3 24.5 C 0 km/h
2765 19-08-2008 14:25:02 24.2 C 7.7 g/m*3 24.2 C 0 km/h
2766 19-08-2008 14:37:01 23.6 C 7.87 g/m*3 23.6 C 0 km/h
2767 19-08-2008 14:49:02 23.1 C 7.86 g/m*3 23.1 C 0 km/h
2768 19-08-2008 15:01:01 23.1 C 7.86 g/m*3 23.1 C 0 km/h
2769 19-08-2008 15:13:01 23.9 C 8.22 g/m*3 23.9 C 0 km/h
2770 19-08-2008 15:25:02 24.1 C 7.88 g/m*3 24.1 C 0 km/h
2771 19-08-2008 15:37:01 24.5 C 8.06 g/m*3 24.5 C 0 km/h
2772 19-08-2008 15:49:01 24.4 C 8.01 g/m*3 24.4 C 0 km/h
2773 19-08-2008 16:01:01 23.6 C 8.08 g/m*3 23.6 C 0 km/h
2774 19-08-2008 16:13:01 23.5 C 8.25 g/m*3 23.5 C 0 km/h
2775 19-08-2008 16:25:02 23.6 C 8.08 g/m*3 23.6 C 0 km/h
Sensor: Nr:Datum:Temp:Abs-Feuchte:Windchill:Wind:
Aussen-T/F 2776 19-08-2008 16:37:01 24 C 7.83 g/m*3 24 C 0 km/h
2777 19-08-2008 16:49:01 24.1 C 7.88 g/m*3 24.1 C 0 km/h
2778 19-08-2008 17:01:01 23.9 C 8 g/m*3 23.9 C 0 km/h
2779 19-08-2008 17:13:01 23.6 C 8.08 g/m*3 23.6 C 0 km/h
2780 19-08-2008 17:25:01 23.5 C 8.25 g/m*3 23.5 C 0 km/h
2781 19-08-2008 17:37:01 23.2 C 8.32 g/m*3 23.2 C 0 km/h
2782 19-08-2008 17:49:01 22.8 C 8.33 g/m*3 22.8 C 0 km/h
2783 19-08-2008 18:01:02 22.9 C 8.79 g/m*3 22.9 C 0 km/h
2784 19-08-2008 18:13:02 22.8 C 8.53 g/m*3 22.8 C 0 km/h
2785 19-08-2008 18:25:01 22.6 C 8.44 g/m*3 22.6 C 0 km/h
2786 19-08-2008 18:37:02 22.5 C 8.59 g/m*3 22.5 C 0 km/h
2787 19-08-2008 18:49:02 22.3 C 8.49 g/m*3 22.3 C 0 km/h
2788 19-08-2008 19:01:02 22.2 C 8.64 g/m*3 22.2 C 0 km/h
2789 19-08-2008 19:13:02 21.8 C 8.83 g/m*3 21.8 C 0 km/h
2790 19-08-2008 19:25:02 21.5 C 8.86 g/m*3 21.5 C 0 km/h
2791 19-08-2008 19:37:02 21.4 C 9.19 g/m*3 21.4 C 0 km/h
2792 19-08-2008 19:49:01 21.3 C 9.32 g/m*3 21.3 C 0 km/h
2793 19-08-2008 20:01:01 21.3 C 9.32 g/m*3 21.3 C 0 km/h
2794 19-08-2008 20:13:01 21.5 C 9.24 g/m*3 21.5 C 0 km/h
2795 19-08-2008 20:25:01 21.2 C 9.27 g/m*3 21.2 C 0 km/h
2796 19-08-2008 20:37:02 20.8 C 9.42 g/m*3 20.8 C 0 km/h
2797 19-08-2008 20:49:02 20.4 C 9.38 g/m*3 20.4 C 0 km/h
2798 19-08-2008 21:01:02 20 C 9.33 g/m*3 20 C 0 km/h
2799 19-08-2008 21:13:02 19.8 C 9.39 g/m*3 19.8 C 0 km/h
2800 19-08-2008 21:25:02 19.5 C 9.4 g/m*3 19.5 C 0 km/h
Sensor: Nr:Datum:Temp:Abs-Feuchte:Windchill:Wind:
Aussen-T/F 2801 19-08-2008 21:37:02 19.4 C 9.51 g/m*3 19.4 C 0 km/h
2802 19-08-2008 21:50:02 19.2 C 9.56 g/m*3 19.2 C 0 km/h
2803 19-08-2008 22:02:02 19.1 C 9.51 g/m*3 19.1 C 0 km/h
2804 19-08-2008 22:14:02 19 C 9.61 g/m*3 19 C 0 km/h
2805 19-08-2008 22:26:02 18.9 C 9.72 g/m*3 18.9 C 0 km/h
2806 19-08-2008 22:38:02 18.9 C 9.72 g/m*3 18.9 C 0 km/h
2807 19-08-2008 22:50:02 18.9 C 9.72 g/m*3 18.9 C 0 km/h
2808 19-08-2008 23:02:02 18.8 C 9.82 g/m*3 18.8 C 0 km/h
2809 19-08-2008 23:14:02 18.5 C 9.81 g/m*3 18.5 C 0 km/h
2810 19-08-2008 23:26:02 18.6 C 9.87 g/m*3 18.6 C 0 km/h
2811 19-08-2008 23:38:03 18.3 C 10.01 g/m*3 18.3 C 0 km/h
2812 19-08-2008 23:50:03 17.8 C 10.47 g/m*3 17.8 C 0 km/h
2813 20-08-2008 00:02:03 17.7 C 10.41 g/m*3 17.7 C 0 km/h
2814 20-08-2008 00:14:03 18.1 C 10.2 g/m*3 18.1 C 0 km/h
2815 20-08-2008 00:26:03 18.2 C 10.1 g/m*3 18.2 C 0 km/h
2816 20-08-2008 00:38:03 18.1 C 10.2 g/m*3 18.1 C 0 km/h
2817 20-08-2008 00:50:03 17.9 C 10.69 g/m*3 17.9 C 0 km/h
2818 20-08-2008 01:02:03 17.8 C 10.62 g/m*3 17.8 C 0 km/h
2819 20-08-2008 01:14:03 18.1 C 10.35 g/m*3 18.1 C 0 km/h
2820 20-08-2008 01:26:03 17 C 11.29 g/m*3 17 C 0 km/h
2821 20-08-2008 01:38:03 16.7 C 11.65 g/m*3 16.7 C 0 km/h
2822 20-08-2008 01:50:03 16.6 C 11.72 g/m*3 16.6 C 0 km/h
2823 20-08-2008 02:02:03 16.8 C 11.72 g/m*3 16.8 C 0 km/h
2824 20-08-2008 02:14:03 16.8 C 11.44 g/m*3 16.8 C 0 km/h
2825 20-08-2008 02:26:03 16.9 C 11.36 g/m*3 16.9 C 0 km/h
Sensor: Nr:Datum:Temp:Abs-Feuchte:Windchill:Wind:
Aussen-T/F 2826 20-08-2008 02:38:03 16.7 C 11.23 g/m*3 16.7 C 0 km/h
2827 20-08-2008 02:50:03 16.7 C 11.08 g/m*3 16.7 C 0 km/h
2828 20-08-2008 03:02:03 16.7 C 10.94 g/m*3 16.7 C 0 km/h
2829 20-08-2008 03:14:03 16.6 C 10.74 g/m*3 16.6 C 0 km/h
2830 20-08-2008 03:26:04 16.5 C 10.67 g/m*3 16.5 C 0 km/h
2831 20-08-2008 03:38:04 16.4 C 10.75 g/m*3 16.4 C 0 km/h
2832 20-08-2008 03:50:04 16.3 C 10.82 g/m*3 16.3 C 0 km/h
2833 20-08-2008 04:02:04 16.5 C 10.81 g/m*3 16.5 C 0 km/h
2834 20-08-2008 04:14:04 16.6 C 10.74 g/m*3 16.6 C 0 km/h
2835 20-08-2008 04:26:04 16.5 C 10.67 g/m*3 16.5 C 0 km/h
2836 20-08-2008 04:38:04 16.4 C 10.61 g/m*3 16.4 C 0 km/h
2837 20-08-2008 04:50:04 16.3 C 10.54 g/m*3 16.3 C 0 km/h
2838 20-08-2008 05:02:04 16.4 C 10.61 g/m*3 16.4 C 0 km/h
2839 20-08-2008 05:14:04 16.4 C 10.61 g/m*3 16.4 C 0 km/h
2840 20-08-2008 05:26:04 16.2 C 10.48 g/m*3 16.2 C 0 km/h
2841 20-08-2008 05:38:04 16.2 C 10.48 g/m*3 16.2 C 0 km/h
2842 20-08-2008 05:50:04 16.1 C 10.28 g/m*3 16.1 C 0 km/h
2843 20-08-2008 06:02:04 16 C 10.22 g/m*3 16 C 0 km/h
2844 20-08-2008 06:14:04 16.1 C 10.42 g/m*3 16.1 C 0 km/h
2845 20-08-2008 06:26:04 16 C 10.35 g/m*3 16 C 0 km/h
2846 20-08-2008 06:38:04 15.8 C 10.36 g/m*3 15.8 C 0 km/h
2847 20-08-2008 06:50:04 15.8 C 10.36 g/m*3 15.8 C 0 km/h
2848 20-08-2008 07:02:02 15.8 C 10.36 g/m*3 15.8 C 0 km/h
2849 20-08-2008 07:14:02 16 C 10.22 g/m*3 16 C 0 km/h
2850 20-08-2008 07:26:02 16.2 C 10.2 g/m*3 16.2 C 0 km/h
Sensor: Nr:Datum:Temp:Abs-Feuchte:Windchill:Wind:
Aussen-T/F 2851 20-08-2008 07:38:02 16.2 C 10.07 g/m*3 16.2 C 0 km/h
2852 20-08-2008 07:50:02 16.2 C 9.79 g/m*3 16.2 C 0 km/h
2853 20-08-2008 08:02:03 16.2 C 9.93 g/m*3 16.2 C 0 km/h
2854 20-08-2008 08:14:03 16.3 C 9.85 g/m*3 16.3 C 0 km/h
2855 20-08-2008 08:26:02 16.5 C 9.69 g/m*3 16.5 C 0 km/h
2856 20-08-2008 08:38:02 16.6 C 9.61 g/m*3 16.6 C 0 km/h
2857 20-08-2008 08:50:02 16.7 C 9.52 g/m*3 16.7 C 0 km/h
2858 20-08-2008 09:02:02 16.9 C 9.35 g/m*3 16.9 C 0 km/h
2859 20-08-2008 09:14:02 17 C 8.97 g/m*3 17 C 0 km/h
2860 20-08-2008 09:26:02 17.5 C 9.24 g/m*3 17.5 C 0 km/h
2861 20-08-2008 09:38:02 18 C 9.22 g/m*3 18 C 0 km/h
2862 20-08-2008 09:50:02 18.2 C 9.01 g/m*3 18.2 C 0 km/h
2863 20-08-2008 10:02:03 18.9 C 9.23 g/m*3 18.9 C 0 km/h
2864 20-08-2008 10:14:03 18.8 C 9.18 g/m*3 18.8 C 0 km/h
2865 20-08-2008 10:26:02 18.7 C 9.13 g/m*3 18.7 C 0 km/h
2866 20-08-2008 10:38:02 19.4 C 9.01 g/m*3 19.4 C 0 km/h
2867 20-08-2008 10:50:02 19.4 C 9.01 g/m*3 19.4 C 0 km/h
2868 20-08-2008 11:02:02 19.7 C 9 g/m*3 19.7 C 0 km/h
2869 20-08-2008 11:14:02 19.5 C 8.73 g/m*3 19.5 C 0 km/h
2870 20-08-2008 11:26:02 19.5 C 9.06 g/m*3 19.5 C 0 km/h
2871 20-08-2008 11:38:02 20.4 C 8.67 g/m*3 20.4 C 0 km/h
2872 20-08-2008 11:50:02 19.8 C 8.37 g/m*3 19.8 C 0 km/h
2873 20-08-2008 12:02:02 20.2 C 8.57 g/m*3 20.2 C 0 km/h
2874 20-08-2008 12:14:02 21.1 C 8.48 g/m*3 21.1 C 0 km/h
2875 20-08-2008 12:26:02 21.1 C 8.11 g/m*3 21.1 C 0 km/h
Sensor: Nr:Datum:Temp:Abs-Feuchte:Windchill:Wind:
Aussen-T/F 2876 20-08-2008 12:38:02 20.8 C 8.33 g/m*3 20.8 C 0 km/h
2877 20-08-2008 12:50:02 20.9 C 8.2 g/m*3 20.9 C 0 km/h
2878 20-08-2008 13:02:02 20.9 C 8.38 g/m*3 20.9 C 0 km/h
2879 20-08-2008 13:14:03 20.3 C 8.44 g/m*3 20.3 C 0 km/h
2880 20-08-2008 13:26:02 20.5 C 8.54 g/m*3 20.5 C 0 km/h
2881 20-08-2008 13:38:02 21.1 C 8.29 g/m*3 21.1 C 0 km/h
2882 20-08-2008 13:50:01 21.1 C 8.29 g/m*3 21.1 C 0 km/h
2883 20-08-2008 14:02:02 21.2 C 8.34 g/m*3 21.2 C 0 km/h
2884 20-08-2008 14:14:02 22 C 7.96 g/m*3 22 C 0 km/h
2885 20-08-2008 14:26:01 22.1 C 7.61 g/m*3 22.1 C 0 km/h
2886 20-08-2008 14:38:02 22.5 C 7.99 g/m*3 22.5 C 0 km/h
2887 20-08-2008 14:50:02 22.5 C 7.99 g/m*3 22.5 C 0 km/h
2888 20-08-2008 15:02:02 22.4 C 8.14 g/m*3 22.4 C 0 km/h
2889 20-08-2008 15:14:02 21.7 C 7.82 g/m*3 21.7 C 0 km/h
2890 20-08-2008 15:26:02 22.5 C 7.99 g/m*3 22.5 C 0 km/h
2891 20-08-2008 15:38:01 23 C 7.4 g/m*3 23 C 0 km/h
2892 20-08-2008 15:50:02 21.9 C 7.53 g/m*3 21.9 C 0 km/h
2893 20-08-2008 16:02:01 22.2 C 7.66 g/m*3 22.2 C 0 km/h
2894 20-08-2008 16:14:01 22.5 C 7.79 g/m*3 22.5 C 0 km/h
2895 20-08-2008 16:26:02 20.3 C 8.09 g/m*3 20.3 C 0 km/h
2896 20-08-2008 16:38:01 20.4 C 7.78 g/m*3 20.4 C 0 km/h
2897 20-08-2008 16:50:02 20.9 C 7.83 g/m*3 20.9 C 0 km/h
2898 20-08-2008 17:02:01 22.7 C 7.68 g/m*3 22.7 C 0 km/h
2899 20-08-2008 17:14:01 22.9 C 7.56 g/m*3 22.9 C 0 km/h
2900 20-08-2008 17:26:02 23.2 C 7.48 g/m*3 23.2 C 0 km/h
Sensor: Nr:Datum:Temp:Abs-Feuchte:Windchill:Wind:
Aussen-T/F 2901 20-08-2008 17:38:01 23.4 C 7.57 g/m*3 23.4 C 0 km/h
2902 20-08-2008 17:50:01 24.1 C 7.66 g/m*3 24.1 C 0 km/h
2903 20-08-2008 18:02:02 22.7 C 7.27 g/m*3 22.7 C 0 km/h
2904 20-08-2008 18:14:03 22.2 C 7.07 g/m*3 22.2 C 0 km/h
2905 20-08-2008 18:26:01 21.6 C 7.21 g/m*3 21.6 C 0 km/h
2906 20-08-2008 18:38:02 21.3 C 7.46 g/m*3 21.3 C 0 km/h
2907 20-08-2008 18:50:02 20.6 C 7.16 g/m*3 20.6 C 0 km/h
2908 20-08-2008 19:02:02 20.6 C 7.34 g/m*3 20.6 C 0 km/h
2909 20-08-2008 19:14:02 20.5 C 7.47 g/m*3 20.5 C 0 km/h
2910 20-08-2008 19:26:02 20.3 C 7.56 g/m*3 20.3 C 0 km/h
2911 20-08-2008 19:38:02 20.1 C 7.65 g/m*3 20.1 C 0 km/h
2912 20-08-2008 19:50:02 20 C 7.78 g/m*3 20 C 0 km/h
2913 20-08-2008 20:02:03 19.8 C 7.69 g/m*3 19.8 C 0 km/h
2914 20-08-2008 20:14:03 19.7 C 7.81 g/m*3 19.7 C 0 km/h
2915 20-08-2008 20:26:02 19.4 C 7.84 g/m*3 19.4 C 0 km/h
2916 20-08-2008 20:38:03 19.2 C 7.91 g/m*3 19.2 C 0 km/h
2917 20-08-2008 20:50:02 18.9 C 8.42 g/m*3 18.9 C 0 km/h
2918 20-08-2008 21:02:01 18.6 C 8.59 g/m*3 18.6 C 0 km/h
2919 20-08-2008 21:14:01 18.6 C 8.59 g/m*3 18.6 C 0 km/h
2920 20-08-2008 21:26:02 18.4 C 8.65 g/m*3 18.4 C 0 km/h
2921 20-08-2008 21:38:02 18.2 C 8.86 g/m*3 18.2 C 0 km/h
2922 20-08-2008 21:50:02 17.9 C 9.01 g/m*3 17.9 C 0 km/h
2923 20-08-2008 22:02:01 17.7 C 9.05 g/m*3 17.7 C 0 km/h
2924 20-08-2008 22:14:01 17.7 C 9.05 g/m*3 17.7 C 0 km/h
2925 20-08-2008 22:26:02 17.8 C 9.11 g/m*3 17.8 C 0 km/h
Sensor: Nr:Datum:Temp:Abs-Feuchte:Windchill:Wind:
Aussen-T/F 2926 20-08-2008 22:38:01 17.8 C 8.95 g/m*3 17.8 C 0 km/h
2927 20-08-2008 22:51:01 17.8 C 8.95 g/m*3 17.8 C 0 km/h
2928 20-08-2008 23:03:01 17.8 C 8.95 g/m*3 17.8 C 0 km/h
2929 20-08-2008 23:15:01 17.7 C 9.05 g/m*3 17.7 C 0 km/h
2930 20-08-2008 23:27:01 17.7 C 9.05 g/m*3 17.7 C 0 km/h
2931 20-08-2008 23:39:01 17.6 C 9 g/m*3 17.6 C 0 km/h
2932 20-08-2008 23:51:01 17.5 C 9.09 g/m*3 17.5 C 0 km/h
2933 21-08-2008 00:03:01 17.4 C 9.04 g/m*3 17.4 C 0 km/h
2934 21-08-2008 00:15:01 17.5 C 9.24 g/m*3 17.5 C 0 km/h
2935 21-08-2008 00:27:02 17.3 C 9.13 g/m*3 17.3 C 0 km/h
2936 21-08-2008 00:39:02 17.2 C 8.93 g/m*3 17.2 C 0 km/h
2937 21-08-2008 00:51:02 17.1 C 8.88 g/m*3 17.1 C 0 km/h
2938 21-08-2008 01:03:02 17 C 8.97 g/m*3 17 C 0 km/h
2939 21-08-2008 01:15:02 16.8 C 9.01 g/m*3 16.8 C 0 km/h
2940 21-08-2008 01:27:02 16.7 C 8.95 g/m*3 16.7 C 0 km/h
2941 21-08-2008 01:39:02 16.4 C 8.93 g/m*3 16.4 C 0 km/h
2942 21-08-2008 01:51:02 16.2 C 8.96 g/m*3 16.2 C 0 km/h
2943 21-08-2008 02:03:02 16 C 8.99 g/m*3 16 C 0 km/h
2944 21-08-2008 02:15:02 15.9 C 9.07 g/m*3 15.9 C 0 km/h
2945 21-08-2008 02:27:02 15.6 C 9.04 g/m*3 15.6 C 0 km/h
2946 21-08-2008 02:39:02 15.3 C 9.01 g/m*3 15.3 C 0 km/h
2947 21-08-2008 02:51:02 14.9 C 9.05 g/m*3 14.9 C 0 km/h
2948 21-08-2008 03:03:02 14.8 C 9.12 g/m*3 14.8 C 0 km/h
2949 21-08-2008 03:15:02 14.4 C 9.02 g/m*3 14.4 C 0 km/h
2950 21-08-2008 03:27:02 14.4 C 9.15 g/m*3 14.4 C 0 km/h
Sensor: Nr:Datum:Temp:Abs-Feuchte:Windchill:Wind:
Aussen-T/F 2951 21-08-2008 03:39:02 14.3 C 9.09 g/m*3 14.3 C 0 km/h
2952 21-08-2008 03:51:02 14.1 C 9.1 g/m*3 14.1 C 0 km/h
2953 21-08-2008 04:03:02 13.9 C 9.11 g/m*3 13.9 C 0 km/h
2954 21-08-2008 04:15:03 13.7 C 9 g/m*3 13.7 C 0 km/h
2955 21-08-2008 04:27:03 13.5 C 9.01 g/m*3 13.5 C 0 km/h
2956 21-08-2008 04:39:03 13.5 C 9.01 g/m*3 13.5 C 0 km/h
2957 21-08-2008 04:51:03 13.3 C 9.01 g/m*3 13.3 C 0 km/h
2958 21-08-2008 05:03:03 13.2 C 9.07 g/m*3 13.2 C 0 km/h
2959 21-08-2008 05:15:03 13.1 C 9.01 g/m*3 13.1 C 0 km/h
2960 21-08-2008 05:27:03 13.1 C 9.13 g/m*3 13.1 C 0 km/h
2961 21-08-2008 05:39:03 13.1 C 9.01 g/m*3 13.1 C 0 km/h
2962 21-08-2008 05:51:03 13.1 C 9.01 g/m*3 13.1 C 0 km/h
2963 21-08-2008 06:03:03 13 C 8.96 g/m*3 13 C 0 km/h
2964 21-08-2008 06:15:03 12.9 C 9.02 g/m*3 12.9 C 0 km/h
2965 21-08-2008 06:27:03 12.9 C 9.13 g/m*3 12.9 C 0 km/h
2966 21-08-2008 06:39:02 13.2 C 9.19 g/m*3 13.2 C 0 km/h
2967 21-08-2008 06:51:02 13.4 C 9.3 g/m*3 13.4 C 0 km/h
2968 21-08-2008 07:03:02 13.6 C 9.3 g/m*3 13.6 C 0 km/h
2969 21-08-2008 07:15:02 13.7 C 9.35 g/m*3 13.7 C 0 km/h
2970 21-08-2008 07:27:02 14 C 9.41 g/m*3 14 C 0 km/h
2971 21-08-2008 07:39:02 14.2 C 9.4 g/m*3 14.2 C 0 km/h
2972 21-08-2008 07:51:02 14.6 C 9.51 g/m*3 14.6 C 0 km/h
2973 21-08-2008 08:03:02 14.6 C 9.26 g/m*3 14.6 C 0 km/h
2974 21-08-2008 08:15:02 14.5 C 9.33 g/m*3 14.5 C 0 km/h
2975 21-08-2008 08:27:02 14.8 C 9.5 g/m*3 14.8 C 0 km/h
Sensor: Nr:Datum:Temp:Abs-Feuchte:Windchill:Wind:
Aussen-T/F 2976 21-08-2008 08:39:02 15.4 C 9.2 g/m*3 15.4 C 0 km/h
2977 21-08-2008 08:51:02 16 C 9.13 g/m*3 16 C 0 km/h
2978 21-08-2008 09:03:02 15.9 C 9.07 g/m*3 15.9 C 0 km/h
2979 21-08-2008 09:15:02 15.8 C 9.15 g/m*3 15.8 C 0 km/h
2980 21-08-2008 09:27:02 15.9 C 9.21 g/m*3 15.9 C 0 km/h
2981 21-08-2008 09:39:02 16.3 C 9.43 g/m*3 16.3 C 0 km/h
2982 21-08-2008 09:51:02 16.8 C 9.58 g/m*3 16.8 C 0 km/h
2983 21-08-2008 10:03:01 17.3 C 9.43 g/m*3 17.3 C 0 km/h
2984 21-08-2008 10:15:02 17.8 C 9.26 g/m*3 17.8 C 0 km/h
2985 21-08-2008 10:27:02 18.4 C 9.28 g/m*3 18.4 C 0 km/h
2986 21-08-2008 10:39:01 19.1 C 9.02 g/m*3 19.1 C 0 km/h
2987 21-08-2008 10:51:02 20.6 C 8.59 g/m*3 20.6 C 0 km/h
2988 21-08-2008 11:03:01 20.3 C 8.27 g/m*3 20.3 C 0 km/h
2989 21-08-2008 11:15:02 20.8 C 8.15 g/m*3 20.8 C 0 km/h
2990 21-08-2008 11:27:02 20.7 C 8.28 g/m*3 20.7 C 0 km/h
2991 21-08-2008 11:39:01 21.3 C 7.83 g/m*3 21.3 C 0 km/h
2992 21-08-2008 11:51:01 21.5 C 8.11 g/m*3 21.5 C 0 km/h
2993 21-08-2008 12:03:01 21.5 C 8.3 g/m*3 21.5 C 0 km/h
2994 21-08-2008 12:15:02 22.7 C 7.88 g/m*3 22.7 C 0 km/h
2995 21-08-2008 12:27:02 22.5 C 7.99 g/m*3 22.5 C 0 km/h
2996 21-08-2008 12:39:01 23.5 C 7.82 g/m*3 23.5 C 0 km/h
2997 21-08-2008 12:51:01 23.3 C 7.32 g/m*3 23.3 C 0 km/h
2998 21-08-2008 13:03:02 23.4 C 7.36 g/m*3 23.4 C 0 km/h
2999 21-08-2008 13:15:01 24.2 C 7.26 g/m*3 24.2 C 0 km/h
3000 21-08-2008 13:27:01 24.6 C 6.98 g/m*3 24.6 C 0 km/h
Sensor: Nr:Datum:Temp:Abs-Feuchte:Windchill:Wind:
Aussen-T/F 3001 21-08-2008 13:39:02 24.7 C 7.24 g/m*3 24.7 C 0 km/h
3002 21-08-2008 13:51:02 24.5 C 7.16 g/m*3 24.5 C 0 km/h
3003 21-08-2008 14:03:02 25.1 C 6.94 g/m*3 25.1 C 0 km/h
3004 21-08-2008 14:15:02 25.1 C 6.94 g/m*3 25.1 C 0 km/h
3005 21-08-2008 14:27:02 25.1 C 6.94 g/m*3 25.1 C 0 km/h
3006 21-08-2008 14:39:02 25.6 C 6.67 g/m*3 25.6 C 0 km/h
3007 21-08-2008 14:51:02 25.6 C 6.9 g/m*3 25.6 C 0 km/h
3008 21-08-2008 15:03:03 25.5 C 6.87 g/m*3 25.5 C 0 km/h
3009 21-08-2008 15:15:02 25.8 C 6.98 g/m*3 25.8 C 0 km/h
3010 21-08-2008 15:27:02 25.8 C 6.74 g/m*3 25.8 C 0 km/h
3011 21-08-2008 15:39:02 25.9 C 7.02 g/m*3 25.9 C 0 km/h
3012 21-08-2008 15:51:02 25.7 C 7.18 g/m*3 25.7 C 0 km/h
3013 21-08-2008 16:03:01 25.4 C 7.06 g/m*3 25.4 C 0 km/h
3014 21-08-2008 16:15:02 25.5 C 7.34 g/m*3 25.5 C 0 km/h
3015 21-08-2008 16:27:02 25.3 C 7.26 g/m*3 25.3 C 0 km/h
3016 21-08-2008 16:39:02 25.9 C 7.26 g/m*3 25.9 C 0 km/h
3017 21-08-2008 16:51:02 25.7 C 7.42 g/m*3 25.7 C 0 km/h
3018 21-08-2008 17:03:01 25.4 C 7.53 g/m*3 25.4 C 0 km/h
3019 21-08-2008 17:15:01 25 C 7.37 g/m*3 25 C 0 km/h
3020 21-08-2008 17:27:01 25.4 C 7.3 g/m*3 25.4 C 0 km/h
3021 21-08-2008 17:39:01 25.3 C 7.26 g/m*3 25.3 C 0 km/h
3022 21-08-2008 17:51:03 26.1 C 7.34 g/m*3 26.1 C 0 km/h
3023 21-08-2008 18:03:02 25.8 C 7.46 g/m*3 25.8 C 0 km/h
3024 21-08-2008 18:15:02 25.4 C 7.53 g/m*3 25.4 C 0 km/h
3025 21-08-2008 18:27:02 25.4 C 7.53 g/m*3 25.4 C 0 km/h
Sensor: Nr:Datum:Temp:Abs-Feuchte:Windchill:Wind:
Aussen-T/F 3026 21-08-2008 18:39:02 24.5 C 7.83 g/m*3 24.5 C 0 km/h
3027 21-08-2008 18:51:02 24.1 C 7.88 g/m*3 24.1 C 0 km/h
3028 21-08-2008 19:03:02 23.7 C 7.91 g/m*3 23.7 C 0 km/h
3029 21-08-2008 19:15:03 23.3 C 8.15 g/m*3 23.3 C 0 km/h
3030 21-08-2008 19:27:03 22.9 C 8.17 g/m*3 22.9 C 0 km/h
3031 21-08-2008 19:39:02 22.8 C 8.33 g/m*3 22.8 C 0 km/h
3032 21-08-2008 19:51:01 22.9 C 8.38 g/m*3 22.9 C 0 km/h
3033 21-08-2008 20:03:01 22.8 C 8.53 g/m*3 22.8 C 0 km/h
3034 21-08-2008 20:15:01 22.6 C 8.44 g/m*3 22.6 C 0 km/h
3035 21-08-2008 20:27:01 22.5 C 8.59 g/m*3 22.5 C 0 km/h
3036 21-08-2008 20:39:01 22.3 C 8.49 g/m*3 22.3 C 0 km/h
3037 21-08-2008 20:51:01 22.2 C 8.44 g/m*3 22.2 C 0 km/h
3038 21-08-2008 21:03:02 22 C 8.54 g/m*3 22 C 0 km/h
3039 21-08-2008 21:15:01 21.9 C 8.68 g/m*3 21.9 C 0 km/h
3040 21-08-2008 21:27:01 21.9 C 8.68 g/m*3 21.9 C 0 km/h
3041 21-08-2008 21:39:02 21.7 C 8.77 g/m*3 21.7 C 0 km/h
3042 21-08-2008 21:51:02 21.6 C 8.72 g/m*3 21.6 C 0 km/h
3043 21-08-2008 22:04:03 21.3 C 8.76 g/m*3 21.3 C 0 km/h
3044 21-08-2008 22:16:03 21.1 C 8.66 g/m*3 21.1 C 0 km/h
3045 21-08-2008 22:28:03 21 C 8.79 g/m*3 21 C 0 km/h
3046 21-08-2008 22:40:03 20.7 C 9 g/m*3 20.7 C 0 km/h
3047 21-08-2008 22:52:03 20.7 C 9 g/m*3 20.7 C 0 km/h
3048 21-08-2008 23:04:03 20.6 C 9.13 g/m*3 20.6 C 0 km/h
3049 21-08-2008 23:16:04 20.6 C 9.13 g/m*3 20.6 C 0 km/h
3050 21-08-2008 23:28:04 20.4 C 9.2 g/m*3 20.4 C 0 km/h
Sensor: Nr:Datum:Temp:Abs-Feuchte:Windchill:Wind:
Aussen-T/F 3051 21-08-2008 23:40:04 20.4 C 9.2 g/m*3 20.4 C 0 km/h
3052 21-08-2008 23:52:04 20.2 C 9.27 g/m*3 20.2 C 0 km/h
3053 22-08-2008 00:04:04 20.1 C 9.21 g/m*3 20.1 C 0 km/h
3054 22-08-2008 00:16:04 20 C 9.33 g/m*3 20 C 0 km/h
3055 22-08-2008 00:28:04 20.1 C 9.21 g/m*3 20.1 C 0 km/h
3056 22-08-2008 00:40:04 20 C 9.33 g/m*3 20 C 0 km/h
3057 22-08-2008 00:52:04 19.9 C 9.28 g/m*3 19.9 C 0 km/h
3058 22-08-2008 01:04:04 20 C 9.33 g/m*3 20 C 0 km/h
3059 22-08-2008 01:16:04 20.3 C 9.67 g/m*3 20.3 C 0 km/h
3060 22-08-2008 01:28:04 19.6 C 9.62 g/m*3 19.6 C 0 km/h
3061 22-08-2008 01:40:04 19.5 C 9.57 g/m*3 19.5 C 0 km/h
3062 22-08-2008 01:52:04 19.3 C 9.45 g/m*3 19.3 C 0 km/h
3063 22-08-2008 02:04:04 19.1 C 9.51 g/m*3 19.1 C 0 km/h
3064 22-08-2008 02:16:04 18.9 C 9.56 g/m*3 18.9 C 0 km/h
3065 22-08-2008 02:28:04 18.7 C 9.45 g/m*3 18.7 C 0 km/h
3066 22-08-2008 02:40:04 18.5 C 9.33 g/m*3 18.5 C 0 km/h
3067 22-08-2008 02:52:04 18.4 C 9.44 g/m*3 18.4 C 0 km/h
3068 22-08-2008 03:04:05 18.5 C 9.33 g/m*3 18.5 C 0 km/h
3069 22-08-2008 03:16:05 18.5 C 9.49 g/m*3 18.5 C 0 km/h
3070 22-08-2008 03:28:05 18.4 C 9.44 g/m*3 18.4 C 0 km/h
3071 22-08-2008 03:40:05 18.5 C 9.49 g/m*3 18.5 C 0 km/h
3072 22-08-2008 03:52:05 18.5 C 9.49 g/m*3 18.5 C 0 km/h
3073 22-08-2008 04:04:05 18.5 C 9.49 g/m*3 18.5 C 0 km/h
3074 22-08-2008 04:16:05 18.4 C 9.44 g/m*3 18.4 C 0 km/h
3075 22-08-2008 04:28:05 18.4 C 9.59 g/m*3 18.4 C 0 km/h
Sensor: Nr:Datum:Temp:Abs-Feuchte:Windchill:Wind:
Aussen-T/F 3076 22-08-2008 04:40:05 18.3 C 9.54 g/m*3 18.3 C 0 km/h
3077 22-08-2008 04:52:05 18.2 C 9.64 g/m*3 18.2 C 0 km/h
3078 22-08-2008 05:04:05 18.2 C 9.64 g/m*3 18.2 C 0 km/h
3079 22-08-2008 05:16:05 18.1 C 9.58 g/m*3 18.1 C 0 km/h
3080 22-08-2008 05:28:05 18.2 C 9.64 g/m*3 18.2 C 0 km/h
3081 22-08-2008 05:40:05 18.1 C 9.73 g/m*3 18.1 C 0 km/h
3082 22-08-2008 05:52:05 18 C 9.68 g/m*3 18 C 0 km/h
3083 22-08-2008 06:04:05 17.9 C 9.77 g/m*3 17.9 C 0 km/h
3084 22-08-2008 06:16:05 17.5 C 9.69 g/m*3 17.5 C 0 km/h
3085 22-08-2008 06:28:05 17.3 C 9.72 g/m*3 17.3 C 0 km/h
3086 22-08-2008 06:40:05 17 C 9.69 g/m*3 17 C 0 km/h
3087 22-08-2008 06:52:06 16.8 C 9.87 g/m*3 16.8 C 0 km/h
3088 22-08-2008 07:04:06 16.9 C 9.92 g/m*3 16.9 C 0 km/h
3089 22-08-2008 07:16:02 16.8 C 10.01 g/m*3 16.8 C 0 km/h
3090 22-08-2008 07:28:02 17 C 10.13 g/m*3 17 C 0 km/h
3091 22-08-2008 07:40:03 17.2 C 10.1 g/m*3 17.2 C 0 km/h
3092 22-08-2008 07:52:01 17.6 C 10.35 g/m*3 17.6 C 0 km/h
3093 22-08-2008 08:04:01 17.7 C 10.26 g/m*3 17.7 C 0 km/h
3094 22-08-2008 08:16:01 17.8 C 10.32 g/m*3 17.8 C 0 km/h
3095 22-08-2008 08:28:01 18 C 9.98 g/m*3 18 C 0 km/h
3096 22-08-2008 08:40:01 17.9 C 9.92 g/m*3 17.9 C 0 km/h
3097 22-08-2008 08:52:02 17.7 C 9.96 g/m*3 17.7 C 0 km/h
3098 22-08-2008 09:04:02 17.8 C 10.02 g/m*3 17.8 C 0 km/h
3099 22-08-2008 09:16:02 18.1 C 9.89 g/m*3 18.1 C 0 km/h
3100 22-08-2008 09:28:02 18.7 C 10.09 g/m*3 18.7 C 0 km/h
Sensor: Nr:Datum:Temp:Abs-Feuchte:Windchill:Wind:
Aussen-T/F 3101 22-08-2008 09:40:02 19.3 C 10.12 g/m*3 19.3 C 0 km/h
3102 22-08-2008 09:52:02 20 C 10.02 g/m*3 20 C 0 km/h
3103 22-08-2008 10:04:02 20.6 C 10.02 g/m*3 20.6 C 0 km/h
3104 22-08-2008 10:16:02 21.2 C 9.82 g/m*3 21.2 C 0 km/h
3105 22-08-2008 10:28:02 22.2 C 9.82 g/m*3 22.2 C 0 km/h
3106 22-08-2008 10:40:02 22.9 C 9.61 g/m*3 22.9 C 0 km/h
3107 22-08-2008 10:52:02 23.3 C 9.41 g/m*3 23.3 C 0 km/h
3108 22-08-2008 11:04:02 23.6 C 9.36 g/m*3 23.6 C 0 km/h
3109 22-08-2008 11:16:02 24.4 C 9.12 g/m*3 24.4 C 0 km/h
3110 22-08-2008 11:28:02 24.9 C 8.93 g/m*3 24.9 C 0 km/h
3111 22-08-2008 11:40:02 24.5 C 9.4 g/m*3 24.5 C 0 km/h
3112 22-08-2008 11:52:02 24.9 C 9.16 g/m*3 24.9 C 0 km/h
3113 22-08-2008 12:04:02 24.8 C 8.88 g/m*3 24.8 C 0 km/h
3114 22-08-2008 12:16:02 24.8 C 9.1 g/m*3 24.8 C 0 km/h
3115 22-08-2008 12:28:02 24.8 C 8.88 g/m*3 24.8 C 0 km/h
3116 22-08-2008 12:40:02 24.5 C 8.95 g/m*3 24.5 C 0 km/h
3117 22-08-2008 12:52:02 24.5 C 9.18 g/m*3 24.5 C 0 km/h
3118 22-08-2008 13:04:02 24.3 C 9.07 g/m*3 24.3 C 0 km/h
3119 22-08-2008 13:16:02 24.2 C 9.24 g/m*3 24.2 C 0 km/h
3120 22-08-2008 13:28:02 23.4 C 9.88 g/m*3 23.4 C 0 km/h
3121 22-08-2008 13:40:02 22.9 C 10.22 g/m*3 22.9 C 0 km/h
3122 22-08-2008 13:52:02 21.5 C 10.94 g/m*3 21.5 C 0 km/h
3123 22-08-2008 14:04:01 19.1 C 11.31 g/m*3 19.1 C 0 km/h
3124 22-08-2008 14:16:02 18.1 C 12.05 g/m*3 18.1 C 0 km/h
3125 22-08-2008 14:28:02 17.9 C 12.67 g/m*3 17.9 C 0 km/h
Sensor: Nr:Datum:Temp:Abs-Feuchte:Windchill:Wind:
Aussen-T/F 3126 22-08-2008 14:40:01 18.2 C 12.9 g/m*3 18.2 C 0 km/h
3127 22-08-2008 14:52:02 18.1 C 12.82 g/m*3 18.1 C 0 km/h
3128 22-08-2008 15:04:01 18.4 C 13.21 g/m*3 18.4 C 0 km/h
3129 22-08-2008 15:16:02 18.5 C 13.29 g/m*3 18.5 C 0 km/h
3130 22-08-2008 15:28:02 18 C 13.21 g/m*3 18 C 0 km/h
3131 22-08-2008 15:40:01 17.9 C 13.44 g/m*3 17.9 C 0 km/h
3132 22-08-2008 15:52:03 18.3 C 13.76 g/m*3 18.3 C 0 km/h
3133 22-08-2008 16:04:02 18.5 C 13.92 g/m*3 18.5 C 0 km/h
3134 22-08-2008 16:16:03 18.3 C 13.76 g/m*3 18.3 C 0 km/h
3135 22-08-2008 16:28:03 18.5 C 13.92 g/m*3 18.5 C 0 km/h
3136 22-08-2008 16:40:03 18.2 C 13.68 g/m*3 18.2 C 0 km/h
3137 22-08-2008 16:52:02 17.9 C 13.59 g/m*3 17.9 C 0 km/h
3138 22-08-2008 17:04:02 17.8 C 13.36 g/m*3 17.8 C 0 km/h
3139 22-08-2008 17:16:01 17.8 C 13.36 g/m*3 17.8 C 0 km/h
3140 22-08-2008 17:28:01 17.7 C 13.28 g/m*3 17.7 C 0 km/h
3141 22-08-2008 17:40:02 17.5 C 13.12 g/m*3 17.5 C 0 km/h
3142 22-08-2008 17:52:02 17.5 C 13.12 g/m*3 17.5 C 0 km/h
3143 22-08-2008 18:04:02 17.5 C 13.12 g/m*3 17.5 C 0 km/h
3144 22-08-2008 18:16:02 16.1 C 11.79 g/m*3 16.1 C 0 km/h
3145 22-08-2008 18:28:02 15.7 C 11.51 g/m*3 15.7 C 0 km/h
3146 22-08-2008 18:40:02 15.5 C 11.5 g/m*3 15.5 C 0 km/h
3147 22-08-2008 18:52:02 15.6 C 11.84 g/m*3 15.6 C 0 km/h
3148 22-08-2008 19:04:02 15.4 C 11.69 g/m*3 15.4 C 0 km/h
3149 22-08-2008 19:16:02 15.2 C 11.68 g/m*3 15.2 C 0 km/h
3150 22-08-2008 19:28:02 15.2 C 11.81 g/m*3 15.2 C 0 km/h
Sensor: Nr:Datum:Temp:Abs-Feuchte:Windchill:Wind:
Aussen-T/F 3151 22-08-2008 19:40:02 15.4 C 11.96 g/m*3 15.4 C 0 km/h
3152 22-08-2008 19:52:02 15.4 C 12.09 g/m*3 15.4 C 0 km/h
3153 22-08-2008 20:04:01 15.4 C 12.09 g/m*3 15.4 C 0 km/h
3154 22-08-2008 20:16:02 15.3 C 12.01 g/m*3 15.3 C 0 km/h
3155 22-08-2008 20:28:02 15.3 C 12.01 g/m*3 15.3 C 0 km/h
3156 22-08-2008 20:40:01 15.4 C 12.22 g/m*3 15.4 C 0 km/h
3157 22-08-2008 20:52:02 15.4 C 12.22 g/m*3 15.4 C 0 km/h
3158 22-08-2008 21:04:01 15.4 C 12.22 g/m*3 15.4 C 0 km/h
3159 22-08-2008 21:16:02 15.5 C 12.29 g/m*3 15.5 C 0 km/h
3160 22-08-2008 21:28:02 15.3 C 12.14 g/m*3 15.3 C 0 km/h
3161 22-08-2008 21:40:01 15.1 C 12 g/m*3 15.1 C 0 km/h
3162 22-08-2008 21:52:03 14.9 C 11.98 g/m*3 14.9 C 0 km/h
3163 22-08-2008 22:04:02 14.8 C 11.91 g/m*3 14.8 C 0 km/h
3164 22-08-2008 22:16:03 14.8 C 11.91 g/m*3 14.8 C 0 km/h
3165 22-08-2008 22:28:03 14.8 C 11.91 g/m*3 14.8 C 0 km/h
3166 22-08-2008 22:40:02 15 C 12.05 g/m*3 15 C 0 km/h
3167 22-08-2008 22:52:01 15 C 12.05 g/m*3 15 C 0 km/h
3168 22-08-2008 23:05:02 14.7 C 11.83 g/m*3 14.7 C 0 km/h
3169 22-08-2008 23:17:02 14.6 C 11.76 g/m*3 14.6 C 0 km/h
3170 22-08-2008 23:29:02 14.7 C 11.83 g/m*3 14.7 C 0 km/h
3171 22-08-2008 23:41:02 14.8 C 12.03 g/m*3 14.8 C 0 km/h
3172 22-08-2008 23:53:02 14.6 C 11.76 g/m*3 14.6 C 0 km/h
3173 23-08-2008 00:05:02 14.5 C 11.69 g/m*3 14.5 C 0 km/h
3174 23-08-2008 00:17:02 14.3 C 11.55 g/m*3 14.3 C 0 km/h
3175 23-08-2008 00:29:02 14.1 C 11.53 g/m*3 14.1 C 0 km/h
Sensor: Nr:Datum:Temp:Abs-Feuchte:Windchill:Wind:
Aussen-T/F 3176 23-08-2008 00:41:02 14 C 11.34 g/m*3 14 C 0 km/h
3177 23-08-2008 00:53:02 14 C 11.34 g/m*3 14 C 0 km/h
3178 23-08-2008 01:05:02 14 C 11.34 g/m*3 14 C 0 km/h
3179 23-08-2008 01:17:02 13.8 C 11.32 g/m*3 13.8 C 0 km/h
3180 23-08-2008 01:29:02 13.8 C 11.32 g/m*3 13.8 C 0 km/h
3181 23-08-2008 01:41:03 13.7 C 11.13 g/m*3 13.7 C 0 km/h
3182 23-08-2008 01:53:03 13.8 C 11.2 g/m*3 13.8 C 0 km/h
3183 23-08-2008 02:05:03 13.8 C 11.2 g/m*3 13.8 C 0 km/h
3184 23-08-2008 02:17:03 13.7 C 11.13 g/m*3 13.7 C 0 km/h
3185 23-08-2008 02:29:03 13.7 C 11.01 g/m*3 13.7 C 0 km/h
3186 23-08-2008 02:41:03 13.7 C 11.01 g/m*3 13.7 C 0 km/h
3187 23-08-2008 02:53:03 13.6 C 10.95 g/m*3 13.6 C 0 km/h
3188 23-08-2008 03:05:03 13.6 C 10.95 g/m*3 13.6 C 0 km/h
3189 23-08-2008 03:17:03 13.3 C 10.4 g/m*3 13.3 C 0 km/h
3190 23-08-2008 03:29:03 13 C 9.75 g/m*3 13 C 0 km/h
3191 23-08-2008 03:41:03 12.6 C 9.4 g/m*3 12.6 C 0 km/h
3192 23-08-2008 03:53:03 12.2 C 9.28 g/m*3 12.2 C 0 km/h
3193 23-08-2008 04:05:03 11.9 C 9.32 g/m*3 11.9 C 0 km/h
3194 23-08-2008 04:17:03 11.7 C 9.31 g/m*3 11.7 C 0 km/h
3195 23-08-2008 04:29:03 11.5 C 9.3 g/m*3 11.5 C 0 km/h
3196 23-08-2008 04:41:03 11.4 C 9.34 g/m*3 11.4 C 0 km/h
3197 23-08-2008 04:53:03 11.2 C 9.22 g/m*3 11.2 C 0 km/h
3198 23-08-2008 05:05:03 11.1 C 9.17 g/m*3 11.1 C 0 km/h
3199 23-08-2008 05:17:03 10.9 C 9.15 g/m*3 10.9 C 0 km/h
3200 23-08-2008 05:29:04 10.8 C 9.09 g/m*3 10.8 C 0 km/h
Sensor: Nr:Datum:Temp:Abs-Feuchte:Windchill:Wind:
Aussen-T/F 3201 23-08-2008 05:41:04 10.8 C 9.09 g/m*3 10.8 C 0 km/h
3202 23-08-2008 05:53:04 11 C 9.21 g/m*3 11 C 0 km/h
3203 23-08-2008 06:05:04 11.2 C 9.43 g/m*3 11.2 C 0 km/h
3204 23-08-2008 06:17:04 11 C 9.21 g/m*3 11 C 0 km/h
3205 23-08-2008 06:29:04 10.9 C 9.25 g/m*3 10.9 C 0 km/h
3206 23-08-2008 06:41:04 10.8 C 9.19 g/m*3 10.8 C 0 km/h
3207 23-08-2008 06:53:04 10.7 C 9.13 g/m*3 10.7 C 0 km/h
3208 23-08-2008 07:05:04 10.7 C 9.13 g/m*3 10.7 C 0 km/h
3209 23-08-2008 07:17:04 10.7 C 9.13 g/m*3 10.7 C 0 km/h
3210 23-08-2008 07:29:04 10.8 C 9.19 g/m*3 10.8 C 0 km/h
3211 23-08-2008 07:41:04 11.1 C 9.27 g/m*3 11.1 C 0 km/h
3212 23-08-2008 07:53:01 11.6 C 9.56 g/m*3 11.6 C 0 km/h
3213 23-08-2008 08:05:02 12 C 9.7 g/m*3 12 C 0 km/h
3214 23-08-2008 08:17:02 12.1 C 9.65 g/m*3 12.1 C 0 km/h
3215 23-08-2008 08:29:02 12.7 C 9.8 g/m*3 12.7 C 0 km/h
3216 23-08-2008 08:41:01 12.5 C 9.24 g/m*3 12.5 C 0 km/h
3217 23-08-2008 08:53:01 12.6 C 9.07 g/m*3 12.6 C 0 km/h
3218 23-08-2008 09:05:02 12.8 C 8.96 g/m*3 12.8 C 0 km/h
3219 23-08-2008 09:17:01 13.2 C 8.96 g/m*3 13.2 C 0 km/h
3220 23-08-2008 09:29:01 13.3 C 8.78 g/m*3 13.3 C 0 km/h
3221 23-08-2008 09:41:01 13.4 C 9.07 g/m*3 13.4 C 0 km/h
3222 23-08-2008 09:53:02 14.5 C 9.58 g/m*3 14.5 C 0 km/h
3223 23-08-2008 10:05:01 14.4 C 8.78